<?xml version="1.0" encoding="UTF-8" standalone="no" ?>
<gpx xmlns="http://www.topografix.com/GPX/1/1" xmlns:xsi="http://www.w3.org/2001/XMLSchema-instance" xsi:schemaLocation="http://www.topografix.com/GPX/1/1 http://www.topografix.com/GPX/1/1/gpx.xsd" version="1.1" creator="VisuGPX - https://www.visugpx.com">
  <metadata>
    <name>Cassepattes Limours 2025</name>
  </metadata>
  <trk>
    <name><![CDATA[Casse Pattes Limours 2025_1]]></name>
    <extensions>
      <line xmlns="http://www.topografix.com/GPX/gpx_style/0/2">
        <color>0400ff</color>
        <opacity>1</opacity>
        <width>4</width>
          <extensions>
            <sens>1</sens>
          </extensions>
      </line>
    </extensions>
    <trkseg>
      <trkpt lat="48.64493" lon="2.08956">
        <ele>122</ele>
        <time>2025-08-28T17:33:38.000Z</time>
      </trkpt>
      <trkpt lat="48.64493" lon="2.08956">
        <ele>122</ele>
        <time>2025-08-28T17:33:38.000Z</time>
      </trkpt>
      <trkpt lat="48.64492" lon="2.08957">
        <ele>122</ele>
        <time>2025-08-28T17:33:38.560Z</time>
      </trkpt>
      <trkpt lat="48.64399" lon="2.08941">
        <ele>123.2</ele>
        <time>2025-08-28T17:34:24.082Z</time>
      </trkpt>
      <trkpt lat="48.64393" lon="2.08941">
        <ele>123.2</ele>
        <time>2025-08-28T17:34:26.886Z</time>
      </trkpt>
      <trkpt lat="48.64393" lon="2.08941">
        <ele>123.2</ele>
        <time>2025-08-28T17:34:26.886Z</time>
        <extensions>
          <visugpx:TrkExtension xmlns:visugpx="https://www.visugpx.com/editgpx/">
            <visugpx:node>1</visugpx:node>
            </visugpx:TrkExtension>
        </extensions>
      </trkpt>
      <trkpt lat="48.64393" lon="2.08942">
        <ele>123.2</ele>
        <time>2025-08-28T17:34:27.195Z</time>
      </trkpt>
      <trkpt lat="48.6436" lon="2.08939">
        <ele>124</ele>
        <time>2025-08-28T17:34:43.861Z</time>
      </trkpt>
      <trkpt lat="48.64341" lon="2.08936">
        <ele>124</ele>
        <time>2025-08-28T17:34:52.789Z</time>
      </trkpt>
      <trkpt lat="48.64326" lon="2.08933">
        <ele>124.3</ele>
        <time>2025-08-28T17:35:00.312Z</time>
      </trkpt>
      <trkpt lat="48.64304" lon="2.0893">
        <ele>125.1</ele>
        <time>2025-08-28T17:35:11.883Z</time>
      </trkpt>
      <trkpt lat="48.6429" lon="2.08929">
        <ele>125.6</ele>
        <time>2025-08-28T17:35:19.212Z</time>
      </trkpt>
      <trkpt lat="48.64283" lon="2.08927">
        <ele>125.8</ele>
        <time>2025-08-28T17:35:22.847Z</time>
      </trkpt>
      <trkpt lat="48.64272" lon="2.08925">
        <ele>126.1</ele>
        <time>2025-08-28T17:35:28.484Z</time>
      </trkpt>
      <trkpt lat="48.64272" lon="2.08925">
        <ele>126.1</ele>
        <time>2025-08-28T17:35:28.484Z</time>
        <extensions>
          <visugpx:TrkExtension xmlns:visugpx="https://www.visugpx.com/editgpx/">
            <visugpx:node>2</visugpx:node>
            </visugpx:TrkExtension>
        </extensions>
      </trkpt>
      <trkpt lat="48.64267" lon="2.08924">
        <ele>126.3</ele>
        <time>2025-08-28T17:35:31.155Z</time>
      </trkpt>
      <trkpt lat="48.64223" lon="2.08909">
        <ele>128</ele>
        <time>2025-08-28T17:35:54.894Z</time>
      </trkpt>
      <trkpt lat="48.64217" lon="2.08912">
        <ele>128</ele>
        <time>2025-08-28T17:35:57.848Z</time>
      </trkpt>
      <trkpt lat="48.64218" lon="2.08918">
        <ele>128</ele>
        <time>2025-08-28T17:35:59.759Z</time>
      </trkpt>
      <trkpt lat="48.64208" lon="2.08975">
        <ele>126.5</ele>
        <time>2025-08-28T17:36:15.982Z</time>
      </trkpt>
      <trkpt lat="48.64208" lon="2.08975">
        <ele>126.5</ele>
        <time>2025-08-28T17:36:15.982Z</time>
        <extensions>
          <visugpx:TrkExtension xmlns:visugpx="https://www.visugpx.com/editgpx/">
            <visugpx:node>3</visugpx:node>
            </visugpx:TrkExtension>
        </extensions>
      </trkpt>
      <trkpt lat="48.64208" lon="2.08975">
        <ele>126.5</ele>
        <time>2025-08-28T17:36:15.982Z</time>
      </trkpt>
      <trkpt lat="48.64206" lon="2.08982">
        <ele>126.6</ele>
        <time>2025-08-28T17:36:18.487Z</time>
      </trkpt>
      <trkpt lat="48.64198" lon="2.09041">
        <ele>125.5</ele>
        <time>2025-08-28T17:36:35.595Z</time>
      </trkpt>
      <trkpt lat="48.64193" lon="2.09081">
        <ele>125</ele>
        <time>2025-08-28T17:36:47.476Z</time>
      </trkpt>
      <trkpt lat="48.64185" lon="2.09135">
        <ele>124.7</ele>
        <time>2025-08-28T17:37:04.143Z</time>
      </trkpt>
      <trkpt lat="48.64184" lon="2.09155">
        <ele>123.9</ele>
        <time>2025-08-28T17:37:09.563Z</time>
      </trkpt>
      <trkpt lat="48.64182" lon="2.09185">
        <ele>123.2</ele>
        <time>2025-08-28T17:37:17.940Z</time>
      </trkpt>
      <trkpt lat="48.64171" lon="2.09192">
        <ele>123.1</ele>
        <time>2025-08-28T17:37:23.376Z</time>
      </trkpt>
      <trkpt lat="48.64171" lon="2.09192">
        <ele>123.1</ele>
        <time>2025-08-28T17:37:23.376Z</time>
      </trkpt>
      <trkpt lat="48.64171" lon="2.09192">
        <ele>123.1</ele>
        <time>2025-08-28T17:37:23.376Z</time>
        <extensions>
          <visugpx:TrkExtension xmlns:visugpx="https://www.visugpx.com/editgpx/">
            <visugpx:node>4</visugpx:node>
            </visugpx:TrkExtension>
        </extensions>
      </trkpt>
      <trkpt lat="48.64168" lon="2.09205">
        <ele>123</ele>
        <time>2025-08-28T17:37:27.488Z</time>
      </trkpt>
      <trkpt lat="48.64114" lon="2.09495">
        <ele>121.1</ele>
        <time>2025-08-28T17:38:57.859Z</time>
      </trkpt>
      <trkpt lat="48.64091" lon="2.09698">
        <ele>118.7</ele>
        <time>2025-08-28T17:39:58.142Z</time>
      </trkpt>
      <trkpt lat="48.64091" lon="2.09698">
        <ele>118.7</ele>
        <time>2025-08-28T17:39:58.142Z</time>
        <extensions>
          <visugpx:TrkExtension xmlns:visugpx="https://www.visugpx.com/editgpx/">
            <visugpx:node>5</visugpx:node>
            </visugpx:TrkExtension>
        </extensions>
      </trkpt>
      <trkpt lat="48.6409" lon="2.09706">
        <ele>118.8</ele>
        <time>2025-08-28T17:40:00.807Z</time>
      </trkpt>
      <trkpt lat="48.64089" lon="2.09715">
        <ele>118.8</ele>
        <time>2025-08-28T17:40:03.625Z</time>
      </trkpt>
      <trkpt lat="48.64088" lon="2.09723">
        <ele>118.8</ele>
        <time>2025-08-28T17:40:06.140Z</time>
      </trkpt>
      <trkpt lat="48.64087" lon="2.09731">
        <ele>118.6</ele>
        <time>2025-08-28T17:40:08.388Z</time>
      </trkpt>
      <trkpt lat="48.64086" lon="2.0974">
        <ele>118.3</ele>
        <time>2025-08-28T17:40:10.854Z</time>
      </trkpt>
      <trkpt lat="48.64085" lon="2.09748">
        <ele>118.1</ele>
        <time>2025-08-28T17:40:13.103Z</time>
      </trkpt>
      <trkpt lat="48.64084" lon="2.09756">
        <ele>118</ele>
        <time>2025-08-28T17:40:15.479Z</time>
      </trkpt>
      <trkpt lat="48.64083" lon="2.09765">
        <ele>118</ele>
        <time>2025-08-28T17:40:18.298Z</time>
      </trkpt>
      <trkpt lat="48.64082" lon="2.09773">
        <ele>118</ele>
        <time>2025-08-28T17:40:20.812Z</time>
      </trkpt>
      <trkpt lat="48.64081" lon="2.09781">
        <ele>118</ele>
        <time>2025-08-28T17:40:23.327Z</time>
      </trkpt>
      <trkpt lat="48.6408" lon="2.0979">
        <ele>118</ele>
        <time>2025-08-28T17:40:26.145Z</time>
      </trkpt>
      <trkpt lat="48.64079" lon="2.09798">
        <ele>118</ele>
        <time>2025-08-28T17:40:28.660Z</time>
      </trkpt>
      <trkpt lat="48.64078" lon="2.09807">
        <ele>118</ele>
        <time>2025-08-28T17:40:31.478Z</time>
      </trkpt>
      <trkpt lat="48.64077" lon="2.09815">
        <ele>117.7</ele>
        <time>2025-08-28T17:40:33.678Z</time>
      </trkpt>
      <trkpt lat="48.64076" lon="2.09823">
        <ele>117.5</ele>
        <time>2025-08-28T17:40:35.927Z</time>
      </trkpt>
      <trkpt lat="48.64075" lon="2.09832">
        <ele>117.3</ele>
        <time>2025-08-28T17:40:38.477Z</time>
      </trkpt>
      <trkpt lat="48.64074" lon="2.0984">
        <ele>117.3</ele>
        <time>2025-08-28T17:40:40.992Z</time>
      </trkpt>
      <trkpt lat="48.64073" lon="2.09848">
        <ele>117.2</ele>
        <time>2025-08-28T17:40:43.368Z</time>
      </trkpt>
      <trkpt lat="48.64072" lon="2.09857">
        <ele>117.1</ele>
        <time>2025-08-28T17:40:46.048Z</time>
      </trkpt>
      <trkpt lat="48.64071" lon="2.09865">
        <ele>117</ele>
        <time>2025-08-28T17:40:48.424Z</time>
      </trkpt>
      <trkpt lat="48.6407" lon="2.09873">
        <ele>117</ele>
        <time>2025-08-28T17:40:50.938Z</time>
      </trkpt>
      <trkpt lat="48.64069" lon="2.09882">
        <ele>117</ele>
        <time>2025-08-28T17:40:53.757Z</time>
      </trkpt>
      <trkpt lat="48.64068" lon="2.0989">
        <ele>117</ele>
        <time>2025-08-28T17:40:56.271Z</time>
      </trkpt>
      <trkpt lat="48.64067" lon="2.09898">
        <ele>117</ele>
        <time>2025-08-28T17:40:58.786Z</time>
      </trkpt>
      <trkpt lat="48.64066" lon="2.09907">
        <ele>117</ele>
        <time>2025-08-28T17:41:01.605Z</time>
      </trkpt>
      <trkpt lat="48.64065" lon="2.09915">
        <ele>117</ele>
        <time>2025-08-28T17:41:04.119Z</time>
      </trkpt>
      <trkpt lat="48.64064" lon="2.09923">
        <ele>116.9</ele>
        <time>2025-08-28T17:41:06.495Z</time>
      </trkpt>
      <trkpt lat="48.64063" lon="2.09932">
        <ele>116.9</ele>
        <time>2025-08-28T17:41:09.314Z</time>
      </trkpt>
      <trkpt lat="48.64062" lon="2.0994">
        <ele>116.8</ele>
        <time>2025-08-28T17:41:11.690Z</time>
      </trkpt>
      <trkpt lat="48.64061" lon="2.09948">
        <ele>116.8</ele>
        <time>2025-08-28T17:41:14.205Z</time>
      </trkpt>
      <trkpt lat="48.6406" lon="2.09957">
        <ele>116.8</ele>
        <time>2025-08-28T17:41:17.023Z</time>
      </trkpt>
      <trkpt lat="48.64059" lon="2.09965">
        <ele>116.9</ele>
        <time>2025-08-28T17:41:19.688Z</time>
      </trkpt>
      <trkpt lat="48.64062" lon="2.09975">
        <ele>116.7</ele>
        <time>2025-08-28T17:41:22.808Z</time>
      </trkpt>
      <trkpt lat="48.64067" lon="2.09976">
        <ele>116.5</ele>
        <time>2025-08-28T17:41:24.900Z</time>
      </trkpt>
      <trkpt lat="48.64071" lon="2.09978">
        <ele>116.4</ele>
        <time>2025-08-28T17:41:26.733Z</time>
      </trkpt>
      <trkpt lat="48.64076" lon="2.09979">
        <ele>116.2</ele>
        <time>2025-08-28T17:41:28.825Z</time>
      </trkpt>
      <trkpt lat="48.64082" lon="2.09981">
        <ele>116</ele>
        <time>2025-08-28T17:41:31.428Z</time>
      </trkpt>
      <trkpt lat="48.64089" lon="2.09986">
        <ele>116</ele>
        <time>2025-08-28T17:41:35.046Z</time>
      </trkpt>
      <trkpt lat="48.64095" lon="2.09991">
        <ele>116</ele>
        <time>2025-08-28T17:41:38.247Z</time>
      </trkpt>
      <trkpt lat="48.64099" lon="2.09997">
        <ele>116</ele>
        <time>2025-08-28T17:41:40.879Z</time>
      </trkpt>
      <trkpt lat="48.64103" lon="2.10003">
        <ele>116.1</ele>
        <time>2025-08-28T17:41:43.661Z</time>
      </trkpt>
      <trkpt lat="48.64107" lon="2.10009">
        <ele>116.3</ele>
        <time>2025-08-28T17:41:46.605Z</time>
      </trkpt>
      <trkpt lat="48.64111" lon="2.10015">
        <ele>116.5</ele>
        <time>2025-08-28T17:41:49.548Z</time>
      </trkpt>
      <trkpt lat="48.64114" lon="2.10019">
        <ele>116.7</ele>
        <time>2025-08-28T17:41:51.739Z</time>
      </trkpt>
      <trkpt lat="48.64117" lon="2.10023">
        <ele>116.9</ele>
        <time>2025-08-28T17:41:53.929Z</time>
      </trkpt>
      <trkpt lat="48.64122" lon="2.1003">
        <ele>117</ele>
        <time>2025-08-28T17:41:57.261Z</time>
      </trkpt>
      <trkpt lat="48.64126" lon="2.10037">
        <ele>117</ele>
        <time>2025-08-28T17:42:00.119Z</time>
      </trkpt>
      <trkpt lat="48.64126" lon="2.1005">
        <ele>117.1</ele>
        <time>2025-08-28T17:42:04.282Z</time>
      </trkpt>
      <trkpt lat="48.64124" lon="2.10061">
        <ele>117</ele>
        <time>2025-08-28T17:42:07.665Z</time>
      </trkpt>
      <trkpt lat="48.64121" lon="2.10072">
        <ele>116.9</ele>
        <time>2025-08-28T17:42:11.201Z</time>
      </trkpt>
      <trkpt lat="48.64118" lon="2.10082">
        <ele>116.7</ele>
        <time>2025-08-28T17:42:14.321Z</time>
        <extensions>
          <visugpx:TrkExtension xmlns:visugpx="https://www.visugpx.com/editgpx/">
            <visugpx:node>6</visugpx:node>
            </visugpx:TrkExtension>
        </extensions>
      </trkpt>
      <trkpt lat="48.64116" lon="2.1009">
        <ele>116.8</ele>
        <time>2025-08-28T17:42:17.112Z</time>
      </trkpt>
      <trkpt lat="48.64114" lon="2.10098">
        <ele>116.9</ele>
        <time>2025-08-28T17:42:19.903Z</time>
      </trkpt>
      <trkpt lat="48.64112" lon="2.10108">
        <ele>117</ele>
        <time>2025-08-28T17:42:23.278Z</time>
      </trkpt>
      <trkpt lat="48.64109" lon="2.10118">
        <ele>117.3</ele>
        <time>2025-08-28T17:42:27.143Z</time>
      </trkpt>
      <trkpt lat="48.64107" lon="2.10127">
        <ele>117.8</ele>
        <time>2025-08-28T17:42:30.939Z</time>
      </trkpt>
      <trkpt lat="48.64104" lon="2.10136">
        <ele>118.1</ele>
        <time>2025-08-28T17:42:34.529Z</time>
      </trkpt>
      <trkpt lat="48.64102" lon="2.10146">
        <ele>118.3</ele>
        <time>2025-08-28T17:42:38.062Z</time>
      </trkpt>
      <trkpt lat="48.641" lon="2.10155">
        <ele>118.4</ele>
        <time>2025-08-28T17:42:41.144Z</time>
      </trkpt>
      <trkpt lat="48.64099" lon="2.10162">
        <ele>118.5</ele>
        <time>2025-08-28T17:42:43.506Z</time>
      </trkpt>
      <trkpt lat="48.64097" lon="2.10168">
        <ele>118.5</ele>
        <time>2025-08-28T17:42:45.582Z</time>
      </trkpt>
      <trkpt lat="48.64095" lon="2.10179">
        <ele>118.3</ele>
        <time>2025-08-28T17:42:48.833Z</time>
      </trkpt>
      <trkpt lat="48.64093" lon="2.10189">
        <ele>118</ele>
        <time>2025-08-28T17:42:51.666Z</time>
      </trkpt>
      <trkpt lat="48.64092" lon="2.10202">
        <ele>118</ele>
        <time>2025-08-28T17:42:55.708Z</time>
      </trkpt>
      <trkpt lat="48.64091" lon="2.10214">
        <ele>118</ele>
        <time>2025-08-28T17:42:59.443Z</time>
      </trkpt>
      <trkpt lat="48.64092" lon="2.10223">
        <ele>118.2</ele>
        <time>2025-08-28T17:43:02.572Z</time>
      </trkpt>
      <trkpt lat="48.64093" lon="2.1023">
        <ele>118.4</ele>
        <time>2025-08-28T17:43:05.099Z</time>
      </trkpt>
      <trkpt lat="48.64094" lon="2.10237">
        <ele>118.5</ele>
        <time>2025-08-28T17:43:07.462Z</time>
      </trkpt>
      <trkpt lat="48.64095" lon="2.10243">
        <ele>118.7</ele>
        <time>2025-08-28T17:43:09.694Z</time>
      </trkpt>
      <trkpt lat="48.64096" lon="2.1025">
        <ele>118.8</ele>
        <time>2025-08-28T17:43:12.056Z</time>
      </trkpt>
      <trkpt lat="48.64097" lon="2.1026">
        <ele>119</ele>
        <time>2025-08-28T17:43:15.487Z</time>
      </trkpt>
      <trkpt lat="48.64098" lon="2.1027">
        <ele>119.1</ele>
        <time>2025-08-28T17:43:18.760Z</time>
      </trkpt>
      <trkpt lat="48.64099" lon="2.10282">
        <ele>119.3</ele>
        <time>2025-08-28T17:43:22.799Z</time>
      </trkpt>
      <trkpt lat="48.64101" lon="2.10289">
        <ele>119.5</ele>
        <time>2025-08-28T17:43:25.468Z</time>
      </trkpt>
      <trkpt lat="48.64103" lon="2.10296">
        <ele>119.8</ele>
        <time>2025-08-28T17:43:28.317Z</time>
      </trkpt>
      <trkpt lat="48.64104" lon="2.10302">
        <ele>120</ele>
        <time>2025-08-28T17:43:30.549Z</time>
      </trkpt>
      <trkpt lat="48.64106" lon="2.10309">
        <ele>120.2</ele>
        <time>2025-08-28T17:43:33.219Z</time>
      </trkpt>
      <trkpt lat="48.64107" lon="2.10316">
        <ele>120.1</ele>
        <time>2025-08-28T17:43:35.293Z</time>
      </trkpt>
      <trkpt lat="48.64108" lon="2.10323">
        <ele>120</ele>
        <time>2025-08-28T17:43:37.367Z</time>
      </trkpt>
      <trkpt lat="48.64109" lon="2.10333">
        <ele>119.8</ele>
        <time>2025-08-28T17:43:40.221Z</time>
      </trkpt>
      <trkpt lat="48.64109" lon="2.10343">
        <ele>119.8</ele>
        <time>2025-08-28T17:43:43.309Z</time>
      </trkpt>
      <trkpt lat="48.64108" lon="2.10353">
        <ele>119.7</ele>
        <time>2025-08-28T17:43:46.293Z</time>
      </trkpt>
      <trkpt lat="48.64107" lon="2.10363">
        <ele>119.6</ele>
        <time>2025-08-28T17:43:49.277Z</time>
      </trkpt>
      <trkpt lat="48.64108" lon="2.10374">
        <ele>119.7</ele>
        <time>2025-08-28T17:43:52.855Z</time>
      </trkpt>
      <trkpt lat="48.64108" lon="2.10385">
        <ele>119.7</ele>
        <time>2025-08-28T17:43:56.252Z</time>
      </trkpt>
      <trkpt lat="48.64109" lon="2.10397">
        <ele>119.5</ele>
        <time>2025-08-28T17:43:59.715Z</time>
      </trkpt>
      <trkpt lat="48.64112" lon="2.10406">
        <ele>119.5</ele>
        <time>2025-08-28T17:44:02.828Z</time>
      </trkpt>
      <trkpt lat="48.64117" lon="2.10412">
        <ele>119.8</ele>
        <time>2025-08-28T17:44:06.289Z</time>
      </trkpt>
      <trkpt lat="48.64121" lon="2.10419">
        <ele>120</ele>
        <time>2025-08-28T17:44:09.457Z</time>
      </trkpt>
      <trkpt lat="48.64126" lon="2.10425">
        <ele>120.4</ele>
        <time>2025-08-28T17:44:13.102Z</time>
      </trkpt>
      <trkpt lat="48.6413" lon="2.10431">
        <ele>120.7</ele>
        <time>2025-08-28T17:44:16.221Z</time>
      </trkpt>
      <trkpt lat="48.64135" lon="2.10435">
        <ele>121</ele>
        <time>2025-08-28T17:44:19.350Z</time>
      </trkpt>
      <trkpt lat="48.64139" lon="2.10439">
        <ele>121.2</ele>
        <time>2025-08-28T17:44:21.907Z</time>
      </trkpt>
      <trkpt lat="48.64145" lon="2.10444">
        <ele>121.5</ele>
        <time>2025-08-28T17:44:25.584Z</time>
      </trkpt>
      <trkpt lat="48.64152" lon="2.10448">
        <ele>121.8</ele>
        <time>2025-08-28T17:44:29.553Z</time>
      </trkpt>
      <trkpt lat="48.64159" lon="2.10452">
        <ele>122.2</ele>
        <time>2025-08-28T17:44:33.699Z</time>
      </trkpt>
      <trkpt lat="48.64167" lon="2.10456">
        <ele>122.6</ele>
        <time>2025-08-28T17:44:38.276Z</time>
      </trkpt>
      <trkpt lat="48.64175" lon="2.10459">
        <ele>123.1</ele>
        <time>2025-08-28T17:44:42.953Z</time>
      </trkpt>
      <trkpt lat="48.6418" lon="2.1046">
        <ele>123.4</ele>
        <time>2025-08-28T17:44:45.804Z</time>
      </trkpt>
      <trkpt lat="48.64185" lon="2.1046">
        <ele>123.8</ele>
        <time>2025-08-28T17:44:48.832Z</time>
      </trkpt>
      <trkpt lat="48.64193" lon="2.10461">
        <ele>124.3</ele>
        <time>2025-08-28T17:44:53.411Z</time>
      </trkpt>
      <trkpt lat="48.64201" lon="2.10462">
        <ele>124.8</ele>
        <time>2025-08-28T17:44:57.991Z</time>
      </trkpt>
      <trkpt lat="48.64208" lon="2.10463">
        <ele>125.3</ele>
        <time>2025-08-28T17:45:02.123Z</time>
      </trkpt>
      <trkpt lat="48.64216" lon="2.10464">
        <ele>125.8</ele>
        <time>2025-08-28T17:45:06.702Z</time>
      </trkpt>
      <trkpt lat="48.64221" lon="2.10464">
        <ele>126.2</ele>
        <time>2025-08-28T17:45:09.730Z</time>
      </trkpt>
      <trkpt lat="48.64227" lon="2.10464">
        <ele>126.8</ele>
        <time>2025-08-28T17:45:13.623Z</time>
      </trkpt>
      <trkpt lat="48.64232" lon="2.10464">
        <ele>127.4</ele>
        <time>2025-08-28T17:45:17.104Z</time>
      </trkpt>
      <trkpt lat="48.64238" lon="2.10464">
        <ele>128</ele>
        <time>2025-08-28T17:45:20.996Z</time>
      </trkpt>
      <trkpt lat="48.64243" lon="2.10463">
        <ele>128.6</ele>
        <time>2025-08-28T17:45:24.495Z</time>
      </trkpt>
      <trkpt lat="48.64248" lon="2.10463">
        <ele>129.1</ele>
        <time>2025-08-28T17:45:27.738Z</time>
      </trkpt>
      <trkpt lat="48.64254" lon="2.10463">
        <ele>129.7</ele>
        <time>2025-08-28T17:45:31.631Z</time>
      </trkpt>
      <trkpt lat="48.64259" lon="2.10463">
        <ele>130.1</ele>
        <time>2025-08-28T17:45:34.658Z</time>
      </trkpt>
      <trkpt lat="48.64267" lon="2.10464">
        <ele>130.7</ele>
        <time>2025-08-28T17:45:39.434Z</time>
      </trkpt>
      <trkpt lat="48.64274" lon="2.10464">
        <ele>131.3</ele>
        <time>2025-08-28T17:45:43.756Z</time>
      </trkpt>
      <trkpt lat="48.64275" lon="2.1046">
        <ele>131.6</ele>
        <time>2025-08-28T17:45:45.629Z</time>
      </trkpt>
      <trkpt lat="48.64271" lon="2.10453">
        <ele>131.7</ele>
        <time>2025-08-28T17:45:48.636Z</time>
      </trkpt>
      <trkpt lat="48.64267" lon="2.10447">
        <ele>131.7</ele>
        <time>2025-08-28T17:45:51.269Z</time>
      </trkpt>
      <trkpt lat="48.64263" lon="2.1044">
        <ele>131.5</ele>
        <time>2025-08-28T17:45:53.858Z</time>
      </trkpt>
      <trkpt lat="48.64259" lon="2.10433">
        <ele>131.1</ele>
        <time>2025-08-28T17:45:56.359Z</time>
      </trkpt>
      <trkpt lat="48.64258" lon="2.10422">
        <ele>131.1</ele>
        <time>2025-08-28T17:45:59.788Z</time>
      </trkpt>
      <trkpt lat="48.64258" lon="2.1041">
        <ele>130.9</ele>
        <time>2025-08-28T17:46:03.221Z</time>
      </trkpt>
      <trkpt lat="48.64257" lon="2.10399">
        <ele>130.4</ele>
        <time>2025-08-28T17:46:06.222Z</time>
      </trkpt>
      <trkpt lat="48.64256" lon="2.10387">
        <ele>129.8</ele>
        <time>2025-08-28T17:46:09.490Z</time>
      </trkpt>
      <trkpt lat="48.64259" lon="2.10378">
        <ele>129.9</ele>
        <time>2025-08-28T17:46:12.752Z</time>
      </trkpt>
      <trkpt lat="48.64263" lon="2.10371">
        <ele>130.2</ele>
        <time>2025-08-28T17:46:16.091Z</time>
      </trkpt>
      <trkpt lat="48.64267" lon="2.10365">
        <ele>130.6</ele>
        <time>2025-08-28T17:46:19.400Z</time>
      </trkpt>
      <trkpt lat="48.6427" lon="2.10358">
        <ele>130.7</ele>
        <time>2025-08-28T17:46:22.126Z</time>
      </trkpt>
      <trkpt lat="48.64274" lon="2.10352">
        <ele>130.9</ele>
        <time>2025-08-28T17:46:25.070Z</time>
      </trkpt>
      <trkpt lat="48.64278" lon="2.10345">
        <ele>130.9</ele>
        <time>2025-08-28T17:46:27.928Z</time>
      </trkpt>
      <trkpt lat="48.64282" lon="2.10338">
        <ele>131</ele>
        <time>2025-08-28T17:46:30.935Z</time>
      </trkpt>
      <trkpt lat="48.64285" lon="2.10332">
        <ele>131</ele>
        <time>2025-08-28T17:46:33.258Z</time>
      </trkpt>
      <trkpt lat="48.64289" lon="2.10325">
        <ele>131.2</ele>
        <time>2025-08-28T17:46:36.426Z</time>
      </trkpt>
      <trkpt lat="48.64296" lon="2.10319">
        <ele>131.8</ele>
        <time>2025-08-28T17:46:41.209Z</time>
      </trkpt>
      <trkpt lat="48.64302" lon="2.10312">
        <ele>132.1</ele>
        <time>2025-08-28T17:46:45.221Z</time>
      </trkpt>
      <trkpt lat="48.64305" lon="2.10307">
        <ele>132</ele>
        <time>2025-08-28T17:46:47.169Z</time>
        <extensions>
          <visugpx:TrkExtension xmlns:visugpx="https://www.visugpx.com/editgpx/">
            <visugpx:node>7</visugpx:node>
            </visugpx:TrkExtension>
        </extensions>
      </trkpt>
      <trkpt lat="48.64305" lon="2.10307">
        <ele>132</ele>
        <time>2025-08-28T17:46:47.169Z</time>
      </trkpt>
      <trkpt lat="48.64308" lon="2.10302">
        <ele>132.3</ele>
        <time>2025-08-28T17:46:49.758Z</time>
      </trkpt>
      <trkpt lat="48.6431" lon="2.10296">
        <ele>132.4</ele>
        <time>2025-08-28T17:46:51.984Z</time>
      </trkpt>
      <trkpt lat="48.64311" lon="2.10289">
        <ele>132.5</ele>
        <time>2025-08-28T17:46:54.346Z</time>
      </trkpt>
      <trkpt lat="48.6431" lon="2.10282">
        <ele>132.3</ele>
        <time>2025-08-28T17:46:56.295Z</time>
      </trkpt>
      <trkpt lat="48.64308" lon="2.10275">
        <ele>132.4</ele>
        <time>2025-08-28T17:46:58.800Z</time>
      </trkpt>
      <trkpt lat="48.64303" lon="2.10265">
        <ele>132.7</ele>
        <time>2025-08-28T17:47:03.141Z</time>
      </trkpt>
      <trkpt lat="48.64297" lon="2.10259">
        <ele>132.7</ele>
        <time>2025-08-28T17:47:06.502Z</time>
      </trkpt>
      <trkpt lat="48.64292" lon="2.10252">
        <ele>132.9</ele>
        <time>2025-08-28T17:47:09.992Z</time>
      </trkpt>
      <trkpt lat="48.64286" lon="2.10246">
        <ele>133</ele>
        <time>2025-08-28T17:47:13.502Z</time>
      </trkpt>
      <trkpt lat="48.64281" lon="2.10239">
        <ele>133.4</ele>
        <time>2025-08-28T17:47:17.342Z</time>
      </trkpt>
      <trkpt lat="48.64275" lon="2.10233">
        <ele>133.8</ele>
        <time>2025-08-28T17:47:21.355Z</time>
      </trkpt>
      <trkpt lat="48.64269" lon="2.10226">
        <ele>134.3</ele>
        <time>2025-08-28T17:47:25.731Z</time>
      </trkpt>
      <trkpt lat="48.64264" lon="2.1022">
        <ele>134.6</ele>
        <time>2025-08-28T17:47:29.193Z</time>
      </trkpt>
      <trkpt lat="48.64258" lon="2.10213">
        <ele>134.6</ele>
        <time>2025-08-28T17:47:32.734Z</time>
      </trkpt>
      <trkpt lat="48.64255" lon="2.10204">
        <ele>134.8</ele>
        <time>2025-08-28T17:47:36.154Z</time>
      </trkpt>
      <trkpt lat="48.64252" lon="2.10195">
        <ele>135.1</ele>
        <time>2025-08-28T17:47:39.745Z</time>
      </trkpt>
      <trkpt lat="48.64254" lon="2.10183">
        <ele>134.7</ele>
        <time>2025-08-28T17:47:43.089Z</time>
      </trkpt>
      <trkpt lat="48.64261" lon="2.10174">
        <ele>134.7</ele>
        <time>2025-08-28T17:47:47.382Z</time>
      </trkpt>
      <trkpt lat="48.64266" lon="2.10177">
        <ele>134.9</ele>
        <time>2025-08-28T17:47:50.208Z</time>
      </trkpt>
      <trkpt lat="48.64271" lon="2.10178">
        <ele>135.2</ele>
        <time>2025-08-28T17:47:53.059Z</time>
      </trkpt>
      <trkpt lat="48.64275" lon="2.1018">
        <ele>135.4</ele>
        <time>2025-08-28T17:47:55.348Z</time>
      </trkpt>
      <trkpt lat="48.6428" lon="2.10181">
        <ele>135.7</ele>
        <time>2025-08-28T17:47:58.198Z</time>
      </trkpt>
      <trkpt lat="48.64284" lon="2.10182">
        <ele>136.1</ele>
        <time>2025-08-28T17:48:00.816Z</time>
      </trkpt>
      <trkpt lat="48.64289" lon="2.10184">
        <ele>136.6</ele>
        <time>2025-08-28T17:48:04.133Z</time>
      </trkpt>
      <trkpt lat="48.64293" lon="2.10185">
        <ele>136.9</ele>
        <time>2025-08-28T17:48:06.538Z</time>
      </trkpt>
      <trkpt lat="48.64298" lon="2.10186">
        <ele>137.4</ele>
        <time>2025-08-28T17:48:09.800Z</time>
      </trkpt>
      <trkpt lat="48.64302" lon="2.10188">
        <ele>137.7</ele>
        <time>2025-08-28T17:48:12.277Z</time>
      </trkpt>
      <trkpt lat="48.64307" lon="2.10189">
        <ele>138.1</ele>
        <time>2025-08-28T17:48:15.324Z</time>
      </trkpt>
      <trkpt lat="48.64311" lon="2.1019">
        <ele>138.6</ele>
        <time>2025-08-28T17:48:18.180Z</time>
      </trkpt>
      <trkpt lat="48.64316" lon="2.10191">
        <ele>139.1</ele>
        <time>2025-08-28T17:48:21.442Z</time>
      </trkpt>
      <trkpt lat="48.6432" lon="2.10193">
        <ele>139.5</ele>
        <time>2025-08-28T17:48:24.128Z</time>
      </trkpt>
      <trkpt lat="48.64325" lon="2.10194">
        <ele>140.1</ele>
        <time>2025-08-28T17:48:27.626Z</time>
      </trkpt>
      <trkpt lat="48.64329" lon="2.10195">
        <ele>140.5</ele>
        <time>2025-08-28T17:48:30.244Z</time>
      </trkpt>
      <trkpt lat="48.64334" lon="2.10197">
        <ele>140.8</ele>
        <time>2025-08-28T17:48:33.153Z</time>
      </trkpt>
      <trkpt lat="48.64338" lon="2.10198">
        <ele>141.1</ele>
        <time>2025-08-28T17:48:35.558Z</time>
      </trkpt>
      <trkpt lat="48.64344" lon="2.102">
        <ele>141.6</ele>
        <time>2025-08-28T17:48:39.296Z</time>
      </trkpt>
      <trkpt lat="48.6435" lon="2.10202">
        <ele>142.1</ele>
        <time>2025-08-28T17:48:43.034Z</time>
      </trkpt>
      <trkpt lat="48.64356" lon="2.10203">
        <ele>142.8</ele>
        <time>2025-08-28T17:48:47.177Z</time>
      </trkpt>
      <trkpt lat="48.64363" lon="2.10205">
        <ele>143.5</ele>
        <time>2025-08-28T17:48:51.770Z</time>
      </trkpt>
      <trkpt lat="48.64369" lon="2.10207">
        <ele>144.4</ele>
        <time>2025-08-28T17:48:56.480Z</time>
      </trkpt>
      <trkpt lat="48.64375" lon="2.10209">
        <ele>145.2</ele>
        <time>2025-08-28T17:49:00.917Z</time>
      </trkpt>
      <trkpt lat="48.64381" lon="2.1021">
        <ele>146.1</ele>
        <time>2025-08-28T17:49:05.589Z</time>
      </trkpt>
      <trkpt lat="48.64387" lon="2.10212">
        <ele>147.1</ele>
        <time>2025-08-28T17:49:10.593Z</time>
      </trkpt>
      <trkpt lat="48.64394" lon="2.10216">
        <ele>148.3</ele>
        <time>2025-08-28T17:49:16.633Z</time>
      </trkpt>
      <trkpt lat="48.64401" lon="2.10219">
        <ele>149.7</ele>
        <time>2025-08-28T17:49:23.270Z</time>
      </trkpt>
      <trkpt lat="48.64407" lon="2.10223">
        <ele>150.9</ele>
        <time>2025-08-28T17:49:29.038Z</time>
      </trkpt>
      <trkpt lat="48.64414" lon="2.10226">
        <ele>152.4</ele>
        <time>2025-08-28T17:49:36.041Z</time>
      </trkpt>
      <trkpt lat="48.64414" lon="2.10226">
        <ele>152.4</ele>
        <time>2025-08-28T17:49:36.041Z</time>
        <extensions>
          <visugpx:TrkExtension xmlns:visugpx="https://www.visugpx.com/editgpx/">
            <visugpx:node>8</visugpx:node>
            </visugpx:TrkExtension>
        </extensions>
      </trkpt>
      <trkpt lat="48.64419" lon="2.10229">
        <ele>153.4</ele>
        <time>2025-08-28T17:49:40.826Z</time>
      </trkpt>
      <trkpt lat="48.64423" lon="2.10231">
        <ele>154.1</ele>
        <time>2025-08-28T17:49:44.301Z</time>
      </trkpt>
      <trkpt lat="48.64428" lon="2.10234">
        <ele>155</ele>
        <time>2025-08-28T17:49:48.758Z</time>
      </trkpt>
      <trkpt lat="48.64433" lon="2.10237">
        <ele>156</ele>
        <time>2025-08-28T17:49:53.543Z</time>
      </trkpt>
      <trkpt lat="48.64437" lon="2.10239">
        <ele>156.8</ele>
        <time>2025-08-28T17:49:57.348Z</time>
      </trkpt>
      <trkpt lat="48.64442" lon="2.10242">
        <ele>157.9</ele>
        <time>2025-08-28T17:50:02.492Z</time>
      </trkpt>
      <trkpt lat="48.64446" lon="2.10244">
        <ele>158.7</ele>
        <time>2025-08-28T17:50:06.298Z</time>
      </trkpt>
      <trkpt lat="48.64451" lon="2.10247">
        <ele>159.4</ele>
        <time>2025-08-28T17:50:10.182Z</time>
      </trkpt>
      <trkpt lat="48.64459" lon="2.10251">
        <ele>160.7</ele>
        <time>2025-08-28T17:50:16.830Z</time>
      </trkpt>
      <trkpt lat="48.64466" lon="2.10255">
        <ele>161.8</ele>
        <time>2025-08-28T17:50:22.576Z</time>
      </trkpt>
      <trkpt lat="48.64474" lon="2.10259">
        <ele>163</ele>
        <time>2025-08-28T17:50:28.939Z</time>
      </trkpt>
      <trkpt lat="48.64481" lon="2.10263">
        <ele>163.7</ele>
        <time>2025-08-28T17:50:33.685Z</time>
      </trkpt>
      <trkpt lat="48.64485" lon="2.1026">
        <ele>163.5</ele>
        <time>2025-08-28T17:50:35.511Z</time>
      </trkpt>
      <trkpt lat="48.64488" lon="2.10251">
        <ele>162.7</ele>
        <time>2025-08-28T17:50:38.235Z</time>
      </trkpt>
      <trkpt lat="48.6449" lon="2.10242">
        <ele>161.3</ele>
        <time>2025-08-28T17:50:40.801Z</time>
      </trkpt>
      <trkpt lat="48.64485" lon="2.10238">
        <ele>160.5</ele>
        <time>2025-08-28T17:50:43.114Z</time>
      </trkpt>
      <trkpt lat="48.64479" lon="2.10228">
        <ele>158.9</ele>
        <time>2025-08-28T17:50:46.763Z</time>
        <extensions>
          <visugpx:TrkExtension xmlns:visugpx="https://www.visugpx.com/editgpx/">
            <visugpx:node>9</visugpx:node>
            </visugpx:TrkExtension>
        </extensions>
      </trkpt>
      <trkpt lat="48.64474" lon="2.10219">
        <ele>157.5</ele>
        <time>2025-08-28T17:50:49.941Z</time>
      </trkpt>
      <trkpt lat="48.64468" lon="2.1021">
        <ele>156.2</ele>
        <time>2025-08-28T17:50:53.396Z</time>
      </trkpt>
      <trkpt lat="48.64463" lon="2.10204">
        <ele>155.5</ele>
        <time>2025-08-28T17:50:56.005Z</time>
      </trkpt>
      <trkpt lat="48.64457" lon="2.10197">
        <ele>154.8</ele>
        <time>2025-08-28T17:50:59.103Z</time>
      </trkpt>
      <trkpt lat="48.64453" lon="2.10193">
        <ele>154.5</ele>
        <time>2025-08-28T17:51:01.064Z</time>
      </trkpt>
      <trkpt lat="48.64449" lon="2.10189">
        <ele>154</ele>
        <time>2025-08-28T17:51:03.025Z</time>
      </trkpt>
      <trkpt lat="48.64445" lon="2.10185">
        <ele>153.6</ele>
        <time>2025-08-28T17:51:04.985Z</time>
      </trkpt>
      <trkpt lat="48.64441" lon="2.10181">
        <ele>152.9</ele>
        <time>2025-08-28T17:51:06.946Z</time>
      </trkpt>
      <trkpt lat="48.64437" lon="2.10177">
        <ele>152.3</ele>
        <time>2025-08-28T17:51:08.907Z</time>
      </trkpt>
      <trkpt lat="48.64433" lon="2.10173">
        <ele>151.7</ele>
        <time>2025-08-28T17:51:10.867Z</time>
      </trkpt>
      <trkpt lat="48.64429" lon="2.10169">
        <ele>151.2</ele>
        <time>2025-08-28T17:51:12.828Z</time>
      </trkpt>
      <trkpt lat="48.64425" lon="2.10165">
        <ele>150.7</ele>
        <time>2025-08-28T17:51:14.789Z</time>
      </trkpt>
      <trkpt lat="48.64418" lon="2.10162">
        <ele>150.3</ele>
        <time>2025-08-28T17:51:17.764Z</time>
      </trkpt>
      <trkpt lat="48.64418" lon="2.10162">
        <ele>150.3</ele>
        <time>2025-08-28T17:51:17.764Z</time>
        <extensions>
          <visugpx:TrkExtension xmlns:visugpx="https://www.visugpx.com/editgpx/">
            <visugpx:node>10</visugpx:node>
            </visugpx:TrkExtension>
        </extensions>
      </trkpt>
      <trkpt lat="48.64411" lon="2.1016">
        <ele>149.2</ele>
        <time>2025-08-28T17:51:20.677Z</time>
      </trkpt>
      <trkpt lat="48.64403" lon="2.10157">
        <ele>147.6</ele>
        <time>2025-08-28T17:51:24.048Z</time>
      </trkpt>
      <trkpt lat="48.64395" lon="2.10159">
        <ele>146.8</ele>
        <time>2025-08-28T17:51:27.364Z</time>
      </trkpt>
      <trkpt lat="48.64387" lon="2.10161">
        <ele>145.8</ele>
        <time>2025-08-28T17:51:30.680Z</time>
      </trkpt>
      <trkpt lat="48.64379" lon="2.10166">
        <ele>145.1</ele>
        <time>2025-08-28T17:51:34.220Z</time>
      </trkpt>
      <trkpt lat="48.64372" lon="2.1017">
        <ele>144.2</ele>
        <time>2025-08-28T17:51:37.279Z</time>
      </trkpt>
      <trkpt lat="48.64364" lon="2.10175">
        <ele>143.1</ele>
        <time>2025-08-28T17:51:40.819Z</time>
      </trkpt>
      <trkpt lat="48.64356" lon="2.10179">
        <ele>142.4</ele>
        <time>2025-08-28T17:51:44.265Z</time>
      </trkpt>
      <trkpt lat="48.64351" lon="2.10179">
        <ele>142</ele>
        <time>2025-08-28T17:51:46.310Z</time>
      </trkpt>
      <trkpt lat="48.64344" lon="2.10173">
        <ele>141.1</ele>
        <time>2025-08-28T17:51:49.600Z</time>
      </trkpt>
      <trkpt lat="48.64337" lon="2.10167">
        <ele>140.3</ele>
        <time>2025-08-28T17:51:52.889Z</time>
        <extensions>
          <visugpx:TrkExtension xmlns:visugpx="https://www.visugpx.com/editgpx/">
            <visugpx:node>11</visugpx:node>
            </visugpx:TrkExtension>
        </extensions>
      </trkpt>
      <trkpt lat="48.64332" lon="2.10163">
        <ele>139.4</ele>
        <time>2025-08-28T17:51:55.202Z</time>
      </trkpt>
      <trkpt lat="48.64327" lon="2.10158">
        <ele>138.2</ele>
        <time>2025-08-28T17:51:57.653Z</time>
      </trkpt>
      <trkpt lat="48.64321" lon="2.10154">
        <ele>137.1</ele>
        <time>2025-08-28T17:52:00.335Z</time>
      </trkpt>
      <trkpt lat="48.64316" lon="2.10149">
        <ele>135.8</ele>
        <time>2025-08-28T17:52:02.785Z</time>
      </trkpt>
      <trkpt lat="48.64311" lon="2.10141">
        <ele>134</ele>
        <time>2025-08-28T17:52:05.761Z</time>
      </trkpt>
      <trkpt lat="48.64306" lon="2.10132">
        <ele>132.1</ele>
        <time>2025-08-28T17:52:08.938Z</time>
      </trkpt>
      <trkpt lat="48.6431" lon="2.10128">
        <ele>131.8</ele>
        <time>2025-08-28T17:52:10.899Z</time>
      </trkpt>
      <trkpt lat="48.64314" lon="2.10123">
        <ele>131.5</ele>
        <time>2025-08-28T17:52:13.021Z</time>
      </trkpt>
      <trkpt lat="48.64317" lon="2.10119">
        <ele>131.1</ele>
        <time>2025-08-28T17:52:14.656Z</time>
      </trkpt>
      <trkpt lat="48.64321" lon="2.10114">
        <ele>130.6</ele>
        <time>2025-08-28T17:52:16.777Z</time>
        <extensions>
          <visugpx:TrkExtension xmlns:visugpx="https://www.visugpx.com/editgpx/">
            <visugpx:node>12</visugpx:node>
            </visugpx:TrkExtension>
        </extensions>
      </trkpt>
      <trkpt lat="48.64323" lon="2.10112">
        <ele>130.4</ele>
        <time>2025-08-28T17:52:17.758Z</time>
      </trkpt>
      <trkpt lat="48.64326" lon="2.10105">
        <ele>129.8</ele>
        <time>2025-08-28T17:52:20.012Z</time>
      </trkpt>
      <trkpt lat="48.6433" lon="2.10098">
        <ele>129.3</ele>
        <time>2025-08-28T17:52:22.513Z</time>
      </trkpt>
      <trkpt lat="48.64333" lon="2.10091">
        <ele>128.8</ele>
        <time>2025-08-28T17:52:24.768Z</time>
      </trkpt>
      <trkpt lat="48.64336" lon="2.10084">
        <ele>128.4</ele>
        <time>2025-08-28T17:52:27.022Z</time>
      </trkpt>
      <trkpt lat="48.64336" lon="2.10084">
        <ele>128.4</ele>
        <time>2025-08-28T17:52:27.022Z</time>
      </trkpt>
      <trkpt lat="48.64337" lon="2.10082">
        <ele>128.3</ele>
        <time>2025-08-28T17:52:27.700Z</time>
      </trkpt>
      <trkpt lat="48.64339" lon="2.10074">
        <ele>127.9</ele>
        <time>2025-08-28T17:52:30.011Z</time>
      </trkpt>
      <trkpt lat="48.6434" lon="2.10067">
        <ele>127.5</ele>
        <time>2025-08-28T17:52:31.947Z</time>
      </trkpt>
      <trkpt lat="48.64342" lon="2.10059">
        <ele>127.2</ele>
        <time>2025-08-28T17:52:34.258Z</time>
      </trkpt>
      <trkpt lat="48.64343" lon="2.10051">
        <ele>127</ele>
        <time>2025-08-28T17:52:36.506Z</time>
      </trkpt>
      <trkpt lat="48.64343" lon="2.10043">
        <ele>127</ele>
        <time>2025-08-28T17:52:38.977Z</time>
      </trkpt>
      <trkpt lat="48.64343" lon="2.10035">
        <ele>127</ele>
        <time>2025-08-28T17:52:41.447Z</time>
        <extensions>
          <visugpx:TrkExtension xmlns:visugpx="https://www.visugpx.com/editgpx/">
            <visugpx:node>13</visugpx:node>
            </visugpx:TrkExtension>
        </extensions>
      </trkpt>
      <trkpt lat="48.64343" lon="2.10027">
        <ele>127.1</ele>
        <time>2025-08-28T17:52:44.068Z</time>
      </trkpt>
      <trkpt lat="48.6434" lon="2.10019">
        <ele>127</ele>
        <time>2025-08-28T17:52:46.770Z</time>
      </trkpt>
      <trkpt lat="48.64337" lon="2.10011">
        <ele>126.9</ele>
        <time>2025-08-28T17:52:49.472Z</time>
      </trkpt>
      <trkpt lat="48.64338" lon="2.10013">
        <ele>126.9</ele>
        <time>2025-08-28T17:52:50.246Z</time>
        <extensions>
          <visugpx:TrkExtension xmlns:visugpx="https://www.visugpx.com/editgpx/">
            <visugpx:node>14</visugpx:node>
            </visugpx:TrkExtension>
        </extensions>
      </trkpt>
      <trkpt lat="48.64337" lon="2.10011">
        <ele>126.9</ele>
        <time>2025-08-28T17:52:51.021Z</time>
      </trkpt>
      <trkpt lat="48.6433" lon="2.10006">
        <ele>126.5</ele>
        <time>2025-08-28T17:52:54.186Z</time>
      </trkpt>
      <trkpt lat="48.64323" lon="2.10001">
        <ele>126.2</ele>
        <time>2025-08-28T17:52:57.406Z</time>
      </trkpt>
      <trkpt lat="48.64318" lon="2.09999">
        <ele>125.9</ele>
        <time>2025-08-28T17:52:59.521Z</time>
      </trkpt>
      <trkpt lat="48.64314" lon="2.09997">
        <ele>125.6</ele>
        <time>2025-08-28T17:53:01.244Z</time>
      </trkpt>
      <trkpt lat="48.64309" lon="2.09995">
        <ele>125.2</ele>
        <time>2025-08-28T17:53:03.359Z</time>
      </trkpt>
      <trkpt lat="48.64304" lon="2.09993">
        <ele>124.9</ele>
        <time>2025-08-28T17:53:05.474Z</time>
      </trkpt>
      <trkpt lat="48.64297" lon="2.09988">
        <ele>124.4</ele>
        <time>2025-08-28T17:53:08.639Z</time>
      </trkpt>
      <trkpt lat="48.64289" lon="2.09983">
        <ele>123.8</ele>
        <time>2025-08-28T17:53:12.179Z</time>
      </trkpt>
      <trkpt lat="48.64286" lon="2.09978">
        <ele>123.6</ele>
        <time>2025-08-28T17:53:14.004Z</time>
      </trkpt>
      <trkpt lat="48.64282" lon="2.09972">
        <ele>123.3</ele>
        <time>2025-08-28T17:53:16.307Z</time>
        <extensions>
          <visugpx:TrkExtension xmlns:visugpx="https://www.visugpx.com/editgpx/">
            <visugpx:node>15</visugpx:node>
            </visugpx:TrkExtension>
        </extensions>
      </trkpt>
      <trkpt lat="48.64282" lon="2.09972">
        <ele>123.3</ele>
        <time>2025-08-28T17:53:16.307Z</time>
      </trkpt>
      <trkpt lat="48.64282" lon="2.09965">
        <ele>123.3</ele>
        <time>2025-08-28T17:53:18.469Z</time>
      </trkpt>
      <trkpt lat="48.64284" lon="2.09953">
        <ele>123.3</ele>
        <time>2025-08-28T17:53:22.291Z</time>
      </trkpt>
      <trkpt lat="48.64286" lon="2.09945">
        <ele>123.3</ele>
        <time>2025-08-28T17:53:24.933Z</time>
      </trkpt>
      <trkpt lat="48.64288" lon="2.09937">
        <ele>123.1</ele>
        <time>2025-08-28T17:53:27.307Z</time>
        <extensions>
          <visugpx:TrkExtension xmlns:visugpx="https://www.visugpx.com/editgpx/">
            <visugpx:node>16</visugpx:node>
            </visugpx:TrkExtension>
        </extensions>
      </trkpt>
      <trkpt lat="48.64289" lon="2.09929">
        <ele>122.8</ele>
        <time>2025-08-28T17:53:29.507Z</time>
      </trkpt>
      <trkpt lat="48.64291" lon="2.09921">
        <ele>122.6</ele>
        <time>2025-08-28T17:53:31.882Z</time>
      </trkpt>
      <trkpt lat="48.64292" lon="2.09913">
        <ele>122.4</ele>
        <time>2025-08-28T17:53:34.130Z</time>
      </trkpt>
      <trkpt lat="48.64293" lon="2.09905">
        <ele>122.1</ele>
        <time>2025-08-28T17:53:36.330Z</time>
      </trkpt>
      <trkpt lat="48.64294" lon="2.09897">
        <ele>121.9</ele>
        <time>2025-08-28T17:53:38.578Z</time>
      </trkpt>
      <trkpt lat="48.64296" lon="2.09889">
        <ele>121.7</ele>
        <time>2025-08-28T17:53:40.953Z</time>
      </trkpt>
      <trkpt lat="48.64297" lon="2.09881">
        <ele>121.6</ele>
        <time>2025-08-28T17:53:43.329Z</time>
      </trkpt>
      <trkpt lat="48.64298" lon="2.09873">
        <ele>121.6</ele>
        <time>2025-08-28T17:53:45.843Z</time>
      </trkpt>
      <trkpt lat="48.64299" lon="2.09864">
        <ele>121.6</ele>
        <time>2025-08-28T17:53:48.662Z</time>
      </trkpt>
      <trkpt lat="48.64301" lon="2.09856">
        <ele>121.7</ele>
        <time>2025-08-28T17:53:51.453Z</time>
      </trkpt>
      <trkpt lat="48.64302" lon="2.09848">
        <ele>121.7</ele>
        <time>2025-08-28T17:53:53.967Z</time>
      </trkpt>
      <trkpt lat="48.64303" lon="2.0984">
        <ele>121.8</ele>
        <time>2025-08-28T17:53:56.632Z</time>
      </trkpt>
      <trkpt lat="48.64304" lon="2.09832">
        <ele>121.9</ele>
        <time>2025-08-28T17:53:59.296Z</time>
      </trkpt>
      <trkpt lat="48.64306" lon="2.09824">
        <ele>122.4</ele>
        <time>2025-08-28T17:54:02.819Z</time>
      </trkpt>
      <trkpt lat="48.64307" lon="2.09816">
        <ele>122.8</ele>
        <time>2025-08-28T17:54:06.015Z</time>
      </trkpt>
      <trkpt lat="48.64308" lon="2.09808">
        <ele>123.2</ele>
        <time>2025-08-28T17:54:09.211Z</time>
      </trkpt>
      <trkpt lat="48.64309" lon="2.09801">
        <ele>123.4</ele>
        <time>2025-08-28T17:54:11.738Z</time>
      </trkpt>
      <trkpt lat="48.64311" lon="2.09795">
        <ele>123.7</ele>
        <time>2025-08-28T17:54:14.317Z</time>
      </trkpt>
      <trkpt lat="48.64312" lon="2.09788">
        <ele>123.8</ele>
        <time>2025-08-28T17:54:16.679Z</time>
      </trkpt>
      <trkpt lat="48.64314" lon="2.09781">
        <ele>124.2</ele>
        <time>2025-08-28T17:54:19.724Z</time>
      </trkpt>
      <trkpt lat="48.64315" lon="2.09775">
        <ele>124.4</ele>
        <time>2025-08-28T17:54:21.956Z</time>
      </trkpt>
      <trkpt lat="48.64317" lon="2.09768">
        <ele>124.8</ele>
        <time>2025-08-28T17:54:25.001Z</time>
      </trkpt>
      <trkpt lat="48.64318" lon="2.09761">
        <ele>125.1</ele>
        <time>2025-08-28T17:54:27.711Z</time>
      </trkpt>
      <trkpt lat="48.6432" lon="2.09755">
        <ele>125.5</ele>
        <time>2025-08-28T17:54:30.494Z</time>
      </trkpt>
      <trkpt lat="48.64321" lon="2.09748">
        <ele>125.8</ele>
        <time>2025-08-28T17:54:33.204Z</time>
      </trkpt>
      <trkpt lat="48.64322" lon="2.09741">
        <ele>126</ele>
        <time>2025-08-28T17:54:35.732Z</time>
      </trkpt>
      <trkpt lat="48.64324" lon="2.09734">
        <ele>126.3</ele>
        <time>2025-08-28T17:54:38.580Z</time>
      </trkpt>
      <trkpt lat="48.64325" lon="2.09728">
        <ele>126.5</ele>
        <time>2025-08-28T17:54:40.812Z</time>
      </trkpt>
      <trkpt lat="48.64327" lon="2.09721">
        <ele>126.8</ele>
        <time>2025-08-28T17:54:43.661Z</time>
      </trkpt>
      <trkpt lat="48.64328" lon="2.09714">
        <ele>126.8</ele>
        <time>2025-08-28T17:54:45.873Z</time>
      </trkpt>
      <trkpt lat="48.6433" lon="2.09708">
        <ele>126.9</ele>
        <time>2025-08-28T17:54:48.099Z</time>
      </trkpt>
      <trkpt lat="48.64331" lon="2.09701">
        <ele>126.9</ele>
        <time>2025-08-28T17:54:50.311Z</time>
      </trkpt>
      <trkpt lat="48.64337" lon="2.09697">
        <ele>127.6</ele>
        <time>2025-08-28T17:54:54.666Z</time>
      </trkpt>
      <trkpt lat="48.64342" lon="2.09692">
        <ele>128.2</ele>
        <time>2025-08-28T17:54:58.556Z</time>
      </trkpt>
      <trkpt lat="48.64347" lon="2.09694">
        <ele>129</ele>
        <time>2025-08-28T17:55:02.643Z</time>
      </trkpt>
      <trkpt lat="48.64352" lon="2.09696">
        <ele>129.7</ele>
        <time>2025-08-28T17:55:06.448Z</time>
      </trkpt>
      <trkpt lat="48.64356" lon="2.09698">
        <ele>130.4</ele>
        <time>2025-08-28T17:55:09.924Z</time>
      </trkpt>
      <trkpt lat="48.64361" lon="2.097">
        <ele>131.2</ele>
        <time>2025-08-28T17:55:14.010Z</time>
      </trkpt>
      <trkpt lat="48.64367" lon="2.09709">
        <ele>132</ele>
        <time>2025-08-28T17:55:19.391Z</time>
      </trkpt>
      <trkpt lat="48.64372" lon="2.09717">
        <ele>132.7</ele>
        <time>2025-08-28T17:55:24.049Z</time>
      </trkpt>
      <trkpt lat="48.64378" lon="2.09726">
        <ele>133.2</ele>
        <time>2025-08-28T17:55:28.819Z</time>
      </trkpt>
      <trkpt lat="48.64383" lon="2.09734">
        <ele>133.6</ele>
        <time>2025-08-28T17:55:32.871Z</time>
      </trkpt>
      <trkpt lat="48.64389" lon="2.09743">
        <ele>134</ele>
        <time>2025-08-28T17:55:37.459Z</time>
      </trkpt>
      <trkpt lat="48.64394" lon="2.09751">
        <ele>134.2</ele>
        <time>2025-08-28T17:55:41.165Z</time>
      </trkpt>
      <trkpt lat="48.644" lon="2.0976">
        <ele>134.3</ele>
        <time>2025-08-28T17:55:45.261Z</time>
      </trkpt>
      <trkpt lat="48.64405" lon="2.09768">
        <ele>134.2</ele>
        <time>2025-08-28T17:55:48.522Z</time>
      </trkpt>
      <trkpt lat="48.64411" lon="2.09775">
        <ele>134.1</ele>
        <time>2025-08-28T17:55:51.923Z</time>
      </trkpt>
      <trkpt lat="48.64417" lon="2.09782">
        <ele>133.8</ele>
        <time>2025-08-28T17:55:55.067Z</time>
      </trkpt>
      <trkpt lat="48.64419" lon="2.09783">
        <ele>133.8</ele>
        <time>2025-08-28T17:55:56.051Z</time>
        <extensions>
          <visugpx:TrkExtension xmlns:visugpx="https://www.visugpx.com/editgpx/">
            <visugpx:node>17</visugpx:node>
            </visugpx:TrkExtension>
        </extensions>
      </trkpt>
      <trkpt lat="48.64425" lon="2.09786">
        <ele>133.7</ele>
        <time>2025-08-28T17:55:58.865Z</time>
      </trkpt>
      <trkpt lat="48.6443" lon="2.09789">
        <ele>133.6</ele>
        <time>2025-08-28T17:56:01.241Z</time>
      </trkpt>
      <trkpt lat="48.64436" lon="2.09785">
        <ele>133.7</ele>
        <time>2025-08-28T17:56:04.454Z</time>
      </trkpt>
      <trkpt lat="48.64436" lon="2.09775">
        <ele>134.2</ele>
        <time>2025-08-28T17:56:08.397Z</time>
        <extensions>
          <visugpx:TrkExtension xmlns:visugpx="https://www.visugpx.com/editgpx/">
            <visugpx:node>18</visugpx:node>
            </visugpx:TrkExtension>
        </extensions>
      </trkpt>
      <trkpt lat="48.64437" lon="2.09766">
        <ele>134.7</ele>
        <time>2025-08-28T17:56:12.085Z</time>
      </trkpt>
      <trkpt lat="48.64437" lon="2.09757">
        <ele>135.3</ele>
        <time>2025-08-28T17:56:15.955Z</time>
      </trkpt>
      <trkpt lat="48.64436" lon="2.09749">
        <ele>135.7</ele>
        <time>2025-08-28T17:56:19.151Z</time>
      </trkpt>
      <trkpt lat="48.64435" lon="2.09741">
        <ele>136</ele>
        <time>2025-08-28T17:56:22.154Z</time>
      </trkpt>
      <trkpt lat="48.6443" lon="2.09731">
        <ele>136.2</ele>
        <time>2025-08-28T17:56:26.330Z</time>
      </trkpt>
      <trkpt lat="48.64425" lon="2.09721">
        <ele>136.4</ele>
        <time>2025-08-28T17:56:30.506Z</time>
      </trkpt>
      <trkpt lat="48.64423" lon="2.09711">
        <ele>136.7</ele>
        <time>2025-08-28T17:56:34.208Z</time>
      </trkpt>
      <trkpt lat="48.64426" lon="2.09702">
        <ele>137.3</ele>
        <time>2025-08-28T17:56:38.383Z</time>
      </trkpt>
      <trkpt lat="48.64429" lon="2.09692">
        <ele>138</ele>
        <time>2025-08-28T17:56:43.033Z</time>
      </trkpt>
      <trkpt lat="48.64432" lon="2.09683">
        <ele>138.5</ele>
        <time>2025-08-28T17:56:47.000Z</time>
      </trkpt>
      <trkpt lat="48.64435" lon="2.09674">
        <ele>139.1</ele>
        <time>2025-08-28T17:56:51.175Z</time>
      </trkpt>
      <trkpt lat="48.64437" lon="2.09664">
        <ele>139.5</ele>
        <time>2025-08-28T17:56:55.057Z</time>
      </trkpt>
      <trkpt lat="48.6444" lon="2.09655">
        <ele>140</ele>
        <time>2025-08-28T17:56:59.023Z</time>
      </trkpt>
      <trkpt lat="48.64443" lon="2.09645">
        <ele>140.6</ele>
        <time>2025-08-28T17:57:03.458Z</time>
      </trkpt>
      <trkpt lat="48.64446" lon="2.09636">
        <ele>141.1</ele>
        <time>2025-08-28T17:57:07.424Z</time>
      </trkpt>
      <trkpt lat="48.64448" lon="2.09627">
        <ele>141.2</ele>
        <time>2025-08-28T17:57:10.505Z</time>
      </trkpt>
      <trkpt lat="48.64449" lon="2.09618">
        <ele>141.3</ele>
        <time>2025-08-28T17:57:13.473Z</time>
      </trkpt>
      <trkpt lat="48.64451" lon="2.09609">
        <ele>141.4</ele>
        <time>2025-08-28T17:57:16.554Z</time>
      </trkpt>
      <trkpt lat="48.64453" lon="2.09601">
        <ele>141.5</ele>
        <time>2025-08-28T17:57:19.345Z</time>
      </trkpt>
      <trkpt lat="48.64454" lon="2.09592">
        <ele>141.5</ele>
        <time>2025-08-28T17:57:22.163Z</time>
      </trkpt>
      <trkpt lat="48.64456" lon="2.09583">
        <ele>141.6</ele>
        <time>2025-08-28T17:57:25.245Z</time>
      </trkpt>
      <trkpt lat="48.64457" lon="2.09574">
        <ele>141.3</ele>
        <time>2025-08-28T17:57:27.711Z</time>
      </trkpt>
      <trkpt lat="48.64459" lon="2.09565">
        <ele>141.1</ele>
        <time>2025-08-28T17:57:30.374Z</time>
      </trkpt>
      <trkpt lat="48.64462" lon="2.09559">
        <ele>141.3</ele>
        <time>2025-08-28T17:57:33.012Z</time>
        <extensions>
          <visugpx:TrkExtension xmlns:visugpx="https://www.visugpx.com/editgpx/">
            <visugpx:node>19</visugpx:node>
            </visugpx:TrkExtension>
        </extensions>
      </trkpt>
      <trkpt lat="48.64467" lon="2.09552">
        <ele>141.9</ele>
        <time>2025-08-28T17:57:37.252Z</time>
      </trkpt>
      <trkpt lat="48.64472" lon="2.09544">
        <ele>142.5</ele>
        <time>2025-08-28T17:57:41.696Z</time>
      </trkpt>
      <trkpt lat="48.64477" lon="2.09537">
        <ele>142.9</ele>
        <time>2025-08-28T17:57:45.536Z</time>
      </trkpt>
      <trkpt lat="48.64482" lon="2.09529">
        <ele>143.4</ele>
        <time>2025-08-28T17:57:49.777Z</time>
      </trkpt>
      <trkpt lat="48.64486" lon="2.09523">
        <ele>143.6</ele>
        <time>2025-08-28T17:57:52.720Z</time>
      </trkpt>
      <trkpt lat="48.64491" lon="2.09517">
        <ele>144.1</ele>
        <time>2025-08-28T17:57:56.563Z</time>
      </trkpt>
      <trkpt lat="48.64495" lon="2.09511">
        <ele>144.5</ele>
        <time>2025-08-28T17:57:59.871Z</time>
      </trkpt>
      <trkpt lat="48.64499" lon="2.09505">
        <ele>145</ele>
        <time>2025-08-28T17:58:03.386Z</time>
      </trkpt>
      <trkpt lat="48.64505" lon="2.09498">
        <ele>145</ele>
        <time>2025-08-28T17:58:06.926Z</time>
      </trkpt>
      <trkpt lat="48.64511" lon="2.09491">
        <ele>144.9</ele>
        <time>2025-08-28T17:58:10.327Z</time>
      </trkpt>
      <trkpt lat="48.64511" lon="2.09491">
        <ele>144.9</ele>
        <time>2025-08-28T17:58:10.327Z</time>
        <extensions>
          <visugpx:TrkExtension xmlns:visugpx="https://www.visugpx.com/editgpx/">
            <visugpx:node>20</visugpx:node>
            </visugpx:TrkExtension>
        </extensions>
      </trkpt>
      <trkpt lat="48.64511" lon="2.09491">
        <ele>144.9</ele>
        <time>2025-08-28T17:58:10.327Z</time>
      </trkpt>
      <trkpt lat="48.64515" lon="2.09488">
        <ele>144.9</ele>
        <time>2025-08-28T17:58:12.414Z</time>
      </trkpt>
      <trkpt lat="48.64519" lon="2.09484">
        <ele>144.9</ele>
        <time>2025-08-28T17:58:14.654Z</time>
      </trkpt>
      <trkpt lat="48.64523" lon="2.09479">
        <ele>144.9</ele>
        <time>2025-08-28T17:58:17.079Z</time>
      </trkpt>
      <trkpt lat="48.64527" lon="2.09474">
        <ele>145</ele>
        <time>2025-08-28T17:58:19.654Z</time>
      </trkpt>
      <trkpt lat="48.6453" lon="2.09468">
        <ele>144.8</ele>
        <time>2025-08-28T17:58:21.713Z</time>
      </trkpt>
      <trkpt lat="48.64534" lon="2.09463">
        <ele>144.7</ele>
        <time>2025-08-28T17:58:24.000Z</time>
      </trkpt>
      <trkpt lat="48.64539" lon="2.09454">
        <ele>144.6</ele>
        <time>2025-08-28T17:58:27.491Z</time>
      </trkpt>
      <trkpt lat="48.64544" lon="2.09445">
        <ele>144.8</ele>
        <time>2025-08-28T17:58:31.427Z</time>
      </trkpt>
      <trkpt lat="48.64547" lon="2.09437">
        <ele>144.6</ele>
        <time>2025-08-28T17:58:33.999Z</time>
        <extensions>
          <visugpx:TrkExtension xmlns:visugpx="https://www.visugpx.com/editgpx/">
            <visugpx:node>21</visugpx:node>
            </visugpx:TrkExtension>
        </extensions>
      </trkpt>
      <trkpt lat="48.64547" lon="2.09438">
        <ele>144.7</ele>
        <time>2025-08-28T17:58:34.515Z</time>
      </trkpt>
      <trkpt lat="48.6455" lon="2.09432">
        <ele>144.8</ele>
        <time>2025-08-28T17:58:36.988Z</time>
      </trkpt>
      <trkpt lat="48.64552" lon="2.09425">
        <ele>144.7</ele>
        <time>2025-08-28T17:58:39.206Z</time>
      </trkpt>
      <trkpt lat="48.64553" lon="2.09418">
        <ele>144.6</ele>
        <time>2025-08-28T17:58:41.280Z</time>
      </trkpt>
      <trkpt lat="48.64553" lon="2.09411">
        <ele>143.9</ele>
        <time>2025-08-28T17:58:43.171Z</time>
      </trkpt>
      <trkpt lat="48.64554" lon="2.09404">
        <ele>143.4</ele>
        <time>2025-08-28T17:58:45.106Z</time>
      </trkpt>
      <trkpt lat="48.64555" lon="2.09397">
        <ele>142.8</ele>
        <time>2025-08-28T17:58:47.041Z</time>
      </trkpt>
      <trkpt lat="48.64555" lon="2.0939">
        <ele>142</ele>
        <time>2025-08-28T17:58:48.933Z</time>
      </trkpt>
      <trkpt lat="48.64556" lon="2.09383">
        <ele>141.5</ele>
        <time>2025-08-28T17:58:50.868Z</time>
      </trkpt>
      <trkpt lat="48.64556" lon="2.09376">
        <ele>140.7</ele>
        <time>2025-08-28T17:58:52.760Z</time>
      </trkpt>
      <trkpt lat="48.64557" lon="2.09369">
        <ele>140.3</ele>
        <time>2025-08-28T17:58:54.695Z</time>
      </trkpt>
      <trkpt lat="48.64559" lon="2.09363">
        <ele>140.2</ele>
        <time>2025-08-28T17:58:56.633Z</time>
      </trkpt>
      <trkpt lat="48.64562" lon="2.09357">
        <ele>140.4</ele>
        <time>2025-08-28T17:58:59.271Z</time>
      </trkpt>
      <trkpt lat="48.64564" lon="2.0935">
        <ele>140.2</ele>
        <time>2025-08-28T17:59:01.361Z</time>
      </trkpt>
      <trkpt lat="48.64566" lon="2.09344">
        <ele>140.2</ele>
        <time>2025-08-28T17:59:03.437Z</time>
      </trkpt>
      <trkpt lat="48.64566" lon="2.09343">
        <ele>140.1</ele>
        <time>2025-08-28T17:59:03.707Z</time>
      </trkpt>
      <trkpt lat="48.64566" lon="2.09343">
        <ele>140.1</ele>
        <time>2025-08-28T17:59:03.707Z</time>
        <extensions>
          <visugpx:TrkExtension xmlns:visugpx="https://www.visugpx.com/editgpx/">
            <visugpx:node>22</visugpx:node>
            </visugpx:TrkExtension>
        </extensions>
      </trkpt>
      <trkpt lat="48.64567" lon="2.09332">
        <ele>139.2</ele>
        <time>2025-08-28T17:59:06.707Z</time>
      </trkpt>
      <trkpt lat="48.64567" lon="2.09321">
        <ele>138.1</ele>
        <time>2025-08-28T17:59:09.679Z</time>
      </trkpt>
      <trkpt lat="48.64568" lon="2.0931">
        <ele>137.4</ele>
        <time>2025-08-28T17:59:12.680Z</time>
      </trkpt>
      <trkpt lat="48.64568" lon="2.09299">
        <ele>136.7</ele>
        <time>2025-08-28T17:59:15.652Z</time>
      </trkpt>
      <trkpt lat="48.64569" lon="2.09288">
        <ele>136.4</ele>
        <time>2025-08-28T17:59:18.685Z</time>
      </trkpt>
      <trkpt lat="48.64569" lon="2.09277">
        <ele>135.9</ele>
        <time>2025-08-28T17:59:21.657Z</time>
      </trkpt>
      <trkpt lat="48.6457" lon="2.09266">
        <ele>136.3</ele>
        <time>2025-08-28T17:59:25.736Z</time>
      </trkpt>
      <trkpt lat="48.6457" lon="2.09255">
        <ele>136.5</ele>
        <time>2025-08-28T17:59:29.439Z</time>
      </trkpt>
      <trkpt lat="48.64571" lon="2.09242">
        <ele>137.6</ele>
        <time>2025-08-28T17:59:35.617Z</time>
      </trkpt>
      <trkpt lat="48.64572" lon="2.09228">
        <ele>139.2</ele>
        <time>2025-08-28T17:59:43.463Z</time>
      </trkpt>
      <trkpt lat="48.64574" lon="2.0922">
        <ele>140.4</ele>
        <time>2025-08-28T17:59:49.038Z</time>
      </trkpt>
      <trkpt lat="48.64575" lon="2.09212">
        <ele>141.8</ele>
        <time>2025-08-28T17:59:55.479Z</time>
        <extensions>
          <visugpx:TrkExtension xmlns:visugpx="https://www.visugpx.com/editgpx/">
            <visugpx:node>23</visugpx:node>
            </visugpx:TrkExtension>
        </extensions>
      </trkpt>
      <trkpt lat="48.64576" lon="2.09205">
        <ele>143.1</ele>
        <time>2025-08-28T18:00:01.494Z</time>
      </trkpt>
      <trkpt lat="48.64578" lon="2.09199">
        <ele>144.4</ele>
        <time>2025-08-28T18:00:07.578Z</time>
      </trkpt>
      <trkpt lat="48.64579" lon="2.09192">
        <ele>145.6</ele>
        <time>2025-08-28T18:00:13.091Z</time>
      </trkpt>
      <trkpt lat="48.6458" lon="2.09185">
        <ele>146.2</ele>
        <time>2025-08-28T18:00:16.467Z</time>
      </trkpt>
      <trkpt lat="48.64581" lon="2.09172">
        <ele>147.3</ele>
        <time>2025-08-28T18:00:22.645Z</time>
      </trkpt>
      <trkpt lat="48.64582" lon="2.09159">
        <ele>147.3</ele>
        <time>2025-08-28T18:00:26.687Z</time>
      </trkpt>
      <trkpt lat="48.64583" lon="2.09145">
        <ele>146.4</ele>
        <time>2025-08-28T18:00:30.492Z</time>
      </trkpt>
      <trkpt lat="48.64584" lon="2.09132">
        <ele>145</ele>
        <time>2025-08-28T18:00:34.028Z</time>
      </trkpt>
      <trkpt lat="48.64587" lon="2.09125">
        <ele>144.1</ele>
        <time>2025-08-28T18:00:36.283Z</time>
      </trkpt>
      <trkpt lat="48.64589" lon="2.09118">
        <ele>143.1</ele>
        <time>2025-08-28T18:00:38.344Z</time>
      </trkpt>
      <trkpt lat="48.64589" lon="2.09118">
        <ele>143.1</ele>
        <time>2025-08-28T18:00:38.344Z</time>
        <extensions>
          <visugpx:TrkExtension xmlns:visugpx="https://www.visugpx.com/editgpx/">
            <visugpx:node>24</visugpx:node>
            </visugpx:TrkExtension>
        </extensions>
      </trkpt>
      <trkpt lat="48.64591" lon="2.09112">
        <ele>142.1</ele>
        <time>2025-08-28T18:00:40.159Z</time>
      </trkpt>
      <trkpt lat="48.64596" lon="2.09106">
        <ele>140.8</ele>
        <time>2025-08-28T18:00:42.769Z</time>
      </trkpt>
      <trkpt lat="48.646" lon="2.091">
        <ele>139.4</ele>
        <time>2025-08-28T18:00:45.072Z</time>
      </trkpt>
      <trkpt lat="48.64605" lon="2.09093">
        <ele>137.6</ele>
        <time>2025-08-28T18:00:47.857Z</time>
      </trkpt>
      <trkpt lat="48.64609" lon="2.09087">
        <ele>136</ele>
        <time>2025-08-28T18:00:50.161Z</time>
      </trkpt>
      <trkpt lat="48.64614" lon="2.09081">
        <ele>135.2</ele>
        <time>2025-08-28T18:00:52.770Z</time>
      </trkpt>
      <trkpt lat="48.64619" lon="2.09075">
        <ele>135.3</ele>
        <time>2025-08-28T18:00:55.901Z</time>
      </trkpt>
      <trkpt lat="48.64623" lon="2.09069">
        <ele>135.3</ele>
        <time>2025-08-28T18:00:58.533Z</time>
      </trkpt>
      <trkpt lat="48.64628" lon="2.09063">
        <ele>135.6</ele>
        <time>2025-08-28T18:01:01.995Z</time>
      </trkpt>
      <trkpt lat="48.64631" lon="2.09058">
        <ele>135.6</ele>
        <time>2025-08-28T18:01:04.081Z</time>
      </trkpt>
      <trkpt lat="48.64634" lon="2.09052">
        <ele>135.6</ele>
        <time>2025-08-28T18:01:06.404Z</time>
      </trkpt>
      <trkpt lat="48.64634" lon="2.09052">
        <ele>135.6</ele>
        <time>2025-08-28T18:01:06.404Z</time>
        <extensions>
          <visugpx:TrkExtension xmlns:visugpx="https://www.visugpx.com/editgpx/">
            <visugpx:node>25</visugpx:node>
            </visugpx:TrkExtension>
        </extensions>
      </trkpt>
      <trkpt lat="48.64634" lon="2.09052">
        <ele>135.6</ele>
        <time>2025-08-28T18:01:06.404Z</time>
      </trkpt>
      <trkpt lat="48.6464" lon="2.09043">
        <ele>136</ele>
        <time>2025-08-28T18:01:10.992Z</time>
      </trkpt>
      <trkpt lat="48.64645" lon="2.09034">
        <ele>136.9</ele>
        <time>2025-08-28T18:01:16.322Z</time>
      </trkpt>
      <trkpt lat="48.64649" lon="2.09027">
        <ele>137.6</ele>
        <time>2025-08-28T18:01:20.496Z</time>
        <extensions>
          <visugpx:TrkExtension xmlns:visugpx="https://www.visugpx.com/editgpx/">
            <visugpx:node>26</visugpx:node>
            </visugpx:TrkExtension>
        </extensions>
      </trkpt>
      <trkpt lat="48.64649" lon="2.09027">
        <ele>137.6</ele>
        <time>2025-08-28T18:01:20.496Z</time>
      </trkpt>
      <trkpt lat="48.64655" lon="2.09026">
        <ele>139.8</ele>
        <time>2025-08-28T18:01:31.621Z</time>
      </trkpt>
      <trkpt lat="48.6466" lon="2.09024">
        <ele>141.6</ele>
        <time>2025-08-28T18:01:40.538Z</time>
      </trkpt>
      <trkpt lat="48.64666" lon="2.09023">
        <ele>143.8</ele>
        <time>2025-08-28T18:01:51.663Z</time>
      </trkpt>
      <trkpt lat="48.64671" lon="2.09022">
        <ele>145.7</ele>
        <time>2025-08-28T18:02:01.422Z</time>
      </trkpt>
      <trkpt lat="48.64677" lon="2.0902">
        <ele>148</ele>
        <time>2025-08-28T18:02:13.201Z</time>
      </trkpt>
      <trkpt lat="48.64682" lon="2.09019">
        <ele>149.9</ele>
        <time>2025-08-28T18:02:22.960Z</time>
      </trkpt>
      <trkpt lat="48.64688" lon="2.09017">
        <ele>152.2</ele>
        <time>2025-08-28T18:02:34.738Z</time>
      </trkpt>
      <trkpt lat="48.64693" lon="2.09016">
        <ele>154</ele>
        <time>2025-08-28T18:02:43.754Z</time>
        <extensions>
          <visugpx:TrkExtension xmlns:visugpx="https://www.visugpx.com/editgpx/">
            <visugpx:node>27</visugpx:node>
            </visugpx:TrkExtension>
        </extensions>
      </trkpt>
      <trkpt lat="48.64699" lon="2.09015">
        <ele>155.9</ele>
        <time>2025-08-28T18:02:52.821Z</time>
      </trkpt>
      <trkpt lat="48.64705" lon="2.09013">
        <ele>157.7</ele>
        <time>2025-08-28T18:03:01.247Z</time>
      </trkpt>
      <trkpt lat="48.64711" lon="2.09012">
        <ele>159.5</ele>
        <time>2025-08-28T18:03:09.708Z</time>
      </trkpt>
      <trkpt lat="48.64717" lon="2.0901">
        <ele>161.1</ele>
        <time>2025-08-28T18:03:17.069Z</time>
      </trkpt>
      <trkpt lat="48.64723" lon="2.09009">
        <ele>162.7</ele>
        <time>2025-08-28T18:03:24.442Z</time>
      </trkpt>
      <trkpt lat="48.64729" lon="2.09007">
        <ele>163.3</ele>
        <time>2025-08-28T18:03:28.395Z</time>
      </trkpt>
      <trkpt lat="48.64735" lon="2.09006">
        <ele>163.9</ele>
        <time>2025-08-28T18:03:32.303Z</time>
      </trkpt>
      <trkpt lat="48.64741" lon="2.09004">
        <ele>164.4</ele>
        <time>2025-08-28T18:03:36.041Z</time>
        <extensions>
          <visugpx:TrkExtension xmlns:visugpx="https://www.visugpx.com/editgpx/">
            <visugpx:node>28</visugpx:node>
            </visugpx:TrkExtension>
        </extensions>
      </trkpt>
      <trkpt lat="48.64741" lon="2.09004">
        <ele>164.4</ele>
        <time>2025-08-28T18:03:36.041Z</time>
      </trkpt>
      <trkpt lat="48.64743" lon="2.09003">
        <ele>164.5</ele>
        <time>2025-08-28T18:03:37.185Z</time>
      </trkpt>
      <trkpt lat="48.64747" lon="2.09006">
        <ele>165.3</ele>
        <time>2025-08-28T18:03:41.055Z</time>
      </trkpt>
      <trkpt lat="48.64752" lon="2.09008">
        <ele>166.1</ele>
        <time>2025-08-28T18:03:45.142Z</time>
      </trkpt>
      <trkpt lat="48.64756" lon="2.09011">
        <ele>166.8</ele>
        <time>2025-08-28T18:03:48.698Z</time>
      </trkpt>
      <trkpt lat="48.6476" lon="2.09013">
        <ele>167.3</ele>
        <time>2025-08-28T18:03:51.617Z</time>
      </trkpt>
      <trkpt lat="48.64767" lon="2.09007">
        <ele>167.4</ele>
        <time>2025-08-28T18:03:55.524Z</time>
      </trkpt>
      <trkpt lat="48.64773" lon="2.09001">
        <ele>167.6</ele>
        <time>2025-08-28T18:03:59.191Z</time>
      </trkpt>
      <trkpt lat="48.64772" lon="2.09001">
        <ele>167.5</ele>
        <time>2025-08-28T18:03:59.600Z</time>
        <extensions>
          <visugpx:TrkExtension xmlns:visugpx="https://www.visugpx.com/editgpx/">
            <visugpx:node>29</visugpx:node>
            </visugpx:TrkExtension>
        </extensions>
      </trkpt>
      <trkpt lat="48.64774" lon="2.09">
        <ele>167.6</ele>
        <time>2025-08-28T18:04:00.745Z</time>
      </trkpt>
      <trkpt lat="48.64781" lon="2.08994">
        <ele>167.4</ele>
        <time>2025-08-28T18:04:04.232Z</time>
      </trkpt>
      <trkpt lat="48.64788" lon="2.08988">
        <ele>167.5</ele>
        <time>2025-08-28T18:04:08.139Z</time>
      </trkpt>
      <trkpt lat="48.64795" lon="2.0898">
        <ele>167.7</ele>
        <time>2025-08-28T18:04:12.541Z</time>
      </trkpt>
      <trkpt lat="48.64802" lon="2.08972">
        <ele>168.3</ele>
        <time>2025-08-28T18:04:17.649Z</time>
      </trkpt>
      <trkpt lat="48.6481" lon="2.08966">
        <ele>168.5</ele>
        <time>2025-08-28T18:04:22.124Z</time>
      </trkpt>
      <trkpt lat="48.64818" lon="2.0896">
        <ele>168.3</ele>
        <time>2025-08-28T18:04:26.023Z</time>
      </trkpt>
      <trkpt lat="48.64826" lon="2.08959">
        <ele>168.7</ele>
        <time>2025-08-28T18:04:30.418Z</time>
      </trkpt>
      <trkpt lat="48.64833" lon="2.08958">
        <ele>169</ele>
        <time>2025-08-28T18:04:34.179Z</time>
      </trkpt>
      <trkpt lat="48.64839" lon="2.08958">
        <ele>168.9</ele>
        <time>2025-08-28T18:04:36.844Z</time>
      </trkpt>
      <trkpt lat="48.64845" lon="2.08959">
        <ele>168.8</ele>
        <time>2025-08-28T18:04:39.526Z</time>
      </trkpt>
      <trkpt lat="48.64851" lon="2.08959">
        <ele>168.7</ele>
        <time>2025-08-28T18:04:42.192Z</time>
      </trkpt>
      <trkpt lat="48.64857" lon="2.08959">
        <ele>168.6</ele>
        <time>2025-08-28T18:04:44.857Z</time>
      </trkpt>
      <trkpt lat="48.64863" lon="2.08959">
        <ele>168.6</ele>
        <time>2025-08-28T18:04:47.662Z</time>
      </trkpt>
      <trkpt lat="48.64869" lon="2.0896">
        <ele>169</ele>
        <time>2025-08-28T18:04:51.152Z</time>
      </trkpt>
      <trkpt lat="48.64875" lon="2.0896">
        <ele>169.2</ele>
        <time>2025-08-28T18:04:54.266Z</time>
      </trkpt>
      <trkpt lat="48.64881" lon="2.0896">
        <ele>169.4</ele>
        <time>2025-08-28T18:04:57.380Z</time>
      </trkpt>
      <trkpt lat="48.64888" lon="2.08961">
        <ele>169.8</ele>
        <time>2025-08-28T18:05:01.320Z</time>
      </trkpt>
      <trkpt lat="48.64895" lon="2.08961">
        <ele>169.9</ele>
        <time>2025-08-28T18:05:04.740Z</time>
      </trkpt>
      <trkpt lat="48.64902" lon="2.08962">
        <ele>170.1</ele>
        <time>2025-08-28T18:05:08.332Z</time>
      </trkpt>
      <trkpt lat="48.64909" lon="2.08963">
        <ele>170.2</ele>
        <time>2025-08-28T18:05:11.767Z</time>
      </trkpt>
      <trkpt lat="48.64913" lon="2.08959">
        <ele>170</ele>
        <time>2025-08-28T18:05:13.744Z</time>
      </trkpt>
      <trkpt lat="48.64917" lon="2.08955">
        <ele>169.8</ele>
        <time>2025-08-28T18:05:15.721Z</time>
      </trkpt>
      <trkpt lat="48.6492" lon="2.0895">
        <ele>169.6</ele>
        <time>2025-08-28T18:05:17.546Z</time>
      </trkpt>
      <trkpt lat="48.64924" lon="2.08946">
        <ele>169.6</ele>
        <time>2025-08-28T18:05:19.787Z</time>
      </trkpt>
      <trkpt lat="48.64928" lon="2.08935">
        <ele>169.3</ele>
        <time>2025-08-28T18:05:23.264Z</time>
      </trkpt>
      <trkpt lat="48.64931" lon="2.08924">
        <ele>168.9</ele>
        <time>2025-08-28T18:05:26.479Z</time>
      </trkpt>
      <trkpt lat="48.64935" lon="2.08912">
        <ele>168.8</ele>
        <time>2025-08-28T18:05:30.489Z</time>
      </trkpt>
      <trkpt lat="48.64938" lon="2.08901">
        <ele>168.6</ele>
        <time>2025-08-28T18:05:33.891Z</time>
      </trkpt>
      <trkpt lat="48.64938" lon="2.08901">
        <ele>168.6</ele>
        <time>2025-08-28T18:05:33.891Z</time>
        <extensions>
          <visugpx:TrkExtension xmlns:visugpx="https://www.visugpx.com/editgpx/">
            <visugpx:node>30</visugpx:node>
            </visugpx:TrkExtension>
        </extensions>
      </trkpt>
      <trkpt lat="48.64939" lon="2.08897">
        <ele>168.6</ele>
        <time>2025-08-28T18:05:35.212Z</time>
      </trkpt>
      <trkpt lat="48.64943" lon="2.08885">
        <ele>168.6</ele>
        <time>2025-08-28T18:05:39.362Z</time>
      </trkpt>
      <trkpt lat="48.64946" lon="2.08874">
        <ele>168.6</ele>
        <time>2025-08-28T18:05:43.037Z</time>
      </trkpt>
      <trkpt lat="48.6495" lon="2.08862">
        <ele>168.4</ele>
        <time>2025-08-28T18:05:46.913Z</time>
      </trkpt>
      <trkpt lat="48.64953" lon="2.0885">
        <ele>168.3</ele>
        <time>2025-08-28T18:05:50.734Z</time>
      </trkpt>
      <trkpt lat="48.64954" lon="2.08848">
        <ele>168.4</ele>
        <time>2025-08-28T18:05:51.674Z</time>
        <extensions>
          <visugpx:TrkExtension xmlns:visugpx="https://www.visugpx.com/editgpx/">
            <visugpx:node>31</visugpx:node>
            </visugpx:TrkExtension>
        </extensions>
      </trkpt>
      <trkpt lat="48.64952" lon="2.08841">
        <ele>168</ele>
        <time>2025-08-28T18:05:53.734Z</time>
      </trkpt>
      <trkpt lat="48.64951" lon="2.08835">
        <ele>167.8</ele>
        <time>2025-08-28T18:05:55.406Z</time>
      </trkpt>
      <trkpt lat="48.64949" lon="2.08828">
        <ele>167.5</ele>
        <time>2025-08-28T18:05:57.467Z</time>
      </trkpt>
      <trkpt lat="48.64947" lon="2.08821">
        <ele>167.2</ele>
        <time>2025-08-28T18:05:59.527Z</time>
      </trkpt>
      <trkpt lat="48.64944" lon="2.08813">
        <ele>166.9</ele>
        <time>2025-08-28T18:06:02.013Z</time>
      </trkpt>
      <trkpt lat="48.64941" lon="2.08805">
        <ele>166.2</ele>
        <time>2025-08-28T18:06:04.498Z</time>
      </trkpt>
      <trkpt lat="48.6494" lon="2.08797">
        <ele>165.9</ele>
        <time>2025-08-28T18:06:06.698Z</time>
      </trkpt>
      <trkpt lat="48.64938" lon="2.08789">
        <ele>165.4</ele>
        <time>2025-08-28T18:06:09.009Z</time>
      </trkpt>
      <trkpt lat="48.64936" lon="2.08778">
        <ele>165.1</ele>
        <time>2025-08-28T18:06:12.135Z</time>
      </trkpt>
      <trkpt lat="48.64929" lon="2.0877">
        <ele>164.4</ele>
        <time>2025-08-28T18:06:15.722Z</time>
      </trkpt>
      <trkpt lat="48.64922" lon="2.08761">
        <ele>163.9</ele>
        <time>2025-08-28T18:06:19.478Z</time>
      </trkpt>
      <trkpt lat="48.64918" lon="2.08754">
        <ele>163.9</ele>
        <time>2025-08-28T18:06:22.336Z</time>
      </trkpt>
      <trkpt lat="48.64914" lon="2.08747">
        <ele>163.2</ele>
        <time>2025-08-28T18:06:24.837Z</time>
      </trkpt>
      <trkpt lat="48.6491" lon="2.08739">
        <ele>162.1</ele>
        <time>2025-08-28T18:06:27.547Z</time>
      </trkpt>
      <trkpt lat="48.64906" lon="2.08732">
        <ele>161.1</ele>
        <time>2025-08-28T18:06:30.048Z</time>
      </trkpt>
      <trkpt lat="48.64898" lon="2.08728">
        <ele>160</ele>
        <time>2025-08-28T18:06:33.494Z</time>
      </trkpt>
      <trkpt lat="48.6489" lon="2.08723">
        <ele>159.1</ele>
        <time>2025-08-28T18:06:37.033Z</time>
      </trkpt>
      <trkpt lat="48.64886" lon="2.08718">
        <ele>158</ele>
        <time>2025-08-28T18:06:39.155Z</time>
        <extensions>
          <visugpx:TrkExtension xmlns:visugpx="https://www.visugpx.com/editgpx/">
            <visugpx:node>32</visugpx:node>
            </visugpx:TrkExtension>
        </extensions>
      </trkpt>
      <trkpt lat="48.64881" lon="2.08718">
        <ele>156.9</ele>
        <time>2025-08-28T18:06:41.200Z</time>
      </trkpt>
      <trkpt lat="48.64877" lon="2.08719">
        <ele>156.2</ele>
        <time>2025-08-28T18:06:42.858Z</time>
      </trkpt>
      <trkpt lat="48.64872" lon="2.08719">
        <ele>155.1</ele>
        <time>2025-08-28T18:06:44.902Z</time>
      </trkpt>
      <trkpt lat="48.64867" lon="2.08719">
        <ele>154.1</ele>
        <time>2025-08-28T18:06:46.947Z</time>
      </trkpt>
      <trkpt lat="48.64863" lon="2.08718">
        <ele>153.2</ele>
        <time>2025-08-28T18:06:48.605Z</time>
      </trkpt>
      <trkpt lat="48.64858" lon="2.08718">
        <ele>152.2</ele>
        <time>2025-08-28T18:06:50.650Z</time>
      </trkpt>
      <trkpt lat="48.64854" lon="2.08717">
        <ele>151.3</ele>
        <time>2025-08-28T18:06:52.308Z</time>
      </trkpt>
      <trkpt lat="48.64849" lon="2.08716">
        <ele>150.3</ele>
        <time>2025-08-28T18:06:54.371Z</time>
      </trkpt>
      <trkpt lat="48.64843" lon="2.08713">
        <ele>149</ele>
        <time>2025-08-28T18:06:56.955Z</time>
      </trkpt>
      <trkpt lat="48.64837" lon="2.0871">
        <ele>147.7</ele>
        <time>2025-08-28T18:06:59.539Z</time>
      </trkpt>
      <trkpt lat="48.64832" lon="2.08707">
        <ele>146.7</ele>
        <time>2025-08-28T18:07:01.739Z</time>
      </trkpt>
      <trkpt lat="48.64827" lon="2.08704">
        <ele>145.6</ele>
        <time>2025-08-28T18:07:03.938Z</time>
        <extensions>
          <visugpx:TrkExtension xmlns:visugpx="https://www.visugpx.com/editgpx/">
            <visugpx:node>33</visugpx:node>
            </visugpx:TrkExtension>
        </extensions>
      </trkpt>
      <trkpt lat="48.64822" lon="2.08715">
        <ele>144.6</ele>
        <time>2025-08-28T18:07:07.546Z</time>
      </trkpt>
      <trkpt lat="48.64817" lon="2.08725">
        <ele>143.5</ele>
        <time>2025-08-28T18:07:10.934Z</time>
      </trkpt>
      <trkpt lat="48.64813" lon="2.08735">
        <ele>142.8</ele>
        <time>2025-08-28T18:07:14.093Z</time>
      </trkpt>
      <trkpt lat="48.64808" lon="2.08746">
        <ele>142.2</ele>
        <time>2025-08-28T18:07:17.700Z</time>
      </trkpt>
      <trkpt lat="48.64804" lon="2.08756">
        <ele>142.7</ele>
        <time>2025-08-28T18:07:22.143Z</time>
      </trkpt>
      <trkpt lat="48.64799" lon="2.08766">
        <ele>144.1</ele>
        <time>2025-08-28T18:07:29.051Z</time>
      </trkpt>
      <trkpt lat="48.64797" lon="2.08776">
        <ele>145.4</ele>
        <time>2025-08-28T18:07:35.249Z</time>
      </trkpt>
      <trkpt lat="48.64794" lon="2.08786">
        <ele>146.6</ele>
        <time>2025-08-28T18:07:41.217Z</time>
      </trkpt>
      <trkpt lat="48.64796" lon="2.08793">
        <ele>147.1</ele>
        <time>2025-08-28T18:07:44.477Z</time>
      </trkpt>
      <trkpt lat="48.64798" lon="2.08801">
        <ele>147.8</ele>
        <time>2025-08-28T18:07:48.467Z</time>
      </trkpt>
      <trkpt lat="48.648" lon="2.08808">
        <ele>148.4</ele>
        <time>2025-08-28T18:07:51.963Z</time>
      </trkpt>
      <trkpt lat="48.64802" lon="2.08815">
        <ele>149.1</ele>
        <time>2025-08-28T18:07:55.720Z</time>
      </trkpt>
      <trkpt lat="48.648" lon="2.08822">
        <ele>149.7</ele>
        <time>2025-08-28T18:07:59.216Z</time>
      </trkpt>
      <trkpt lat="48.64798" lon="2.08829">
        <ele>150.3</ele>
        <time>2025-08-28T18:08:02.713Z</time>
      </trkpt>
      <trkpt lat="48.64791" lon="2.08834">
        <ele>150.5</ele>
        <time>2025-08-28T18:08:06.635Z</time>
      </trkpt>
      <trkpt lat="48.64783" lon="2.08839">
        <ele>150.3</ele>
        <time>2025-08-28T18:08:10.406Z</time>
      </trkpt>
      <trkpt lat="48.64775" lon="2.08841">
        <ele>149.6</ele>
        <time>2025-08-28T18:08:13.722Z</time>
        <extensions>
          <visugpx:TrkExtension xmlns:visugpx="https://www.visugpx.com/editgpx/">
            <visugpx:node>34</visugpx:node>
            </visugpx:TrkExtension>
        </extensions>
      </trkpt>
      <trkpt lat="48.64771" lon="2.08841">
        <ele>149.1</ele>
        <time>2025-08-28T18:08:15.358Z</time>
      </trkpt>
      <trkpt lat="48.64768" lon="2.08838">
        <ele>148.8</ele>
        <time>2025-08-28T18:08:16.829Z</time>
      </trkpt>
      <trkpt lat="48.64767" lon="2.08834">
        <ele>148.8</ele>
        <time>2025-08-28T18:08:18.149Z</time>
      </trkpt>
      <trkpt lat="48.64765" lon="2.08831">
        <ele>148.6</ele>
        <time>2025-08-28T18:08:19.301Z</time>
      </trkpt>
      <trkpt lat="48.64758" lon="2.08829">
        <ele>147.9</ele>
        <time>2025-08-28T18:08:22.214Z</time>
      </trkpt>
      <trkpt lat="48.64753" lon="2.08828">
        <ele>147.5</ele>
        <time>2025-08-28T18:08:24.277Z</time>
      </trkpt>
      <trkpt lat="48.6475" lon="2.08834">
        <ele>147</ele>
        <time>2025-08-28T18:08:26.310Z</time>
      </trkpt>
      <trkpt lat="48.64746" lon="2.0884">
        <ele>145.7</ele>
        <time>2025-08-28T18:08:28.613Z</time>
      </trkpt>
      <trkpt lat="48.64741" lon="2.0883">
        <ele>145.2</ele>
        <time>2025-08-28T18:08:32.001Z</time>
      </trkpt>
      <trkpt lat="48.64735" lon="2.0882">
        <ele>144.5</ele>
        <time>2025-08-28T18:08:35.651Z</time>
      </trkpt>
      <trkpt lat="48.64727" lon="2.08818">
        <ele>143</ele>
        <time>2025-08-28T18:08:38.967Z</time>
      </trkpt>
      <trkpt lat="48.64719" lon="2.08816">
        <ele>141.7</ele>
        <time>2025-08-28T18:08:42.283Z</time>
      </trkpt>
      <trkpt lat="48.64712" lon="2.0881">
        <ele>140.8</ele>
        <time>2025-08-28T18:08:45.573Z</time>
      </trkpt>
      <trkpt lat="48.64705" lon="2.08803">
        <ele>140</ele>
        <time>2025-08-28T18:08:49.004Z</time>
      </trkpt>
      <trkpt lat="48.64699" lon="2.08794">
        <ele>139.2</ele>
        <time>2025-08-28T18:08:52.459Z</time>
      </trkpt>
      <trkpt lat="48.64693" lon="2.08785">
        <ele>138.5</ele>
        <time>2025-08-28T18:08:55.913Z</time>
      </trkpt>
      <trkpt lat="48.6469" lon="2.0878">
        <ele>138.1</ele>
        <time>2025-08-28T18:08:57.738Z</time>
      </trkpt>
      <trkpt lat="48.64686" lon="2.08774">
        <ele>137.5</ele>
        <time>2025-08-28T18:09:00.041Z</time>
      </trkpt>
      <trkpt lat="48.64683" lon="2.08769">
        <ele>137.1</ele>
        <time>2025-08-28T18:09:01.866Z</time>
      </trkpt>
      <trkpt lat="48.64679" lon="2.08763">
        <ele>136.5</ele>
        <time>2025-08-28T18:09:04.170Z</time>
      </trkpt>
      <trkpt lat="48.64671" lon="2.08757">
        <ele>135.4</ele>
        <time>2025-08-28T18:09:07.821Z</time>
      </trkpt>
      <trkpt lat="48.64665" lon="2.08756">
        <ele>134.5</ele>
        <time>2025-08-28T18:09:10.289Z</time>
      </trkpt>
      <trkpt lat="48.64659" lon="2.08754">
        <ele>133.7</ele>
        <time>2025-08-28T18:09:12.802Z</time>
      </trkpt>
      <trkpt lat="48.64659" lon="2.08754">
        <ele>133.7</ele>
        <time>2025-08-28T18:09:12.802Z</time>
        <extensions>
          <visugpx:TrkExtension xmlns:visugpx="https://www.visugpx.com/editgpx/">
            <visugpx:node>35</visugpx:node>
            </visugpx:TrkExtension>
        </extensions>
      </trkpt>
      <trkpt lat="48.64659" lon="2.08754">
        <ele>133.7</ele>
        <time>2025-08-28T18:09:12.802Z</time>
      </trkpt>
      <trkpt lat="48.64651" lon="2.08755">
        <ele>132.5</ele>
        <time>2025-08-28T18:09:16.085Z</time>
      </trkpt>
      <trkpt lat="48.64645" lon="2.08759">
        <ele>131.3</ele>
        <time>2025-08-28T18:09:18.766Z</time>
      </trkpt>
      <trkpt lat="48.64642" lon="2.0877">
        <ele>130.1</ele>
        <time>2025-08-28T18:09:21.982Z</time>
      </trkpt>
      <trkpt lat="48.64639" lon="2.0878">
        <ele>129</ele>
        <time>2025-08-28T18:09:24.949Z</time>
      </trkpt>
      <trkpt lat="48.64637" lon="2.08788">
        <ele>128.8</ele>
        <time>2025-08-28T18:09:27.323Z</time>
      </trkpt>
      <trkpt lat="48.64636" lon="2.08796">
        <ele>128.7</ele>
        <time>2025-08-28T18:09:29.699Z</time>
      </trkpt>
      <trkpt lat="48.64634" lon="2.08804">
        <ele>128.5</ele>
        <time>2025-08-28T18:09:32.074Z</time>
      </trkpt>
      <trkpt lat="48.64632" lon="2.08812">
        <ele>128.7</ele>
        <time>2025-08-28T18:09:35.026Z</time>
      </trkpt>
      <trkpt lat="48.64631" lon="2.0882">
        <ele>129.2</ele>
        <time>2025-08-28T18:09:38.432Z</time>
      </trkpt>
      <trkpt lat="48.6463" lon="2.08827">
        <ele>129.6</ele>
        <time>2025-08-28T18:09:41.342Z</time>
      </trkpt>
      <trkpt lat="48.64629" lon="2.08836">
        <ele>130.3</ele>
        <time>2025-08-28T18:09:45.482Z</time>
      </trkpt>
      <trkpt lat="48.64627" lon="2.08847">
        <ele>131.5</ele>
        <time>2025-08-28T18:09:51.539Z</time>
      </trkpt>
      <trkpt lat="48.64625" lon="2.08854">
        <ele>132.1</ele>
        <time>2025-08-28T18:09:55.036Z</time>
      </trkpt>
      <trkpt lat="48.64622" lon="2.0886">
        <ele>132.4</ele>
        <time>2025-08-28T18:09:57.854Z</time>
      </trkpt>
      <trkpt lat="48.64619" lon="2.08872">
        <ele>133.3</ele>
        <time>2025-08-28T18:10:03.473Z</time>
      </trkpt>
      <trkpt lat="48.64615" lon="2.08877">
        <ele>132.9</ele>
        <time>2025-08-28T18:10:05.595Z</time>
      </trkpt>
      <trkpt lat="48.64611" lon="2.08881">
        <ele>132.4</ele>
        <time>2025-08-28T18:10:07.556Z</time>
      </trkpt>
      <trkpt lat="48.6461" lon="2.0889">
        <ele>132.7</ele>
        <time>2025-08-28T18:10:10.856Z</time>
      </trkpt>
      <trkpt lat="48.64609" lon="2.08898">
        <ele>132.1</ele>
        <time>2025-08-28T18:10:13.056Z</time>
      </trkpt>
      <trkpt lat="48.64608" lon="2.08906">
        <ele>131.6</ele>
        <time>2025-08-28T18:10:15.256Z</time>
      </trkpt>
      <trkpt lat="48.64607" lon="2.08914">
        <ele>131.1</ele>
        <time>2025-08-28T18:10:17.456Z</time>
      </trkpt>
      <trkpt lat="48.64607" lon="2.08926">
        <ele>130.1</ele>
        <time>2025-08-28T18:10:20.699Z</time>
      </trkpt>
      <trkpt lat="48.64605" lon="2.08935">
        <ele>128.8</ele>
        <time>2025-08-28T18:10:23.264Z</time>
      </trkpt>
      <trkpt lat="48.64601" lon="2.08942">
        <ele>127.4</ele>
        <time>2025-08-28T18:10:25.765Z</time>
      </trkpt>
      <trkpt lat="48.64598" lon="2.08946">
        <ele>126.6</ele>
        <time>2025-08-28T18:10:27.400Z</time>
        <extensions>
          <visugpx:TrkExtension xmlns:visugpx="https://www.visugpx.com/editgpx/">
            <visugpx:node>36</visugpx:node>
            </visugpx:TrkExtension>
        </extensions>
      </trkpt>
      <trkpt lat="48.64594" lon="2.08953">
        <ele>125.7</ele>
        <time>2025-08-28T18:10:29.901Z</time>
      </trkpt>
      <trkpt lat="48.64589" lon="2.08956">
        <ele>124.9</ele>
        <time>2025-08-28T18:10:32.100Z</time>
      </trkpt>
      <trkpt lat="48.64584" lon="2.08961">
        <ele>124.1</ele>
        <time>2025-08-28T18:10:34.551Z</time>
      </trkpt>
      <trkpt lat="48.64578" lon="2.08965">
        <ele>123.8</ele>
        <time>2025-08-28T18:10:37.232Z</time>
      </trkpt>
      <trkpt lat="48.64576" lon="2.08968">
        <ele>123.7</ele>
        <time>2025-08-28T18:10:38.415Z</time>
      </trkpt>
      <trkpt lat="48.64569" lon="2.08974">
        <ele>123.5</ele>
        <time>2025-08-28T18:10:41.902Z</time>
      </trkpt>
      <trkpt lat="48.64566" lon="2.08969">
        <ele>123.3</ele>
        <time>2025-08-28T18:10:43.727Z</time>
      </trkpt>
      <trkpt lat="48.64563" lon="2.08963">
        <ele>123</ele>
        <time>2025-08-28T18:10:45.760Z</time>
      </trkpt>
      <trkpt lat="48.64558" lon="2.08957">
        <ele>122.6</ele>
        <time>2025-08-28T18:10:48.370Z</time>
      </trkpt>
      <trkpt lat="48.64553" lon="2.0895">
        <ele>122.2</ele>
        <time>2025-08-28T18:10:51.155Z</time>
      </trkpt>
      <trkpt lat="48.64556" lon="2.08943">
        <ele>122</ele>
        <time>2025-08-28T18:10:53.465Z</time>
      </trkpt>
      <trkpt lat="48.64559" lon="2.08936">
        <ele>122.3</ele>
        <time>2025-08-28T18:10:56.529Z</time>
      </trkpt>
      <trkpt lat="48.64559" lon="2.08936">
        <ele>122.3</ele>
        <time>2025-08-28T18:10:56.529Z</time>
      </trkpt>
      <trkpt lat="48.6456" lon="2.08928">
        <ele>122.4</ele>
        <time>2025-08-28T18:10:59.193Z</time>
      </trkpt>
      <trkpt lat="48.64561" lon="2.08921">
        <ele>122.6</ele>
        <time>2025-08-28T18:11:01.721Z</time>
      </trkpt>
      <trkpt lat="48.64562" lon="2.08913">
        <ele>122.8</ele>
        <time>2025-08-28T18:11:04.548Z</time>
      </trkpt>
      <trkpt lat="48.64562" lon="2.08906">
        <ele>123.1</ele>
        <time>2025-08-28T18:11:07.209Z</time>
      </trkpt>
      <trkpt lat="48.64563" lon="2.08898">
        <ele>123.5</ele>
        <time>2025-08-28T18:11:10.405Z</time>
      </trkpt>
      <trkpt lat="48.64564" lon="2.0889">
        <ele>123.9</ele>
        <time>2025-08-28T18:11:13.601Z</time>
      </trkpt>
      <trkpt lat="48.64564" lon="2.08883">
        <ele>123.8</ele>
        <time>2025-08-28T18:11:15.625Z</time>
      </trkpt>
      <trkpt lat="48.64565" lon="2.08875">
        <ele>123.9</ele>
        <time>2025-08-28T18:11:18.289Z</time>
      </trkpt>
      <trkpt lat="48.64564" lon="2.08865">
        <ele>123.7</ele>
        <time>2025-08-28T18:11:21.142Z</time>
      </trkpt>
      <trkpt lat="48.64563" lon="2.08855">
        <ele>123.5</ele>
        <time>2025-08-28T18:11:23.996Z</time>
      </trkpt>
      <trkpt lat="48.64562" lon="2.08845">
        <ele>123.5</ele>
        <time>2025-08-28T18:11:27.119Z</time>
      </trkpt>
      <trkpt lat="48.64561" lon="2.08836">
        <ele>123.4</ele>
        <time>2025-08-28T18:11:29.798Z</time>
      </trkpt>
      <trkpt lat="48.6456" lon="2.08826">
        <ele>123.3</ele>
        <time>2025-08-28T18:11:32.782Z</time>
      </trkpt>
      <trkpt lat="48.64559" lon="2.08816">
        <ele>123.2</ele>
        <time>2025-08-28T18:11:35.766Z</time>
      </trkpt>
      <trkpt lat="48.64557" lon="2.08806">
        <ele>123.1</ele>
        <time>2025-08-28T18:11:38.853Z</time>
      </trkpt>
      <trkpt lat="48.64557" lon="2.08796">
        <ele>123</ele>
        <time>2025-08-28T18:11:41.802Z</time>
      </trkpt>
      <trkpt lat="48.64555" lon="2.08784">
        <ele>123</ele>
        <time>2025-08-28T18:11:45.624Z</time>
      </trkpt>
      <trkpt lat="48.64554" lon="2.08771">
        <ele>123.1</ele>
        <time>2025-08-28T18:11:49.665Z</time>
      </trkpt>
      <trkpt lat="48.64552" lon="2.08769">
        <ele>123.1</ele>
        <time>2025-08-28T18:11:50.943Z</time>
      </trkpt>
      <trkpt lat="48.64548" lon="2.0877">
        <ele>123.3</ele>
        <time>2025-08-28T18:11:53.160Z</time>
      </trkpt>
      <trkpt lat="48.64541" lon="2.08772">
        <ele>123.5</ele>
        <time>2025-08-28T18:11:56.795Z</time>
      </trkpt>
      <trkpt lat="48.6454" lon="2.08778">
        <ele>123.6</ele>
        <time>2025-08-28T18:11:58.706Z</time>
      </trkpt>
      <trkpt lat="48.64541" lon="2.08785">
        <ele>123.5</ele>
        <time>2025-08-28T18:12:00.918Z</time>
      </trkpt>
      <trkpt lat="48.64542" lon="2.08796">
        <ele>123.5</ele>
        <time>2025-08-28T18:12:04.347Z</time>
      </trkpt>
      <trkpt lat="48.64542" lon="2.08806">
        <ele>123.5</ele>
        <time>2025-08-28T18:12:07.435Z</time>
      </trkpt>
      <trkpt lat="48.64542" lon="2.08817">
        <ele>123.3</ele>
        <time>2025-08-28T18:12:10.560Z</time>
      </trkpt>
      <trkpt lat="48.64538" lon="2.08827">
        <ele>123.1</ele>
        <time>2025-08-28T18:12:13.898Z</time>
      </trkpt>
      <trkpt lat="48.64534" lon="2.08836">
        <ele>123</ele>
        <time>2025-08-28T18:12:17.108Z</time>
      </trkpt>
      <trkpt lat="48.64533" lon="2.08845">
        <ele>123</ele>
        <time>2025-08-28T18:12:19.926Z</time>
      </trkpt>
      <trkpt lat="48.64532" lon="2.08853">
        <ele>123</ele>
        <time>2025-08-28T18:12:22.440Z</time>
      </trkpt>
      <trkpt lat="48.64533" lon="2.08862">
        <ele>123</ele>
        <time>2025-08-28T18:12:25.258Z</time>
      </trkpt>
      <trkpt lat="48.64534" lon="2.08871">
        <ele>123</ele>
        <time>2025-08-28T18:12:28.077Z</time>
      </trkpt>
      <trkpt lat="48.64533" lon="2.08875">
        <ele>123</ele>
        <time>2025-08-28T18:12:29.397Z</time>
      </trkpt>
      <trkpt lat="48.6453" lon="2.08883">
        <ele>123</ele>
        <time>2025-08-28T18:12:32.238Z</time>
      </trkpt>
      <trkpt lat="48.64527" lon="2.08886">
        <ele>123</ele>
        <time>2025-08-28T18:12:33.919Z</time>
      </trkpt>
      <trkpt lat="48.64523" lon="2.08893">
        <ele>123</ele>
        <time>2025-08-28T18:12:36.777Z</time>
      </trkpt>
      <trkpt lat="48.64519" lon="2.08899">
        <ele>122.9</ele>
        <time>2025-08-28T18:12:39.270Z</time>
      </trkpt>
      <trkpt lat="48.64516" lon="2.08909">
        <ele>122.7</ele>
        <time>2025-08-28T18:12:42.390Z</time>
      </trkpt>
      <trkpt lat="48.64514" lon="2.08919">
        <ele>122.5</ele>
        <time>2025-08-28T18:12:45.346Z</time>
      </trkpt>
      <trkpt lat="48.6451" lon="2.08929">
        <ele>122.2</ele>
        <time>2025-08-28T18:12:48.558Z</time>
      </trkpt>
      <trkpt lat="48.64507" lon="2.08934">
        <ele>122.1</ele>
        <time>2025-08-28T18:12:50.507Z</time>
      </trkpt>
      <trkpt lat="48.64504" lon="2.08937">
        <ele>122</ele>
        <time>2025-08-28T18:12:52.052Z</time>
      </trkpt>
      <trkpt lat="48.64502" lon="2.08941">
        <ele>122</ele>
        <time>2025-08-28T18:12:53.601Z</time>
        <extensions>
          <visugpx:TrkExtension xmlns:visugpx="https://www.visugpx.com/editgpx/">
            <visugpx:node>37</visugpx:node>
            </visugpx:TrkExtension>
        </extensions>
      </trkpt>
      <trkpt lat="48.64498" lon="2.08946">
        <ele>122</ele>
        <time>2025-08-28T18:12:56.026Z</time>
      </trkpt>
      <trkpt lat="48.64496" lon="2.0895">
        <ele>122</ele>
        <time>2025-08-28T18:12:57.575Z</time>
        <extensions>
          <visugpx:TrkExtension xmlns:visugpx="https://www.visugpx.com/editgpx/">
            <visugpx:node>38</visugpx:node>
            </visugpx:TrkExtension>
        </extensions>
      </trkpt>
      <trkpt lat="48.64494" lon="2.08954">
        <ele>122</ele>
        <time>2025-08-28T18:12:59.124Z</time>
      </trkpt>
      <trkpt lat="48.64488" lon="2.08955">
        <ele>122</ele>
        <time>2025-08-28T18:13:01.945Z</time>
      </trkpt>
      <trkpt lat="48.64482" lon="2.08954">
        <ele>122</ele>
        <time>2025-08-28T18:13:04.766Z</time>
      </trkpt>
      <trkpt lat="48.64476" lon="2.08954">
        <ele>122</ele>
        <time>2025-08-28T18:13:07.571Z</time>
      </trkpt>
      <trkpt lat="48.64469" lon="2.08953">
        <ele>122</ele>
        <time>2025-08-28T18:13:10.857Z</time>
      </trkpt>
      <trkpt lat="48.64463" lon="2.08952">
        <ele>122</ele>
        <time>2025-08-28T18:13:13.678Z</time>
      </trkpt>
      <trkpt lat="48.64454" lon="2.08951">
        <ele>122</ele>
        <time>2025-08-28T18:13:17.896Z</time>
      </trkpt>
      <trkpt lat="48.64446" lon="2.08949">
        <ele>122</ele>
        <time>2025-08-28T18:13:21.686Z</time>
      </trkpt>
      <trkpt lat="48.64437" lon="2.08948">
        <ele>122.3</ele>
        <time>2025-08-28T18:13:26.368Z</time>
      </trkpt>
      <trkpt lat="48.64428" lon="2.08947">
        <ele>122.6</ele>
        <time>2025-08-28T18:13:31.050Z</time>
      </trkpt>
      <trkpt lat="48.64419" lon="2.08945">
        <ele>122.9</ele>
        <time>2025-08-28T18:13:35.766Z</time>
      </trkpt>
      <trkpt lat="48.64411" lon="2.08944">
        <ele>123</ele>
        <time>2025-08-28T18:13:39.666Z</time>
      </trkpt>
      <trkpt lat="48.64402" lon="2.08942">
        <ele>123.1</ele>
        <time>2025-08-28T18:13:44.065Z</time>
      </trkpt>
      <trkpt lat="48.64393" lon="2.08941">
        <ele>123.2</ele>
        <time>2025-08-28T18:13:48.430Z</time>
      </trkpt>
      <trkpt lat="48.64386" lon="2.0894">
        <ele>123.4</ele>
        <time>2025-08-28T18:13:52.022Z</time>
      </trkpt>
      <trkpt lat="48.64378" lon="2.08939">
        <ele>123.6</ele>
        <time>2025-08-28T18:13:56.078Z</time>
      </trkpt>
      <trkpt lat="48.64371" lon="2.08938">
        <ele>123.8</ele>
        <time>2025-08-28T18:13:59.671Z</time>
      </trkpt>
      <trkpt lat="48.64364" lon="2.08937">
        <ele>124</ele>
        <time>2025-08-28T18:14:03.263Z</time>
      </trkpt>
      <trkpt lat="48.64356" lon="2.08936">
        <ele>124</ele>
        <time>2025-08-28T18:14:07.015Z</time>
      </trkpt>
      <trkpt lat="48.64349" lon="2.08935">
        <ele>124</ele>
        <time>2025-08-28T18:14:10.301Z</time>
      </trkpt>
      <trkpt lat="48.64342" lon="2.08934">
        <ele>124</ele>
        <time>2025-08-28T18:14:13.587Z</time>
      </trkpt>
      <trkpt lat="48.64335" lon="2.08933">
        <ele>124</ele>
        <time>2025-08-28T18:14:16.874Z</time>
      </trkpt>
      <trkpt lat="48.64327" lon="2.08931">
        <ele>124.2</ele>
        <time>2025-08-28T18:14:20.967Z</time>
        <extensions>
          <visugpx:TrkExtension xmlns:visugpx="https://www.visugpx.com/editgpx/">
            <visugpx:node>39</visugpx:node>
            </visugpx:TrkExtension>
        </extensions>
      </trkpt>
      <trkpt lat="48.6432" lon="2.0893">
        <ele>124.5</ele>
        <time>2025-08-28T18:14:24.728Z</time>
      </trkpt>
      <trkpt lat="48.64313" lon="2.08929">
        <ele>124.7</ele>
        <time>2025-08-28T18:14:28.321Z</time>
      </trkpt>
      <trkpt lat="48.64305" lon="2.08928">
        <ele>125</ele>
        <time>2025-08-28T18:14:32.541Z</time>
      </trkpt>
      <trkpt lat="48.64298" lon="2.08927">
        <ele>125.3</ele>
        <time>2025-08-28T18:14:36.302Z</time>
      </trkpt>
      <trkpt lat="48.64291" lon="2.08926">
        <ele>125.5</ele>
        <time>2025-08-28T18:14:39.895Z</time>
      </trkpt>
      <trkpt lat="48.64283" lon="2.08925">
        <ele>125.8</ele>
        <time>2025-08-28T18:14:44.115Z</time>
      </trkpt>
      <trkpt lat="48.64276" lon="2.08924">
        <ele>126</ele>
        <time>2025-08-28T18:14:47.708Z</time>
      </trkpt>
      <trkpt lat="48.64272" lon="2.08924">
        <ele>126.2</ele>
        <time>2025-08-28T18:14:49.899Z</time>
      </trkpt>
      <trkpt lat="48.64267" lon="2.08923">
        <ele>126.3</ele>
        <time>2025-08-28T18:14:52.407Z</time>
      </trkpt>
      <trkpt lat="48.64263" lon="2.08923">
        <ele>126.4</ele>
        <time>2025-08-28T18:14:54.428Z</time>
      </trkpt>
      <trkpt lat="48.64258" lon="2.0892">
        <ele>126.6</ele>
        <time>2025-08-28T18:14:57.255Z</time>
      </trkpt>
      <trkpt lat="48.64254" lon="2.08919">
        <ele>126.8</ele>
        <time>2025-08-28T18:14:59.471Z</time>
      </trkpt>
      <trkpt lat="48.64249" lon="2.08917">
        <ele>127</ele>
        <time>2025-08-28T18:15:02.201Z</time>
      </trkpt>
      <trkpt lat="48.64244" lon="2.08915">
        <ele>127.3</ele>
        <time>2025-08-28T18:15:05.110Z</time>
      </trkpt>
      <trkpt lat="48.64238" lon="2.08912">
        <ele>127.5</ele>
        <time>2025-08-28T18:15:08.372Z</time>
      </trkpt>
      <trkpt lat="48.64234" lon="2.08911">
        <ele>127.7</ele>
        <time>2025-08-28T18:15:10.589Z</time>
      </trkpt>
      <trkpt lat="48.64231" lon="2.0891">
        <ele>127.8</ele>
        <time>2025-08-28T18:15:12.179Z</time>
      </trkpt>
      <trkpt lat="48.64228" lon="2.0891">
        <ele>127.8</ele>
        <time>2025-08-28T18:15:13.581Z</time>
      </trkpt>
      <trkpt lat="48.64223" lon="2.0891">
        <ele>128</ele>
        <time>2025-08-28T18:15:16.232Z</time>
      </trkpt>
      <trkpt lat="48.6422" lon="2.0891">
        <ele>128</ele>
        <time>2025-08-28T18:15:17.635Z</time>
      </trkpt>
      <trkpt lat="48.64217" lon="2.08913">
        <ele>128</ele>
        <time>2025-08-28T18:15:19.315Z</time>
      </trkpt>
      <trkpt lat="48.64216" lon="2.08913">
        <ele>128</ele>
        <time>2025-08-28T18:15:19.783Z</time>
        <extensions>
          <visugpx:TrkExtension xmlns:visugpx="https://www.visugpx.com/editgpx/">
            <visugpx:node>40</visugpx:node>
            </visugpx:TrkExtension>
        </extensions>
      </trkpt>
      <trkpt lat="48.64215" lon="2.08923">
        <ele>127.8</ele>
        <time>2025-08-28T18:15:22.636Z</time>
      </trkpt>
      <trkpt lat="48.64214" lon="2.0893">
        <ele>127.5</ele>
        <time>2025-08-28T18:15:24.571Z</time>
      </trkpt>
      <trkpt lat="48.64212" lon="2.0894">
        <ele>127.2</ele>
        <time>2025-08-28T18:15:27.404Z</time>
      </trkpt>
      <trkpt lat="48.6421" lon="2.08951">
        <ele>126.9</ele>
        <time>2025-08-28T18:15:30.530Z</time>
      </trkpt>
      <trkpt lat="48.64209" lon="2.0896">
        <ele>126.7</ele>
        <time>2025-08-28T18:15:33.080Z</time>
      </trkpt>
      <trkpt lat="48.64207" lon="2.08974">
        <ele>126.5</ele>
        <time>2025-08-28T18:15:37.229Z</time>
        <extensions>
          <visugpx:TrkExtension xmlns:visugpx="https://www.visugpx.com/editgpx/">
            <visugpx:node>41</visugpx:node>
            </visugpx:TrkExtension>
        </extensions>
      </trkpt>
      <trkpt lat="48.64196" lon="2.08967">
        <ele>127</ele>
        <time>2025-08-28T18:15:43.596Z</time>
      </trkpt>
      <trkpt lat="48.64192" lon="2.08967">
        <ele>127</ele>
        <time>2025-08-28T18:15:45.465Z</time>
        <extensions>
          <visugpx:TrkExtension xmlns:visugpx="https://www.visugpx.com/editgpx/">
            <visugpx:node>42</visugpx:node>
            </visugpx:TrkExtension>
        </extensions>
      </trkpt>
      <trkpt lat="48.64191" lon="2.08967">
        <ele>127</ele>
        <time>2025-08-28T18:15:45.933Z</time>
      </trkpt>
      <trkpt lat="48.6419" lon="2.08981">
        <ele>127</ele>
        <time>2025-08-28T18:15:50.281Z</time>
      </trkpt>
      <trkpt lat="48.64189" lon="2.08979">
        <ele>127</ele>
        <time>2025-08-28T18:15:51.099Z</time>
        <extensions>
          <visugpx:TrkExtension xmlns:visugpx="https://www.visugpx.com/editgpx/">
            <visugpx:node>43</visugpx:node>
            </visugpx:TrkExtension>
        </extensions>
      </trkpt>
      <trkpt lat="48.64188" lon="2.08979">
        <ele>127</ele>
        <time>2025-08-28T18:15:51.593Z</time>
      </trkpt>
      <trkpt lat="48.6416" lon="2.08932">
        <ele>128.1</ele>
        <time>2025-08-28T18:16:12.255Z</time>
      </trkpt>
      <trkpt lat="48.64156" lon="2.08933">
        <ele>128.2</ele>
        <time>2025-08-28T18:16:14.258Z</time>
      </trkpt>
      <trkpt lat="48.64146" lon="2.08934">
        <ele>128.3</ele>
        <time>2025-08-28T18:16:19.210Z</time>
      </trkpt>
      <trkpt lat="48.64141" lon="2.08934">
        <ele>128.3</ele>
        <time>2025-08-28T18:16:21.681Z</time>
      </trkpt>
      <trkpt lat="48.64141" lon="2.08934">
        <ele>128.3</ele>
        <time>2025-08-28T18:16:21.681Z</time>
        <extensions>
          <visugpx:TrkExtension xmlns:visugpx="https://www.visugpx.com/editgpx/">
            <visugpx:node>44</visugpx:node>
            </visugpx:TrkExtension>
        </extensions>
      </trkpt>
      <trkpt lat="48.64139" lon="2.08934">
        <ele>128.4</ele>
        <time>2025-08-28T18:16:22.670Z</time>
      </trkpt>
      <trkpt lat="48.64134" lon="2.08934">
        <ele>128.6</ele>
        <time>2025-08-28T18:16:25.322Z</time>
      </trkpt>
      <trkpt lat="48.64129" lon="2.08943">
        <ele>128.4</ele>
        <time>2025-08-28T18:16:28.680Z</time>
      </trkpt>
      <trkpt lat="48.64124" lon="2.08952">
        <ele>128.4</ele>
        <time>2025-08-28T18:16:32.312Z</time>
      </trkpt>
      <trkpt lat="48.64119" lon="2.08959">
        <ele>128.3</ele>
        <time>2025-08-28T18:16:35.356Z</time>
      </trkpt>
      <trkpt lat="48.64114" lon="2.08959">
        <ele>128.4</ele>
        <time>2025-08-28T18:16:37.843Z</time>
      </trkpt>
      <trkpt lat="48.64106" lon="2.08948">
        <ele>129.1</ele>
        <time>2025-08-28T18:16:44.061Z</time>
      </trkpt>
      <trkpt lat="48.641" lon="2.08944">
        <ele>129.4</ele>
        <time>2025-08-28T18:16:47.603Z</time>
      </trkpt>
      <trkpt lat="48.64093" lon="2.08941">
        <ele>129.8</ele>
        <time>2025-08-28T18:16:51.655Z</time>
      </trkpt>
      <trkpt lat="48.64087" lon="2.08938">
        <ele>130.1</ele>
        <time>2025-08-28T18:16:55.088Z</time>
      </trkpt>
      <trkpt lat="48.6408" lon="2.08935">
        <ele>130.6</ele>
        <time>2025-08-28T18:16:59.329Z</time>
      </trkpt>
      <trkpt lat="48.64073" lon="2.08932">
        <ele>131.2</ele>
        <time>2025-08-28T18:17:03.772Z</time>
        <extensions>
          <visugpx:TrkExtension xmlns:visugpx="https://www.visugpx.com/editgpx/">
            <visugpx:node>45</visugpx:node>
            </visugpx:TrkExtension>
        </extensions>
      </trkpt>
      <trkpt lat="48.64073" lon="2.08932">
        <ele>131.2</ele>
        <time>2025-08-28T18:17:03.772Z</time>
      </trkpt>
      <trkpt lat="48.64043" lon="2.08918">
        <ele>133.4</ele>
        <time>2025-08-28T18:17:20.193Z</time>
      </trkpt>
      <trkpt lat="48.64016" lon="2.08924">
        <ele>134.6</ele>
        <time>2025-08-28T18:17:34.467Z</time>
      </trkpt>
      <trkpt lat="48.64013" lon="2.08914">
        <ele>135.2</ele>
        <time>2025-08-28T18:17:38.263Z</time>
      </trkpt>
      <trkpt lat="48.63974" lon="2.08873">
        <ele>138.5</ele>
        <time>2025-08-28T18:18:03.102Z</time>
      </trkpt>
      <trkpt lat="48.63963" lon="2.0885">
        <ele>140.1</ele>
        <time>2025-08-28T18:18:12.915Z</time>
      </trkpt>
      <trkpt lat="48.63932" lon="2.08808">
        <ele>143.8</ele>
        <time>2025-08-28T18:18:34.679Z</time>
      </trkpt>
      <trkpt lat="48.63903" lon="2.08796">
        <ele>146.3</ele>
        <time>2025-08-28T18:18:50.405Z</time>
      </trkpt>
      <trkpt lat="48.63878" lon="2.08778">
        <ele>148.8</ele>
        <time>2025-08-28T18:19:04.887Z</time>
      </trkpt>
      <trkpt lat="48.63865" lon="2.08765">
        <ele>150.2</ele>
        <time>2025-08-28T18:19:13.037Z</time>
      </trkpt>
      <trkpt lat="48.6386" lon="2.08755">
        <ele>150.9</ele>
        <time>2025-08-28T18:19:17.371Z</time>
      </trkpt>
      <trkpt lat="48.63846" lon="2.08716">
        <ele>152.3</ele>
        <time>2025-08-28T18:19:32.712Z</time>
      </trkpt>
      <trkpt lat="48.63837" lon="2.08687">
        <ele>154</ele>
        <time>2025-08-28T18:19:43.786Z</time>
      </trkpt>
      <trkpt lat="48.63837" lon="2.08686">
        <ele>154</ele>
        <time>2025-08-28T18:19:44.131Z</time>
        <extensions>
          <visugpx:TrkExtension xmlns:visugpx="https://www.visugpx.com/editgpx/">
            <visugpx:node>46</visugpx:node>
            </visugpx:TrkExtension>
        </extensions>
      </trkpt>
      <trkpt lat="48.63837" lon="2.08686">
        <ele>154</ele>
        <time>2025-08-28T18:19:44.131Z</time>
      </trkpt>
      <trkpt lat="48.63841" lon="2.08651">
        <ele>154.3</ele>
        <time>2025-08-28T18:19:56.409Z</time>
      </trkpt>
      <trkpt lat="48.63839" lon="2.0864">
        <ele>154.6</ele>
        <time>2025-08-28T18:20:00.352Z</time>
      </trkpt>
      <trkpt lat="48.63832" lon="2.08622">
        <ele>155.7</ele>
        <time>2025-08-28T18:20:07.571Z</time>
      </trkpt>
      <trkpt lat="48.6383" lon="2.08613">
        <ele>156.1</ele>
        <time>2025-08-28T18:20:10.853Z</time>
      </trkpt>
      <trkpt lat="48.6383" lon="2.08613">
        <ele>156.1</ele>
        <time>2025-08-28T18:20:10.853Z</time>
        <extensions>
          <visugpx:TrkExtension xmlns:visugpx="https://www.visugpx.com/editgpx/">
            <visugpx:node>47</visugpx:node>
            </visugpx:TrkExtension>
        </extensions>
      </trkpt>
      <trkpt lat="48.63827" lon="2.08601">
        <ele>156.6</ele>
        <time>2025-08-28T18:20:15.288Z</time>
      </trkpt>
      <trkpt lat="48.63825" lon="2.08551">
        <ele>157.7</ele>
        <time>2025-08-28T18:20:32.603Z</time>
      </trkpt>
      <trkpt lat="48.63825" lon="2.08537">
        <ele>158.1</ele>
        <time>2025-08-28T18:20:37.442Z</time>
      </trkpt>
      <trkpt lat="48.63825" lon="2.08537">
        <ele>158.1</ele>
        <time>2025-08-28T18:20:37.442Z</time>
        <extensions>
          <visugpx:TrkExtension xmlns:visugpx="https://www.visugpx.com/editgpx/">
            <visugpx:node>48</visugpx:node>
            </visugpx:TrkExtension>
        </extensions>
      </trkpt>
      <trkpt lat="48.63825" lon="2.08537">
        <ele>158.1</ele>
        <time>2025-08-28T18:20:37.442Z</time>
      </trkpt>
      <trkpt lat="48.63825" lon="2.08531">
        <ele>158.2</ele>
        <time>2025-08-28T18:20:39.516Z</time>
      </trkpt>
      <trkpt lat="48.63828" lon="2.08502">
        <ele>158.4</ele>
        <time>2025-08-28T18:20:49.662Z</time>
      </trkpt>
      <trkpt lat="48.63827" lon="2.08476">
        <ele>159.1</ele>
        <time>2025-08-28T18:20:58.664Z</time>
      </trkpt>
      <trkpt lat="48.63828" lon="2.08476">
        <ele>159.1</ele>
        <time>2025-08-28T18:20:59.187Z</time>
        <extensions>
          <visugpx:TrkExtension xmlns:visugpx="https://www.visugpx.com/editgpx/">
            <visugpx:node>49</visugpx:node>
            </visugpx:TrkExtension>
        </extensions>
      </trkpt>
      <trkpt lat="48.63828" lon="2.08476">
        <ele>159.1</ele>
        <time>2025-08-28T18:20:59.187Z</time>
      </trkpt>
      <trkpt lat="48.63844" lon="2.08472">
        <ele>158.2</ele>
        <time>2025-08-28T18:21:07.670Z</time>
      </trkpt>
      <trkpt lat="48.6386" lon="2.08473">
        <ele>157.1</ele>
        <time>2025-08-28T18:21:16.047Z</time>
      </trkpt>
      <trkpt lat="48.63876" lon="2.08481">
        <ele>156.3</ele>
        <time>2025-08-28T18:21:24.861Z</time>
      </trkpt>
      <trkpt lat="48.63889" lon="2.08491">
        <ele>155.3</ele>
        <time>2025-08-28T18:21:32.489Z</time>
      </trkpt>
      <trkpt lat="48.639" lon="2.08494">
        <ele>154.7</ele>
        <time>2025-08-28T18:21:38.336Z</time>
      </trkpt>
      <trkpt lat="48.63914" lon="2.08492">
        <ele>154.1</ele>
        <time>2025-08-28T18:21:45.692Z</time>
      </trkpt>
      <trkpt lat="48.63919" lon="2.08488">
        <ele>153.8</ele>
        <time>2025-08-28T18:21:48.650Z</time>
      </trkpt>
      <trkpt lat="48.63927" lon="2.08482">
        <ele>153.3</ele>
        <time>2025-08-28T18:21:53.320Z</time>
      </trkpt>
      <trkpt lat="48.63934" lon="2.08474">
        <ele>152.8</ele>
        <time>2025-08-28T18:21:57.908Z</time>
      </trkpt>
      <trkpt lat="48.63962" lon="2.08429">
        <ele>152.3</ele>
        <time>2025-08-28T18:22:19.274Z</time>
      </trkpt>
      <trkpt lat="48.63961" lon="2.08422">
        <ele>152.6</ele>
        <time>2025-08-28T18:22:21.749Z</time>
      </trkpt>
      <trkpt lat="48.63961" lon="2.08422">
        <ele>152.6</ele>
        <time>2025-08-28T18:22:21.749Z</time>
        <extensions>
          <visugpx:TrkExtension xmlns:visugpx="https://www.visugpx.com/editgpx/">
            <visugpx:node>50</visugpx:node>
            </visugpx:TrkExtension>
        </extensions>
      </trkpt>
      <trkpt lat="48.63961" lon="2.08422">
        <ele>152.6</ele>
        <time>2025-08-28T18:22:21.749Z</time>
      </trkpt>
      <trkpt lat="48.63944" lon="2.0835">
        <ele>155.4</ele>
        <time>2025-08-28T18:22:48.180Z</time>
      </trkpt>
      <trkpt lat="48.63944" lon="2.08347">
        <ele>155.5</ele>
        <time>2025-08-28T18:22:49.217Z</time>
      </trkpt>
      <trkpt lat="48.63944" lon="2.08347">
        <ele>155.5</ele>
        <time>2025-08-28T18:22:49.217Z</time>
        <extensions>
          <visugpx:TrkExtension xmlns:visugpx="https://www.visugpx.com/editgpx/">
            <visugpx:node>51</visugpx:node>
            </visugpx:TrkExtension>
        </extensions>
      </trkpt>
      <trkpt lat="48.63944" lon="2.08347">
        <ele>155.5</ele>
        <time>2025-08-28T18:22:49.217Z</time>
      </trkpt>
      <trkpt lat="48.63944" lon="2.08344">
        <ele>155.6</ele>
        <time>2025-08-28T18:22:50.254Z</time>
      </trkpt>
      <trkpt lat="48.63956" lon="2.08319">
        <ele>155.4</ele>
        <time>2025-08-28T18:23:00.935Z</time>
      </trkpt>
      <trkpt lat="48.6396" lon="2.08316">
        <ele>155.2</ele>
        <time>2025-08-28T18:23:03.270Z</time>
      </trkpt>
      <trkpt lat="48.6396" lon="2.08317">
        <ele>155.2</ele>
        <time>2025-08-28T18:23:03.615Z</time>
        <extensions>
          <visugpx:TrkExtension xmlns:visugpx="https://www.visugpx.com/editgpx/">
            <visugpx:node>52</visugpx:node>
            </visugpx:TrkExtension>
        </extensions>
      </trkpt>
      <trkpt lat="48.6396" lon="2.08316">
        <ele>155.2</ele>
        <time>2025-08-28T18:23:03.960Z</time>
      </trkpt>
      <trkpt lat="48.63962" lon="2.08315">
        <ele>155.2</ele>
        <time>2025-08-28T18:23:05.062Z</time>
      </trkpt>
      <trkpt lat="48.63991" lon="2.08323">
        <ele>153.4</ele>
        <time>2025-08-28T18:23:20.485Z</time>
      </trkpt>
      <trkpt lat="48.63991" lon="2.08323">
        <ele>153.4</ele>
        <time>2025-08-28T18:23:20.485Z</time>
        <extensions>
          <visugpx:TrkExtension xmlns:visugpx="https://www.visugpx.com/editgpx/">
            <visugpx:node>53</visugpx:node>
            </visugpx:TrkExtension>
        </extensions>
      </trkpt>
      <trkpt lat="48.63991" lon="2.08323">
        <ele>153.4</ele>
        <time>2025-08-28T18:23:20.485Z</time>
      </trkpt>
      <trkpt lat="48.63998" lon="2.08325">
        <ele>153.1</ele>
        <time>2025-08-28T18:23:24.212Z</time>
      </trkpt>
      <trkpt lat="48.64004" lon="2.08324">
        <ele>152.7</ele>
        <time>2025-08-28T18:23:27.370Z</time>
      </trkpt>
      <trkpt lat="48.64004" lon="2.08327">
        <ele>152.7</ele>
        <time>2025-08-28T18:23:28.407Z</time>
      </trkpt>
      <trkpt lat="48.64004" lon="2.08327">
        <ele>152.7</ele>
        <time>2025-08-28T18:23:28.407Z</time>
        <extensions>
          <visugpx:TrkExtension xmlns:visugpx="https://www.visugpx.com/editgpx/">
            <visugpx:node>54</visugpx:node>
            </visugpx:TrkExtension>
        </extensions>
      </trkpt>
      <trkpt lat="48.64006" lon="2.08335">
        <ele>152.5</ele>
        <time>2025-08-28T18:23:31.365Z</time>
      </trkpt>
      <trkpt lat="48.64009" lon="2.08346">
        <ele>152</ele>
        <time>2025-08-28T18:23:34.581Z</time>
      </trkpt>
      <trkpt lat="48.64012" lon="2.08357">
        <ele>151.7</ele>
        <time>2025-08-28T18:23:37.858Z</time>
      </trkpt>
      <trkpt lat="48.64014" lon="2.08367">
        <ele>151.3</ele>
        <time>2025-08-28T18:23:40.681Z</time>
      </trkpt>
      <trkpt lat="48.64017" lon="2.08378">
        <ele>150.8</ele>
        <time>2025-08-28T18:23:43.897Z</time>
      </trkpt>
      <trkpt lat="48.64022" lon="2.08379">
        <ele>150.6</ele>
        <time>2025-08-28T18:23:45.989Z</time>
      </trkpt>
      <trkpt lat="48.64027" lon="2.0838">
        <ele>150.3</ele>
        <time>2025-08-28T18:23:48.052Z</time>
      </trkpt>
      <trkpt lat="48.64029" lon="2.08387">
        <ele>150</ele>
        <time>2025-08-28T18:23:50.113Z</time>
      </trkpt>
      <trkpt lat="48.64034" lon="2.08389">
        <ele>149.8</ele>
        <time>2025-08-28T18:23:52.265Z</time>
      </trkpt>
      <trkpt lat="48.6404" lon="2.08392">
        <ele>149.4</ele>
        <time>2025-08-28T18:23:54.849Z</time>
      </trkpt>
      <trkpt lat="48.64045" lon="2.08394">
        <ele>149.2</ele>
        <time>2025-08-28T18:23:57.001Z</time>
      </trkpt>
      <trkpt lat="48.6405" lon="2.08396">
        <ele>148.9</ele>
        <time>2025-08-28T18:23:59.116Z</time>
      </trkpt>
      <trkpt lat="48.64054" lon="2.08397">
        <ele>148.8</ele>
        <time>2025-08-28T18:24:00.874Z</time>
      </trkpt>
      <trkpt lat="48.64057" lon="2.08398">
        <ele>148.6</ele>
        <time>2025-08-28T18:24:02.131Z</time>
      </trkpt>
      <trkpt lat="48.6406" lon="2.084">
        <ele>148.4</ele>
        <time>2025-08-28T18:24:03.471Z</time>
      </trkpt>
      <trkpt lat="48.64063" lon="2.08396">
        <ele>148.5</ele>
        <time>2025-08-28T18:24:05.492Z</time>
      </trkpt>
      <trkpt lat="48.64066" lon="2.0839">
        <ele>148.6</ele>
        <time>2025-08-28T18:24:07.966Z</time>
      </trkpt>
      <trkpt lat="48.64069" lon="2.08384">
        <ele>148.5</ele>
        <time>2025-08-28T18:24:10.152Z</time>
      </trkpt>
      <trkpt lat="48.64072" lon="2.08378">
        <ele>148.4</ele>
        <time>2025-08-28T18:24:12.338Z</time>
      </trkpt>
      <trkpt lat="48.64075" lon="2.08372">
        <ele>148.3</ele>
        <time>2025-08-28T18:24:14.524Z</time>
      </trkpt>
      <trkpt lat="48.64078" lon="2.08365">
        <ele>148.2</ele>
        <time>2025-08-28T18:24:16.962Z</time>
      </trkpt>
      <trkpt lat="48.64081" lon="2.08359">
        <ele>148.1</ele>
        <time>2025-08-28T18:24:19.148Z</time>
      </trkpt>
      <trkpt lat="48.64073" lon="2.08356">
        <ele>148.4</ele>
        <time>2025-08-28T18:24:23.468Z</time>
      </trkpt>
      <trkpt lat="48.64076" lon="2.08351">
        <ele>148.4</ele>
        <time>2025-08-28T18:24:25.554Z</time>
      </trkpt>
      <trkpt lat="48.64079" lon="2.08346">
        <ele>148.2</ele>
        <time>2025-08-28T18:24:27.379Z</time>
      </trkpt>
      <trkpt lat="48.64082" lon="2.0834">
        <ele>148.1</ele>
        <time>2025-08-28T18:24:29.565Z</time>
      </trkpt>
      <trkpt lat="48.64085" lon="2.08335">
        <ele>147.9</ele>
        <time>2025-08-28T18:24:31.390Z</time>
      </trkpt>
      <trkpt lat="48.64088" lon="2.0833">
        <ele>147.9</ele>
        <time>2025-08-28T18:24:33.476Z</time>
      </trkpt>
      <trkpt lat="48.64091" lon="2.08325">
        <ele>147.9</ele>
        <time>2025-08-28T18:24:35.561Z</time>
      </trkpt>
      <trkpt lat="48.64094" lon="2.08319">
        <ele>147.9</ele>
        <time>2025-08-28T18:24:37.885Z</time>
      </trkpt>
      <trkpt lat="48.64097" lon="2.08314">
        <ele>147.9</ele>
        <time>2025-08-28T18:24:39.971Z</time>
      </trkpt>
      <trkpt lat="48.641" lon="2.08309">
        <ele>147.8</ele>
        <time>2025-08-28T18:24:41.919Z</time>
      </trkpt>
      <trkpt lat="48.64103" lon="2.08304">
        <ele>147.6</ele>
        <time>2025-08-28T18:24:43.745Z</time>
      </trkpt>
      <trkpt lat="48.64106" lon="2.08298">
        <ele>147.6</ele>
        <time>2025-08-28T18:24:46.068Z</time>
      </trkpt>
      <trkpt lat="48.64109" lon="2.08293">
        <ele>147.6</ele>
        <time>2025-08-28T18:24:48.154Z</time>
      </trkpt>
      <trkpt lat="48.64112" lon="2.08288">
        <ele>147.6</ele>
        <time>2025-08-28T18:24:50.240Z</time>
      </trkpt>
      <trkpt lat="48.64115" lon="2.08283">
        <ele>147.5</ele>
        <time>2025-08-28T18:24:52.188Z</time>
      </trkpt>
      <trkpt lat="48.64118" lon="2.08277">
        <ele>147.5</ele>
        <time>2025-08-28T18:24:54.512Z</time>
      </trkpt>
      <trkpt lat="48.64121" lon="2.08272">
        <ele>147.3</ele>
        <time>2025-08-28T18:24:56.337Z</time>
      </trkpt>
      <trkpt lat="48.64121" lon="2.08272">
        <ele>147.3</ele>
        <time>2025-08-28T18:24:56.337Z</time>
        <extensions>
          <visugpx:TrkExtension xmlns:visugpx="https://www.visugpx.com/editgpx/">
            <visugpx:node>55</visugpx:node>
            </visugpx:TrkExtension>
        </extensions>
      </trkpt>
      <trkpt lat="48.64121" lon="2.08271">
        <ele>147.3</ele>
        <time>2025-08-28T18:24:56.646Z</time>
      </trkpt>
      <trkpt lat="48.64124" lon="2.0823">
        <ele>147.5</ele>
        <time>2025-08-28T18:25:09.678Z</time>
        <extensions>
          <visugpx:TrkExtension xmlns:visugpx="https://www.visugpx.com/editgpx/">
            <visugpx:node>56</visugpx:node>
            </visugpx:TrkExtension>
        </extensions>
      </trkpt>
      <trkpt lat="48.64124" lon="2.0823">
        <ele>147.5</ele>
        <time>2025-08-28T18:25:09.678Z</time>
      </trkpt>
      <trkpt lat="48.64125" lon="2.08219">
        <ele>147.6</ele>
        <time>2025-08-28T18:25:13.255Z</time>
        <extensions>
          <visugpx:TrkExtension xmlns:visugpx="https://www.visugpx.com/editgpx/">
            <visugpx:node>57</visugpx:node>
            </visugpx:TrkExtension>
        </extensions>
      </trkpt>
      <trkpt lat="48.64125" lon="2.08219">
        <ele>147.6</ele>
        <time>2025-08-28T18:25:13.255Z</time>
      </trkpt>
      <trkpt lat="48.64125" lon="2.08219">
        <ele>147.6</ele>
        <time>2025-08-28T18:25:13.255Z</time>
      </trkpt>
      <trkpt lat="48.64122" lon="2.082">
        <ele>148.1</ele>
        <time>2025-08-28T18:25:20.072Z</time>
      </trkpt>
      <trkpt lat="48.64132" lon="2.08184">
        <ele>147.5</ele>
        <time>2025-08-28T18:25:26.082Z</time>
      </trkpt>
      <trkpt lat="48.64132" lon="2.08184">
        <ele>147.5</ele>
        <time>2025-08-28T18:25:26.082Z</time>
        <extensions>
          <visugpx:TrkExtension xmlns:visugpx="https://www.visugpx.com/editgpx/">
            <visugpx:node>58</visugpx:node>
            </visugpx:TrkExtension>
        </extensions>
      </trkpt>
      <trkpt lat="48.64132" lon="2.08184">
        <ele>147.5</ele>
        <time>2025-08-28T18:25:26.082Z</time>
      </trkpt>
      <trkpt lat="48.6417" lon="2.08116">
        <ele>145.9</ele>
        <time>2025-08-28T18:25:51.413Z</time>
      </trkpt>
      <trkpt lat="48.642" lon="2.08124">
        <ele>144.3</ele>
        <time>2025-08-28T18:26:03.871Z</time>
      </trkpt>
      <trkpt lat="48.64231" lon="2.0814">
        <ele>142.3</ele>
        <time>2025-08-28T18:26:17.266Z</time>
      </trkpt>
      <trkpt lat="48.64252" lon="2.08138">
        <ele>140.9</ele>
        <time>2025-08-28T18:26:25.871Z</time>
      </trkpt>
      <trkpt lat="48.64276" lon="2.08143">
        <ele>139.1</ele>
        <time>2025-08-28T18:26:35.779Z</time>
      </trkpt>
      <trkpt lat="48.64279" lon="2.08146">
        <ele>138.9</ele>
        <time>2025-08-28T18:26:37.249Z</time>
      </trkpt>
      <trkpt lat="48.64282" lon="2.08147">
        <ele>138.8</ele>
        <time>2025-08-28T18:26:38.550Z</time>
      </trkpt>
      <trkpt lat="48.64285" lon="2.08144">
        <ele>138.7</ele>
        <time>2025-08-28T18:26:40.095Z</time>
      </trkpt>
      <trkpt lat="48.64286" lon="2.0814">
        <ele>138.7</ele>
        <time>2025-08-28T18:26:41.416Z</time>
      </trkpt>
      <trkpt lat="48.64311" lon="2.08147">
        <ele>137.4</ele>
        <time>2025-08-28T18:26:51.814Z</time>
      </trkpt>
      <trkpt lat="48.64314" lon="2.08134">
        <ele>137.4</ele>
        <time>2025-08-28T18:26:56.066Z</time>
      </trkpt>
      <trkpt lat="48.6432" lon="2.08111">
        <ele>137.5</ele>
        <time>2025-08-28T18:27:03.848Z</time>
      </trkpt>
      <trkpt lat="48.64323" lon="2.08073">
        <ele>138.3</ele>
        <time>2025-08-28T18:27:16.901Z</time>
      </trkpt>
      <trkpt lat="48.64324" lon="2.08064">
        <ele>138.5</ele>
        <time>2025-08-28T18:27:20.029Z</time>
        <extensions>
          <visugpx:TrkExtension xmlns:visugpx="https://www.visugpx.com/editgpx/">
            <visugpx:node>59</visugpx:node>
            </visugpx:TrkExtension>
        </extensions>
      </trkpt>
      <trkpt lat="48.64324" lon="2.08064">
        <ele>138.5</ele>
        <time>2025-08-28T18:27:20.029Z</time>
      </trkpt>
      <trkpt lat="48.6433" lon="2.08039">
        <ele>138.3</ele>
        <time>2025-08-28T18:27:27.963Z</time>
      </trkpt>
      <trkpt lat="48.64337" lon="2.07975">
        <ele>137.9</ele>
        <time>2025-08-28T18:27:47.432Z</time>
        <extensions>
          <visugpx:TrkExtension xmlns:visugpx="https://www.visugpx.com/editgpx/">
            <visugpx:node>60</visugpx:node>
            </visugpx:TrkExtension>
        </extensions>
      </trkpt>
      <trkpt lat="48.6434" lon="2.0794">
        <ele>137.9</ele>
        <time>2025-08-28T18:27:58.331Z</time>
      </trkpt>
      <trkpt lat="48.64344" lon="2.07919">
        <ele>138.5</ele>
        <time>2025-08-28T18:28:06.028Z</time>
      </trkpt>
      <trkpt lat="48.64344" lon="2.07919">
        <ele>138.5</ele>
        <time>2025-08-28T18:28:06.028Z</time>
        <extensions>
          <visugpx:TrkExtension xmlns:visugpx="https://www.visugpx.com/editgpx/">
            <visugpx:node>61</visugpx:node>
            </visugpx:TrkExtension>
        </extensions>
      </trkpt>
      <trkpt lat="48.64354" lon="2.07864">
        <ele>138.5</ele>
        <time>2025-08-28T18:28:23.644Z</time>
      </trkpt>
      <trkpt lat="48.64359" lon="2.07863">
        <ele>138.1</ele>
        <time>2025-08-28T18:28:25.707Z</time>
      </trkpt>
      <trkpt lat="48.64365" lon="2.07861">
        <ele>137.9</ele>
        <time>2025-08-28T18:28:28.309Z</time>
      </trkpt>
      <trkpt lat="48.64381" lon="2.07858">
        <ele>137.3</ele>
        <time>2025-08-28T18:28:35.047Z</time>
      </trkpt>
      <trkpt lat="48.64396" lon="2.07848">
        <ele>136.7</ele>
        <time>2025-08-28T18:28:41.908Z</time>
      </trkpt>
      <trkpt lat="48.64419" lon="2.07836">
        <ele>136</ele>
        <time>2025-08-28T18:28:52.331Z</time>
      </trkpt>
      <trkpt lat="48.64424" lon="2.07844">
        <ele>135.9</ele>
        <time>2025-08-28T18:28:55.592Z</time>
      </trkpt>
      <trkpt lat="48.6445" lon="2.07799">
        <ele>135.8</ele>
        <time>2025-08-28T18:29:13.910Z</time>
      </trkpt>
      <trkpt lat="48.64455" lon="2.07793">
        <ele>135.6</ele>
        <time>2025-08-28T18:29:16.623Z</time>
      </trkpt>
      <trkpt lat="48.64465" lon="2.07809">
        <ele>135.2</ele>
        <time>2025-08-28T18:29:22.881Z</time>
        <extensions>
          <visugpx:TrkExtension xmlns:visugpx="https://www.visugpx.com/editgpx/">
            <visugpx:node>62</visugpx:node>
            </visugpx:TrkExtension>
        </extensions>
      </trkpt>
      <trkpt lat="48.64465" lon="2.07809">
        <ele>135.2</ele>
        <time>2025-08-28T18:29:22.881Z</time>
      </trkpt>
      <trkpt lat="48.64466" lon="2.0781">
        <ele>135.1</ele>
        <time>2025-08-28T18:29:23.371Z</time>
      </trkpt>
      <trkpt lat="48.64469" lon="2.07821">
        <ele>134.6</ele>
        <time>2025-08-28T18:29:26.587Z</time>
      </trkpt>
      <trkpt lat="48.64484" lon="2.07826">
        <ele>133.7</ele>
        <time>2025-08-28T18:29:32.868Z</time>
      </trkpt>
      <trkpt lat="48.64501" lon="2.07832">
        <ele>133</ele>
        <time>2025-08-28T18:29:40.101Z</time>
      </trkpt>
      <trkpt lat="48.64543" lon="2.0784">
        <ele>132</ele>
        <time>2025-08-28T18:29:58.518Z</time>
      </trkpt>
      <trkpt lat="48.64543" lon="2.07839">
        <ele>132</ele>
        <time>2025-08-28T18:29:58.827Z</time>
        <extensions>
          <visugpx:TrkExtension xmlns:visugpx="https://www.visugpx.com/editgpx/">
            <visugpx:node>63</visugpx:node>
            </visugpx:TrkExtension>
        </extensions>
      </trkpt>
      <trkpt lat="48.64545" lon="2.07841">
        <ele>132</ele>
        <time>2025-08-28T18:29:59.947Z</time>
      </trkpt>
      <trkpt lat="48.64551" lon="2.07843">
        <ele>132</ele>
        <time>2025-08-28T18:30:02.819Z</time>
      </trkpt>
      <trkpt lat="48.64557" lon="2.07844">
        <ele>132</ele>
        <time>2025-08-28T18:30:05.640Z</time>
      </trkpt>
      <trkpt lat="48.64558" lon="2.07844">
        <ele>132</ele>
        <time>2025-08-28T18:30:06.107Z</time>
        <extensions>
          <visugpx:TrkExtension xmlns:visugpx="https://www.visugpx.com/editgpx/">
            <visugpx:node>64</visugpx:node>
            </visugpx:TrkExtension>
        </extensions>
      </trkpt>
      <trkpt lat="48.64558" lon="2.07847">
        <ele>132</ele>
        <time>2025-08-28T18:30:07.034Z</time>
      </trkpt>
      <trkpt lat="48.64559" lon="2.07847">
        <ele>132</ele>
        <time>2025-08-28T18:30:07.501Z</time>
      </trkpt>
      <trkpt lat="48.64555" lon="2.0788">
        <ele>132</ele>
        <time>2025-08-28T18:30:17.862Z</time>
      </trkpt>
      <trkpt lat="48.64593" lon="2.0789">
        <ele>132</ele>
        <time>2025-08-28T18:30:35.889Z</time>
      </trkpt>
      <trkpt lat="48.64597" lon="2.07893">
        <ele>131.9</ele>
        <time>2025-08-28T18:30:37.838Z</time>
      </trkpt>
      <trkpt lat="48.64598" lon="2.07893">
        <ele>131.9</ele>
        <time>2025-08-28T18:30:38.305Z</time>
      </trkpt>
      <trkpt lat="48.64598" lon="2.07892">
        <ele>131.9</ele>
        <time>2025-08-28T18:30:38.614Z</time>
        <extensions>
          <visugpx:TrkExtension xmlns:visugpx="https://www.visugpx.com/editgpx/">
            <visugpx:node>65</visugpx:node>
            </visugpx:TrkExtension>
        </extensions>
      </trkpt>
      <trkpt lat="48.64606" lon="2.07894">
        <ele>132</ele>
        <time>2025-08-28T18:30:42.552Z</time>
      </trkpt>
      <trkpt lat="48.64614" lon="2.07895">
        <ele>132</ele>
        <time>2025-08-28T18:30:46.304Z</time>
      </trkpt>
      <trkpt lat="48.64623" lon="2.07896">
        <ele>132</ele>
        <time>2025-08-28T18:30:50.521Z</time>
      </trkpt>
      <trkpt lat="48.64631" lon="2.07896">
        <ele>132</ele>
        <time>2025-08-28T18:30:54.260Z</time>
      </trkpt>
      <trkpt lat="48.6463" lon="2.07907">
        <ele>132</ele>
        <time>2025-08-28T18:30:57.689Z</time>
      </trkpt>
      <trkpt lat="48.6463" lon="2.07918">
        <ele>132</ele>
        <time>2025-08-28T18:31:01.086Z</time>
      </trkpt>
      <trkpt lat="48.64629" lon="2.07929">
        <ele>131.6</ele>
        <time>2025-08-28T18:31:04.086Z</time>
      </trkpt>
      <trkpt lat="48.64629" lon="2.0794">
        <ele>131.2</ele>
        <time>2025-08-28T18:31:07.059Z</time>
      </trkpt>
      <trkpt lat="48.64628" lon="2.0795">
        <ele>130.9</ele>
        <time>2025-08-28T18:31:09.791Z</time>
      </trkpt>
      <trkpt lat="48.64627" lon="2.07961">
        <ele>130.7</ele>
        <time>2025-08-28T18:31:12.949Z</time>
      </trkpt>
      <trkpt lat="48.64627" lon="2.07972">
        <ele>130.4</ele>
        <time>2025-08-28T18:31:15.950Z</time>
      </trkpt>
      <trkpt lat="48.64626" lon="2.07983">
        <ele>130.3</ele>
        <time>2025-08-28T18:31:19.239Z</time>
      </trkpt>
      <trkpt lat="48.64626" lon="2.07995">
        <ele>130.1</ele>
        <time>2025-08-28T18:31:22.672Z</time>
      </trkpt>
      <trkpt lat="48.64625" lon="2.08008">
        <ele>130</ele>
        <time>2025-08-28T18:31:26.573Z</time>
      </trkpt>
      <trkpt lat="48.64625" lon="2.0802">
        <ele>130</ele>
        <time>2025-08-28T18:31:30.279Z</time>
      </trkpt>
      <trkpt lat="48.64624" lon="2.08032">
        <ele>129.8</ele>
        <time>2025-08-28T18:31:33.741Z</time>
        <extensions>
          <visugpx:TrkExtension xmlns:visugpx="https://www.visugpx.com/editgpx/">
            <visugpx:node>66</visugpx:node>
            </visugpx:TrkExtension>
        </extensions>
      </trkpt>
      <trkpt lat="48.64621" lon="2.08031">
        <ele>129.9</ele>
        <time>2025-08-28T18:31:35.331Z</time>
      </trkpt>
      <trkpt lat="48.64614" lon="2.0803">
        <ele>129.9</ele>
        <time>2025-08-28T18:31:38.617Z</time>
      </trkpt>
      <trkpt lat="48.64612" lon="2.08029">
        <ele>130</ele>
        <time>2025-08-28T18:31:39.762Z</time>
      </trkpt>
      <trkpt lat="48.64604" lon="2.08027">
        <ele>130</ele>
        <time>2025-08-28T18:31:43.551Z</time>
      </trkpt>
      <trkpt lat="48.64596" lon="2.08026">
        <ele>130</ele>
        <time>2025-08-28T18:31:47.303Z</time>
      </trkpt>
      <trkpt lat="48.64589" lon="2.08024">
        <ele>130.1</ele>
        <time>2025-08-28T18:31:50.781Z</time>
      </trkpt>
      <trkpt lat="48.64581" lon="2.08022">
        <ele>130.3</ele>
        <time>2025-08-28T18:31:54.875Z</time>
      </trkpt>
      <trkpt lat="48.64573" lon="2.0802">
        <ele>130.5</ele>
        <time>2025-08-28T18:31:58.968Z</time>
      </trkpt>
      <trkpt lat="48.64565" lon="2.08019">
        <ele>130.8</ele>
        <time>2025-08-28T18:32:03.189Z</time>
      </trkpt>
      <trkpt lat="48.64557" lon="2.08017">
        <ele>131</ele>
        <time>2025-08-28T18:32:07.282Z</time>
      </trkpt>
      <trkpt lat="48.6455" lon="2.08015">
        <ele>131</ele>
        <time>2025-08-28T18:32:10.612Z</time>
      </trkpt>
      <trkpt lat="48.64542" lon="2.08013">
        <ele>131</ele>
        <time>2025-08-28T18:32:14.401Z</time>
      </trkpt>
      <trkpt lat="48.64534" lon="2.08012">
        <ele>131</ele>
        <time>2025-08-28T18:32:18.153Z</time>
      </trkpt>
      <trkpt lat="48.64526" lon="2.0801">
        <ele>131.1</ele>
        <time>2025-08-28T18:32:22.091Z</time>
      </trkpt>
      <trkpt lat="48.64518" lon="2.08008">
        <ele>131.6</ele>
        <time>2025-08-28T18:32:26.707Z</time>
      </trkpt>
      <trkpt lat="48.6451" lon="2.08006">
        <ele>132.1</ele>
        <time>2025-08-28T18:32:31.324Z</time>
      </trkpt>
      <trkpt lat="48.64503" lon="2.08005">
        <ele>132.6</ele>
        <time>2025-08-28T18:32:35.455Z</time>
      </trkpt>
      <trkpt lat="48.64495" lon="2.08003">
        <ele>132.9</ele>
        <time>2025-08-28T18:32:39.713Z</time>
      </trkpt>
      <trkpt lat="48.64487" lon="2.08001">
        <ele>133</ele>
        <time>2025-08-28T18:32:43.651Z</time>
      </trkpt>
      <trkpt lat="48.64483" lon="2.08">
        <ele>133</ele>
        <time>2025-08-28T18:32:45.546Z</time>
      </trkpt>
      <trkpt lat="48.6448" lon="2.08002">
        <ele>133</ele>
        <time>2025-08-28T18:32:47.078Z</time>
      </trkpt>
      <trkpt lat="48.64476" lon="2.08007">
        <ele>133</ele>
        <time>2025-08-28T18:32:49.503Z</time>
      </trkpt>
      <trkpt lat="48.64475" lon="2.08009">
        <ele>133</ele>
        <time>2025-08-28T18:32:50.277Z</time>
      </trkpt>
      <trkpt lat="48.64473" lon="2.0801">
        <ele>133</ele>
        <time>2025-08-28T18:32:51.262Z</time>
      </trkpt>
      <trkpt lat="48.64469" lon="2.08009">
        <ele>133.1</ele>
        <time>2025-08-28T18:32:53.308Z</time>
      </trkpt>
      <trkpt lat="48.64464" lon="2.08007">
        <ele>133.3</ele>
        <time>2025-08-28T18:32:56.039Z</time>
      </trkpt>
      <trkpt lat="48.64457" lon="2.08005">
        <ele>133.5</ele>
        <time>2025-08-28T18:32:59.675Z</time>
      </trkpt>
      <trkpt lat="48.64451" lon="2.08004">
        <ele>133.8</ele>
        <time>2025-08-28T18:33:02.978Z</time>
      </trkpt>
      <trkpt lat="48.64446" lon="2.08003">
        <ele>133.9</ele>
        <time>2025-08-28T18:33:05.486Z</time>
      </trkpt>
      <trkpt lat="48.6444" lon="2.08001">
        <ele>134.3</ele>
        <time>2025-08-28T18:33:09.024Z</time>
      </trkpt>
      <trkpt lat="48.64434" lon="2.08">
        <ele>134.8</ele>
        <time>2025-08-28T18:33:12.715Z</time>
      </trkpt>
      <trkpt lat="48.64431" lon="2.08">
        <ele>135</ele>
        <time>2025-08-28T18:33:14.451Z</time>
        <extensions>
          <visugpx:TrkExtension xmlns:visugpx="https://www.visugpx.com/editgpx/">
            <visugpx:node>67</visugpx:node>
            </visugpx:TrkExtension>
        </extensions>
      </trkpt>
      <trkpt lat="48.64429" lon="2.08">
        <ele>135.1</ele>
        <time>2025-08-28T18:33:15.749Z</time>
      </trkpt>
      <trkpt lat="48.64427" lon="2.0801">
        <ele>135</ele>
        <time>2025-08-28T18:33:18.705Z</time>
      </trkpt>
      <trkpt lat="48.64426" lon="2.08019">
        <ele>134.9</ele>
        <time>2025-08-28T18:33:21.384Z</time>
      </trkpt>
      <trkpt lat="48.64425" lon="2.08028">
        <ele>134.7</ele>
        <time>2025-08-28T18:33:23.934Z</time>
        <extensions>
          <visugpx:TrkExtension xmlns:visugpx="https://www.visugpx.com/editgpx/">
            <visugpx:node>68</visugpx:node>
            </visugpx:TrkExtension>
        </extensions>
      </trkpt>
      <trkpt lat="48.64424" lon="2.08039">
        <ele>134.7</ele>
        <time>2025-08-28T18:33:27.363Z</time>
      </trkpt>
      <trkpt lat="48.64425" lon="2.08048">
        <ele>134.7</ele>
        <time>2025-08-28T18:33:30.182Z</time>
      </trkpt>
      <trkpt lat="48.64428" lon="2.08048">
        <ele>134.6</ele>
        <time>2025-08-28T18:33:31.450Z</time>
      </trkpt>
      <trkpt lat="48.64434" lon="2.08057">
        <ele>134.4</ele>
        <time>2025-08-28T18:33:35.124Z</time>
      </trkpt>
      <trkpt lat="48.64435" lon="2.08066">
        <ele>134.3</ele>
        <time>2025-08-28T18:33:37.804Z</time>
      </trkpt>
      <trkpt lat="48.64432" lon="2.08096">
        <ele>134</ele>
        <time>2025-08-28T18:33:46.756Z</time>
      </trkpt>
      <trkpt lat="48.64431" lon="2.08108">
        <ele>133.6</ele>
        <time>2025-08-28T18:33:50.024Z</time>
      </trkpt>
      <trkpt lat="48.64431" lon="2.08114">
        <ele>133.4</ele>
        <time>2025-08-28T18:33:51.645Z</time>
      </trkpt>
      <trkpt lat="48.6443" lon="2.08125">
        <ele>133.3</ele>
        <time>2025-08-28T18:33:54.935Z</time>
      </trkpt>
      <trkpt lat="48.64429" lon="2.08127">
        <ele>133.3</ele>
        <time>2025-08-28T18:33:55.709Z</time>
      </trkpt>
      <trkpt lat="48.64424" lon="2.08175">
        <ele>132.7</ele>
        <time>2025-08-28T18:34:09.886Z</time>
      </trkpt>
      <trkpt lat="48.64422" lon="2.082">
        <ele>132.6</ele>
        <time>2025-08-28T18:34:17.521Z</time>
      </trkpt>
      <trkpt lat="48.64427" lon="2.08209">
        <ele>132.1</ele>
        <time>2025-08-28T18:34:20.698Z</time>
      </trkpt>
      <trkpt lat="48.64465" lon="2.08217">
        <ele>130.3</ele>
        <time>2025-08-28T18:34:36.388Z</time>
      </trkpt>
      <trkpt lat="48.64473" lon="2.08215">
        <ele>130</ele>
        <time>2025-08-28T18:34:39.779Z</time>
      </trkpt>
      <trkpt lat="48.64469" lon="2.08258">
        <ele>129.2</ele>
        <time>2025-08-28T18:34:52.103Z</time>
      </trkpt>
      <trkpt lat="48.64459" lon="2.08302">
        <ele>128.6</ele>
        <time>2025-08-28T18:35:05.645Z</time>
        <extensions>
          <visugpx:TrkExtension xmlns:visugpx="https://www.visugpx.com/editgpx/">
            <visugpx:node>69</visugpx:node>
            </visugpx:TrkExtension>
        </extensions>
      </trkpt>
      <trkpt lat="48.64459" lon="2.08302">
        <ele>128.6</ele>
        <time>2025-08-28T18:35:05.645Z</time>
      </trkpt>
      <trkpt lat="48.64458" lon="2.08306">
        <ele>128.5</ele>
        <time>2025-08-28T18:35:06.832Z</time>
      </trkpt>
      <trkpt lat="48.64466" lon="2.08312">
        <ele>128</ele>
        <time>2025-08-28T18:35:10.483Z</time>
      </trkpt>
      <trkpt lat="48.64476" lon="2.08308">
        <ele>127.8</ele>
        <time>2025-08-28T18:35:15.041Z</time>
      </trkpt>
      <trkpt lat="48.645" lon="2.08309">
        <ele>127</ele>
        <time>2025-08-28T18:35:25.190Z</time>
      </trkpt>
      <trkpt lat="48.64513" lon="2.08312">
        <ele>126.9</ele>
        <time>2025-08-28T18:35:31.195Z</time>
      </trkpt>
      <trkpt lat="48.64513" lon="2.08312">
        <ele>126.9</ele>
        <time>2025-08-28T18:35:31.195Z</time>
        <extensions>
          <visugpx:TrkExtension xmlns:visugpx="https://www.visugpx.com/editgpx/">
            <visugpx:node>70</visugpx:node>
            </visugpx:TrkExtension>
        </extensions>
      </trkpt>
      <trkpt lat="48.64513" lon="2.08312">
        <ele>126.9</ele>
        <time>2025-08-28T18:35:31.195Z</time>
      </trkpt>
      <trkpt lat="48.64518" lon="2.08313">
        <ele>126.8</ele>
        <time>2025-08-28T18:35:33.414Z</time>
      </trkpt>
      <trkpt lat="48.64522" lon="2.08316">
        <ele>126.7</ele>
        <time>2025-08-28T18:35:35.363Z</time>
      </trkpt>
      <trkpt lat="48.64531" lon="2.0832">
        <ele>126.5</ele>
        <time>2025-08-28T18:35:39.472Z</time>
      </trkpt>
      <trkpt lat="48.64538" lon="2.08326">
        <ele>126.5</ele>
        <time>2025-08-28T18:35:43.232Z</time>
      </trkpt>
      <trkpt lat="48.64541" lon="2.08333">
        <ele>126.5</ele>
        <time>2025-08-28T18:35:45.809Z</time>
      </trkpt>
      <trkpt lat="48.64541" lon="2.08337">
        <ele>126.4</ele>
        <time>2025-08-28T18:35:46.911Z</time>
        <extensions>
          <visugpx:TrkExtension xmlns:visugpx="https://www.visugpx.com/editgpx/">
            <visugpx:node>71</visugpx:node>
            </visugpx:TrkExtension>
        </extensions>
      </trkpt>
      <trkpt lat="48.64541" lon="2.08347">
        <ele>126.2</ele>
        <time>2025-08-28T18:35:49.729Z</time>
      </trkpt>
      <trkpt lat="48.64542" lon="2.08379">
        <ele>126</ele>
        <time>2025-08-28T18:35:59.340Z</time>
      </trkpt>
      <trkpt lat="48.64541" lon="2.08386">
        <ele>126</ele>
        <time>2025-08-28T18:36:01.552Z</time>
      </trkpt>
      <trkpt lat="48.64538" lon="2.08426">
        <ele>126</ele>
        <time>2025-08-28T18:36:13.984Z</time>
      </trkpt>
      <trkpt lat="48.64538" lon="2.08426">
        <ele>126</ele>
        <time>2025-08-28T18:36:13.984Z</time>
        <extensions>
          <visugpx:TrkExtension xmlns:visugpx="https://www.visugpx.com/editgpx/">
            <visugpx:node>72</visugpx:node>
            </visugpx:TrkExtension>
        </extensions>
      </trkpt>
      <trkpt lat="48.64538" lon="2.08426">
        <ele>126</ele>
        <time>2025-08-28T18:36:13.984Z</time>
      </trkpt>
      <trkpt lat="48.64537" lon="2.08439">
        <ele>126</ele>
        <time>2025-08-28T18:36:18.025Z</time>
      </trkpt>
      <trkpt lat="48.64535" lon="2.08451">
        <ele>125.9</ele>
        <time>2025-08-28T18:36:21.707Z</time>
      </trkpt>
      <trkpt lat="48.64535" lon="2.08451">
        <ele>125.9</ele>
        <time>2025-08-28T18:36:21.707Z</time>
        <extensions>
          <visugpx:TrkExtension xmlns:visugpx="https://www.visugpx.com/editgpx/">
            <visugpx:node>73</visugpx:node>
            </visugpx:TrkExtension>
        </extensions>
      </trkpt>
      <trkpt lat="48.64535" lon="2.08451">
        <ele>125.9</ele>
        <time>2025-08-28T18:36:21.707Z</time>
      </trkpt>
      <trkpt lat="48.64547" lon="2.08458">
        <ele>125.7</ele>
        <time>2025-08-28T18:36:27.439Z</time>
      </trkpt>
      <trkpt lat="48.64569" lon="2.08462">
        <ele>125.7</ele>
        <time>2025-08-28T18:36:37.796Z</time>
      </trkpt>
      <trkpt lat="48.64569" lon="2.08462">
        <ele>125.7</ele>
        <time>2025-08-28T18:36:37.796Z</time>
        <extensions>
          <visugpx:TrkExtension xmlns:visugpx="https://www.visugpx.com/editgpx/">
            <visugpx:node>74</visugpx:node>
            </visugpx:TrkExtension>
        </extensions>
      </trkpt>
      <trkpt lat="48.64582" lon="2.08464">
        <ele>126</ele>
        <time>2025-08-28T18:36:44.357Z</time>
      </trkpt>
      <trkpt lat="48.64613" lon="2.08471">
        <ele>126.1</ele>
        <time>2025-08-28T18:36:59.151Z</time>
      </trkpt>
      <trkpt lat="48.64615" lon="2.08471">
        <ele>126.3</ele>
        <time>2025-08-28T18:37:00.449Z</time>
        <extensions>
          <visugpx:TrkExtension xmlns:visugpx="https://www.visugpx.com/editgpx/">
            <visugpx:node>75</visugpx:node>
            </visugpx:TrkExtension>
        </extensions>
      </trkpt>
      <trkpt lat="48.64615" lon="2.08471">
        <ele>126.3</ele>
        <time>2025-08-28T18:37:00.449Z</time>
      </trkpt>
      <trkpt lat="48.64618" lon="2.08464">
        <ele>126.4</ele>
        <time>2025-08-28T18:37:03.175Z</time>
      </trkpt>
      <trkpt lat="48.64621" lon="2.08457">
        <ele>126.5</ele>
        <time>2025-08-28T18:37:05.901Z</time>
      </trkpt>
      <trkpt lat="48.64624" lon="2.0845">
        <ele>126.6</ele>
        <time>2025-08-28T18:37:08.627Z</time>
      </trkpt>
      <trkpt lat="48.64627" lon="2.08444">
        <ele>126.6</ele>
        <time>2025-08-28T18:37:10.951Z</time>
      </trkpt>
      <trkpt lat="48.64632" lon="2.08439">
        <ele>126.6</ele>
        <time>2025-08-28T18:37:13.752Z</time>
      </trkpt>
      <trkpt lat="48.64638" lon="2.08429">
        <ele>126.4</ele>
        <time>2025-08-28T18:37:17.649Z</time>
      </trkpt>
      <trkpt lat="48.6464" lon="2.08423">
        <ele>126.4</ele>
        <time>2025-08-28T18:37:19.724Z</time>
      </trkpt>
      <trkpt lat="48.64644" lon="2.08415">
        <ele>126.5</ele>
        <time>2025-08-28T18:37:22.971Z</time>
      </trkpt>
      <trkpt lat="48.64647" lon="2.08408">
        <ele>126.8</ele>
        <time>2025-08-28T18:37:25.859Z</time>
      </trkpt>
      <trkpt lat="48.6465" lon="2.08398">
        <ele>126.9</ele>
        <time>2025-08-28T18:37:29.556Z</time>
      </trkpt>
      <trkpt lat="48.64652" lon="2.08388">
        <ele>126.9</ele>
        <time>2025-08-28T18:37:32.783Z</time>
      </trkpt>
      <trkpt lat="48.64654" lon="2.08374">
        <ele>126.8</ele>
        <time>2025-08-28T18:37:37.065Z</time>
      </trkpt>
      <trkpt lat="48.64655" lon="2.08365">
        <ele>126.7</ele>
        <time>2025-08-28T18:37:39.745Z</time>
      </trkpt>
      <trkpt lat="48.64662" lon="2.08348">
        <ele>127.2</ele>
        <time>2025-08-28T18:37:46.885Z</time>
      </trkpt>
      <trkpt lat="48.64678" lon="2.08348">
        <ele>129.1</ele>
        <time>2025-08-28T18:37:57.731Z</time>
      </trkpt>
      <trkpt lat="48.64679" lon="2.08331">
        <ele>129.8</ele>
        <time>2025-08-28T18:38:03.974Z</time>
        <extensions>
          <visugpx:TrkExtension xmlns:visugpx="https://www.visugpx.com/editgpx/">
            <visugpx:node>76</visugpx:node>
            </visugpx:TrkExtension>
        </extensions>
      </trkpt>
      <trkpt lat="48.6468" lon="2.08311">
        <ele>129.9</ele>
        <time>2025-08-28T18:38:10.465Z</time>
      </trkpt>
      <trkpt lat="48.6468" lon="2.08306">
        <ele>129.9</ele>
        <time>2025-08-28T18:38:12.009Z</time>
      </trkpt>
      <trkpt lat="48.64683" lon="2.08312">
        <ele>130.4</ele>
        <time>2025-08-28T18:38:15.241Z</time>
      </trkpt>
      <trkpt lat="48.64683" lon="2.08312">
        <ele>130.4</ele>
        <time>2025-08-28T18:38:15.241Z</time>
        <extensions>
          <visugpx:TrkExtension xmlns:visugpx="https://www.visugpx.com/editgpx/">
            <visugpx:node>77</visugpx:node>
            </visugpx:TrkExtension>
        </extensions>
      </trkpt>
      <trkpt lat="48.64689" lon="2.08322">
        <ele>131.2</ele>
        <time>2025-08-28T18:38:20.827Z</time>
      </trkpt>
      <trkpt lat="48.6469" lon="2.08322">
        <ele>131.4</ele>
        <time>2025-08-28T18:38:21.766Z</time>
        <extensions>
          <visugpx:TrkExtension xmlns:visugpx="https://www.visugpx.com/editgpx/">
            <visugpx:node>78</visugpx:node>
            </visugpx:TrkExtension>
        </extensions>
      </trkpt>
      <trkpt lat="48.64689" lon="2.08322">
        <ele>131.2</ele>
        <time>2025-08-28T18:38:22.175Z</time>
      </trkpt>
      <trkpt lat="48.64698" lon="2.08338">
        <ele>132.8</ele>
        <time>2025-08-28T18:38:31.679Z</time>
      </trkpt>
      <trkpt lat="48.64728" lon="2.08381">
        <ele>137.3</ele>
        <time>2025-08-28T18:38:59.334Z</time>
      </trkpt>
      <trkpt lat="48.6474" lon="2.08412">
        <ele>139.6</ele>
        <time>2025-08-28T18:39:14.568Z</time>
      </trkpt>
      <trkpt lat="48.64741" lon="2.08441">
        <ele>141.5</ele>
        <time>2025-08-28T18:39:26.973Z</time>
      </trkpt>
      <trkpt lat="48.64738" lon="2.08459">
        <ele>142.8</ele>
        <time>2025-08-28T18:39:35.099Z</time>
      </trkpt>
      <trkpt lat="48.64739" lon="2.08459">
        <ele>142.9</ele>
        <time>2025-08-28T18:39:35.748Z</time>
        <extensions>
          <visugpx:TrkExtension xmlns:visugpx="https://www.visugpx.com/editgpx/">
            <visugpx:node>79</visugpx:node>
            </visugpx:TrkExtension>
        </extensions>
      </trkpt>
      <trkpt lat="48.64738" lon="2.08459">
        <ele>142.8</ele>
        <time>2025-08-28T18:39:36.156Z</time>
      </trkpt>
      <trkpt lat="48.64737" lon="2.08465">
        <ele>143.3</ele>
        <time>2025-08-28T18:39:39.026Z</time>
      </trkpt>
      <trkpt lat="48.64714" lon="2.08499">
        <ele>144</ele>
        <time>2025-08-28T18:39:55.109Z</time>
      </trkpt>
      <trkpt lat="48.64716" lon="2.08509">
        <ele>143.9</ele>
        <time>2025-08-28T18:39:58.196Z</time>
      </trkpt>
      <trkpt lat="48.64738" lon="2.08514">
        <ele>146.2</ele>
        <time>2025-08-28T18:40:12.800Z</time>
        <extensions>
          <visugpx:TrkExtension xmlns:visugpx="https://www.visugpx.com/editgpx/">
            <visugpx:node>80</visugpx:node>
            </visugpx:TrkExtension>
        </extensions>
      </trkpt>
      <trkpt lat="48.64797" lon="2.08526">
        <ele>151.6</ele>
        <time>2025-08-28T18:40:50.196Z</time>
      </trkpt>
      <trkpt lat="48.64801" lon="2.0853">
        <ele>151.2</ele>
        <time>2025-08-28T18:40:52.156Z</time>
      </trkpt>
      <trkpt lat="48.64803" lon="2.08536">
        <ele>150.1</ele>
        <time>2025-08-28T18:40:53.972Z</time>
      </trkpt>
      <trkpt lat="48.64809" lon="2.08544">
        <ele>148.6</ele>
        <time>2025-08-28T18:40:57.242Z</time>
      </trkpt>
      <trkpt lat="48.64824" lon="2.08554">
        <ele>147</ele>
        <time>2025-08-28T18:41:03.945Z</time>
      </trkpt>
      <trkpt lat="48.64815" lon="2.08566">
        <ele>144.5</ele>
        <time>2025-08-28T18:41:08.850Z</time>
      </trkpt>
      <trkpt lat="48.64814" lon="2.08566">
        <ele>144.4</ele>
        <time>2025-08-28T18:41:09.259Z</time>
        <extensions>
          <visugpx:TrkExtension xmlns:visugpx="https://www.visugpx.com/editgpx/">
            <visugpx:node>81</visugpx:node>
            </visugpx:TrkExtension>
        </extensions>
      </trkpt>
      <trkpt lat="48.64814" lon="2.08566">
        <ele>144.4</ele>
        <time>2025-08-28T18:41:09.259Z</time>
      </trkpt>
      <trkpt lat="48.64783" lon="2.08559">
        <ele>144.7</ele>
        <time>2025-08-28T18:41:24.349Z</time>
      </trkpt>
      <trkpt lat="48.64774" lon="2.08558">
        <ele>144.4</ele>
        <time>2025-08-28T18:41:28.165Z</time>
      </trkpt>
      <trkpt lat="48.64774" lon="2.08558">
        <ele>144.4</ele>
        <time>2025-08-28T18:41:28.165Z</time>
        <extensions>
          <visugpx:TrkExtension xmlns:visugpx="https://www.visugpx.com/editgpx/">
            <visugpx:node>82</visugpx:node>
            </visugpx:TrkExtension>
        </extensions>
      </trkpt>
      <trkpt lat="48.64774" lon="2.08558">
        <ele>144.4</ele>
        <time>2025-08-28T18:41:28.165Z</time>
      </trkpt>
      <trkpt lat="48.64726" lon="2.08555">
        <ele>140.5</ele>
        <time>2025-08-28T18:41:47.811Z</time>
        <extensions>
          <visugpx:TrkExtension xmlns:visugpx="https://www.visugpx.com/editgpx/">
            <visugpx:node>83</visugpx:node>
            </visugpx:TrkExtension>
        </extensions>
      </trkpt>
      <trkpt lat="48.64692" lon="2.08553">
        <ele>136.9</ele>
        <time>2025-08-28T18:42:01.727Z</time>
      </trkpt>
      <trkpt lat="48.64692" lon="2.08552">
        <ele>137</ele>
        <time>2025-08-28T18:42:02.242Z</time>
        <extensions>
          <visugpx:TrkExtension xmlns:visugpx="https://www.visugpx.com/editgpx/">
            <visugpx:node>84</visugpx:node>
            </visugpx:TrkExtension>
        </extensions>
      </trkpt>
      <trkpt lat="48.64692" lon="2.08553">
        <ele>136.9</ele>
        <time>2025-08-28T18:42:02.513Z</time>
      </trkpt>
      <trkpt lat="48.64664" lon="2.08551">
        <ele>132.9</ele>
        <time>2025-08-28T18:42:13.976Z</time>
        <extensions>
          <visugpx:TrkExtension xmlns:visugpx="https://www.visugpx.com/editgpx/">
            <visugpx:node>85</visugpx:node>
            </visugpx:TrkExtension>
        </extensions>
      </trkpt>
      <trkpt lat="48.64662" lon="2.0855">
        <ele>132.7</ele>
        <time>2025-08-28T18:42:14.838Z</time>
      </trkpt>
      <trkpt lat="48.64621" lon="2.08531">
        <ele>127.1</ele>
        <time>2025-08-28T18:42:32.373Z</time>
      </trkpt>
      <trkpt lat="48.64622" lon="2.08531">
        <ele>127.2</ele>
        <time>2025-08-28T18:42:33.022Z</time>
        <extensions>
          <visugpx:TrkExtension xmlns:visugpx="https://www.visugpx.com/editgpx/">
            <visugpx:node>86</visugpx:node>
            </visugpx:TrkExtension>
        </extensions>
      </trkpt>
      <trkpt lat="48.64621" lon="2.08531">
        <ele>127.1</ele>
        <time>2025-08-28T18:42:33.431Z</time>
      </trkpt>
      <trkpt lat="48.64618" lon="2.0854">
        <ele>126.7</ele>
        <time>2025-08-28T18:42:36.155Z</time>
      </trkpt>
      <trkpt lat="48.64615" lon="2.08548">
        <ele>126.4</ele>
        <time>2025-08-28T18:42:38.640Z</time>
      </trkpt>
      <trkpt lat="48.64614" lon="2.08555">
        <ele>126.3</ele>
        <time>2025-08-28T18:42:40.714Z</time>
      </trkpt>
      <trkpt lat="48.64612" lon="2.08562">
        <ele>126.1</ele>
        <time>2025-08-28T18:42:42.805Z</time>
      </trkpt>
      <trkpt lat="48.64611" lon="2.08569">
        <ele>126</ele>
        <time>2025-08-28T18:42:44.879Z</time>
      </trkpt>
      <trkpt lat="48.64609" lon="2.08576">
        <ele>125.9</ele>
        <time>2025-08-28T18:42:47.096Z</time>
      </trkpt>
      <trkpt lat="48.64607" lon="2.08585">
        <ele>125.9</ele>
        <time>2025-08-28T18:42:50.028Z</time>
      </trkpt>
      <trkpt lat="48.64604" lon="2.08593">
        <ele>125.7</ele>
        <time>2025-08-28T18:42:52.600Z</time>
      </trkpt>
      <trkpt lat="48.64603" lon="2.086">
        <ele>125.7</ele>
        <time>2025-08-28T18:42:54.812Z</time>
      </trkpt>
      <trkpt lat="48.64601" lon="2.08607">
        <ele>125.6</ele>
        <time>2025-08-28T18:42:57.029Z</time>
      </trkpt>
      <trkpt lat="48.64599" lon="2.08616">
        <ele>125.7</ele>
        <time>2025-08-28T18:43:00.110Z</time>
      </trkpt>
      <trkpt lat="48.64598" lon="2.08624">
        <ele>125.8</ele>
        <time>2025-08-28T18:43:02.774Z</time>
      </trkpt>
      <trkpt lat="48.64596" lon="2.08633">
        <ele>125.8</ele>
        <time>2025-08-28T18:43:05.707Z</time>
      </trkpt>
      <trkpt lat="48.64594" lon="2.08641">
        <ele>125.8</ele>
        <time>2025-08-28T18:43:08.348Z</time>
      </trkpt>
      <trkpt lat="48.64593" lon="2.08645">
        <ele>125.7</ele>
        <time>2025-08-28T18:43:09.535Z</time>
      </trkpt>
      <trkpt lat="48.64592" lon="2.08655">
        <ele>125.6</ele>
        <time>2025-08-28T18:43:12.519Z</time>
      </trkpt>
      <trkpt lat="48.6459" lon="2.08665">
        <ele>125.5</ele>
        <time>2025-08-28T18:43:15.606Z</time>
      </trkpt>
      <trkpt lat="48.64589" lon="2.08675">
        <ele>125.4</ele>
        <time>2025-08-28T18:43:18.590Z</time>
      </trkpt>
      <trkpt lat="48.64587" lon="2.08685">
        <ele>125.3</ele>
        <time>2025-08-28T18:43:21.677Z</time>
      </trkpt>
      <trkpt lat="48.64586" lon="2.08697">
        <ele>125.1</ele>
        <time>2025-08-28T18:43:25.139Z</time>
      </trkpt>
      <trkpt lat="48.64584" lon="2.08708">
        <ele>124.6</ele>
        <time>2025-08-28T18:43:28.222Z</time>
      </trkpt>
      <trkpt lat="48.64583" lon="2.0872">
        <ele>124.1</ele>
        <time>2025-08-28T18:43:31.490Z</time>
      </trkpt>
      <trkpt lat="48.64581" lon="2.08732">
        <ele>123.9</ele>
        <time>2025-08-28T18:43:35.038Z</time>
      </trkpt>
      <trkpt lat="48.64581" lon="2.08742">
        <ele>123.9</ele>
        <time>2025-08-28T18:43:38.127Z</time>
      </trkpt>
      <trkpt lat="48.6458" lon="2.08751">
        <ele>123.8</ele>
        <time>2025-08-28T18:43:40.806Z</time>
      </trkpt>
      <trkpt lat="48.64581" lon="2.08763">
        <ele>123.5</ele>
        <time>2025-08-28T18:43:44.142Z</time>
      </trkpt>
      <trkpt lat="48.64582" lon="2.08774">
        <ele>123.1</ele>
        <time>2025-08-28T18:43:47.142Z</time>
      </trkpt>
      <trkpt lat="48.64581" lon="2.08781">
        <ele>123.1</ele>
        <time>2025-08-28T18:43:49.354Z</time>
      </trkpt>
      <trkpt lat="48.64581" lon="2.08788">
        <ele>123.3</ele>
        <time>2025-08-28T18:43:51.832Z</time>
      </trkpt>
      <trkpt lat="48.6458" lon="2.08795">
        <ele>123.5</ele>
        <time>2025-08-28T18:43:54.360Z</time>
      </trkpt>
      <trkpt lat="48.64579" lon="2.08802">
        <ele>123.7</ele>
        <time>2025-08-28T18:43:56.888Z</time>
      </trkpt>
      <trkpt lat="48.64579" lon="2.08811">
        <ele>124</ele>
        <time>2025-08-28T18:44:00.150Z</time>
      </trkpt>
      <trkpt lat="48.64579" lon="2.08819">
        <ele>124.3</ele>
        <time>2025-08-28T18:44:03.111Z</time>
      </trkpt>
      <trkpt lat="48.64581" lon="2.08829">
        <ele>124.7</ele>
        <time>2025-08-28T18:44:06.993Z</time>
      </trkpt>
      <trkpt lat="48.64582" lon="2.08836">
        <ele>124.9</ele>
        <time>2025-08-28T18:44:09.521Z</time>
      </trkpt>
      <trkpt lat="48.64583" lon="2.08843">
        <ele>125</ele>
        <time>2025-08-28T18:44:11.883Z</time>
      </trkpt>
      <trkpt lat="48.64585" lon="2.08853">
        <ele>125.3</ele>
        <time>2025-08-28T18:44:15.585Z</time>
      </trkpt>
      <trkpt lat="48.64586" lon="2.08862">
        <ele>125.6</ele>
        <time>2025-08-28T18:44:18.886Z</time>
      </trkpt>
      <trkpt lat="48.64587" lon="2.08872">
        <ele>126.2</ele>
        <time>2025-08-28T18:44:23.070Z</time>
      </trkpt>
      <trkpt lat="48.64588" lon="2.08882">
        <ele>126.9</ele>
        <time>2025-08-28T18:44:27.478Z</time>
      </trkpt>
      <trkpt lat="48.64588" lon="2.08885">
        <ele>127</ele>
        <time>2025-08-28T18:44:28.565Z</time>
        <extensions>
          <visugpx:TrkExtension xmlns:visugpx="https://www.visugpx.com/editgpx/">
            <visugpx:node>87</visugpx:node>
            </visugpx:TrkExtension>
        </extensions>
      </trkpt>
      <trkpt lat="48.64588" lon="2.08885">
        <ele>127</ele>
        <time>2025-08-28T18:44:28.565Z</time>
      </trkpt>
      <trkpt lat="48.64588" lon="2.08886">
        <ele>127.1</ele>
        <time>2025-08-28T18:44:29.081Z</time>
      </trkpt>
      <trkpt lat="48.64587" lon="2.08919">
        <ele>125.8</ele>
        <time>2025-08-28T18:44:38.007Z</time>
      </trkpt>
      <trkpt lat="48.64572" lon="2.08965">
        <ele>123.5</ele>
        <time>2025-08-28T18:44:51.868Z</time>
      </trkpt>
      <trkpt lat="48.64563" lon="2.08961">
        <ele>123</ele>
        <time>2025-08-28T18:44:55.704Z</time>
      </trkpt>
      <trkpt lat="48.64557" lon="2.08953">
        <ele>122.4</ele>
        <time>2025-08-28T18:44:58.974Z</time>
      </trkpt>
      <trkpt lat="48.64554" lon="2.08951">
        <ele>122.2</ele>
        <time>2025-08-28T18:45:00.315Z</time>
      </trkpt>
      <trkpt lat="48.64554" lon="2.08951">
        <ele>122.2</ele>
        <time>2025-08-28T18:45:00.315Z</time>
        <extensions>
          <visugpx:TrkExtension xmlns:visugpx="https://www.visugpx.com/editgpx/">
            <visugpx:node>88</visugpx:node>
            </visugpx:TrkExtension>
        </extensions>
      </trkpt>
      <trkpt lat="48.64557" lon="2.08944">
        <ele>122.1</ele>
        <time>2025-08-28T18:45:02.753Z</time>
      </trkpt>
      <trkpt lat="48.64559" lon="2.08936">
        <ele>122.3</ele>
        <time>2025-08-28T18:45:05.706Z</time>
      </trkpt>
      <trkpt lat="48.6456" lon="2.08927">
        <ele>122.4</ele>
        <time>2025-08-28T18:45:08.673Z</time>
      </trkpt>
      <trkpt lat="48.64562" lon="2.08918">
        <ele>122.7</ele>
        <time>2025-08-28T18:45:12.085Z</time>
      </trkpt>
      <trkpt lat="48.64563" lon="2.08909">
        <ele>123.1</ele>
        <time>2025-08-28T18:45:15.572Z</time>
      </trkpt>
      <trkpt lat="48.64564" lon="2.089">
        <ele>123.5</ele>
        <time>2025-08-28T18:45:19.059Z</time>
        <extensions>
          <visugpx:TrkExtension xmlns:visugpx="https://www.visugpx.com/editgpx/">
            <visugpx:node>89</visugpx:node>
            </visugpx:TrkExtension>
        </extensions>
      </trkpt>
      <trkpt lat="48.64564" lon="2.089">
        <ele>123.5</ele>
        <time>2025-08-28T18:45:19.059Z</time>
      </trkpt>
      <trkpt lat="48.64564" lon="2.08892">
        <ele>123.8</ele>
        <time>2025-08-28T18:45:22.020Z</time>
      </trkpt>
      <trkpt lat="48.64565" lon="2.08885">
        <ele>124</ele>
        <time>2025-08-28T18:45:24.548Z</time>
      </trkpt>
      <trkpt lat="48.64565" lon="2.08877">
        <ele>123.9</ele>
        <time>2025-08-28T18:45:26.880Z</time>
      </trkpt>
      <trkpt lat="48.64565" lon="2.08869">
        <ele>123.8</ele>
        <time>2025-08-28T18:45:29.212Z</time>
      </trkpt>
      <trkpt lat="48.64564" lon="2.08862">
        <ele>123.6</ele>
        <time>2025-08-28T18:45:31.161Z</time>
      </trkpt>
      <trkpt lat="48.64564" lon="2.08855">
        <ele>123.6</ele>
        <time>2025-08-28T18:45:33.322Z</time>
      </trkpt>
      <trkpt lat="48.64563" lon="2.08848">
        <ele>123.5</ele>
        <time>2025-08-28T18:45:35.396Z</time>
      </trkpt>
      <trkpt lat="48.64562" lon="2.08842">
        <ele>123.5</ele>
        <time>2025-08-28T18:45:37.307Z</time>
      </trkpt>
      <trkpt lat="48.64561" lon="2.08835">
        <ele>123.4</ele>
        <time>2025-08-28T18:45:39.381Z</time>
      </trkpt>
      <trkpt lat="48.64561" lon="2.08828">
        <ele>123.4</ele>
        <time>2025-08-28T18:45:41.543Z</time>
      </trkpt>
      <trkpt lat="48.6456" lon="2.08821">
        <ele>123.2</ele>
        <time>2025-08-28T18:45:43.491Z</time>
      </trkpt>
      <trkpt lat="48.64559" lon="2.08814">
        <ele>123.2</ele>
        <time>2025-08-28T18:45:45.703Z</time>
      </trkpt>
      <trkpt lat="48.64559" lon="2.08814">
        <ele>123.2</ele>
        <time>2025-08-28T18:45:45.703Z</time>
        <extensions>
          <visugpx:TrkExtension xmlns:visugpx="https://www.visugpx.com/editgpx/">
            <visugpx:node>90</visugpx:node>
            </visugpx:TrkExtension>
        </extensions>
      </trkpt>
      <trkpt lat="48.64559" lon="2.08814">
        <ele>123.2</ele>
        <time>2025-08-28T18:45:45.703Z</time>
      </trkpt>
      <trkpt lat="48.64554" lon="2.08769">
        <ele>123.1</ele>
        <time>2025-08-28T18:46:00.071Z</time>
      </trkpt>
      <trkpt lat="48.64547" lon="2.0877">
        <ele>123.3</ele>
        <time>2025-08-28T18:46:03.421Z</time>
      </trkpt>
      <trkpt lat="48.6454" lon="2.08772">
        <ele>123.6</ele>
        <time>2025-08-28T18:46:06.816Z</time>
      </trkpt>
      <trkpt lat="48.64542" lon="2.08813">
        <ele>123.4</ele>
        <time>2025-08-28T18:46:19.761Z</time>
      </trkpt>
      <trkpt lat="48.64534" lon="2.0883">
        <ele>123.1</ele>
        <time>2025-08-28T18:46:26.333Z</time>
      </trkpt>
      <trkpt lat="48.64532" lon="2.08846">
        <ele>123</ele>
        <time>2025-08-28T18:46:31.461Z</time>
      </trkpt>
      <trkpt lat="48.64534" lon="2.08872">
        <ele>123</ele>
        <time>2025-08-28T18:46:39.704Z</time>
      </trkpt>
      <trkpt lat="48.64534" lon="2.08873">
        <ele>123</ele>
        <time>2025-08-28T18:46:40.019Z</time>
      </trkpt>
      <trkpt lat="48.64534" lon="2.08873">
        <ele>123</ele>
        <time>2025-08-28T18:46:40.019Z</time>
        <extensions>
          <visugpx:TrkExtension xmlns:visugpx="https://www.visugpx.com/editgpx/">
            <visugpx:node>91</visugpx:node>
            </visugpx:TrkExtension>
        </extensions>
      </trkpt>
      <trkpt lat="48.64534" lon="2.08873">
        <ele>123</ele>
        <time>2025-08-28T18:46:40.019Z</time>
      </trkpt>
      <trkpt lat="48.64533" lon="2.08875">
        <ele>123</ele>
        <time>2025-08-28T18:46:40.794Z</time>
      </trkpt>
      <trkpt lat="48.64532" lon="2.08881">
        <ele>123</ele>
        <time>2025-08-28T18:46:42.705Z</time>
      </trkpt>
      <trkpt lat="48.64529" lon="2.08887">
        <ele>123</ele>
        <time>2025-08-28T18:46:45.028Z</time>
      </trkpt>
      <trkpt lat="48.64526" lon="2.08891">
        <ele>123</ele>
        <time>2025-08-28T18:46:46.897Z</time>
        <extensions>
          <visugpx:TrkExtension xmlns:visugpx="https://www.visugpx.com/editgpx/">
            <visugpx:node>92</visugpx:node>
            </visugpx:TrkExtension>
        </extensions>
      </trkpt>
      <trkpt lat="48.64523" lon="2.08897">
        <ele>122.9</ele>
        <time>2025-08-28T18:46:49.221Z</time>
      </trkpt>
      <trkpt lat="48.6452" lon="2.08901">
        <ele>122.9</ele>
        <time>2025-08-28T18:46:50.953Z</time>
        <extensions>
          <visugpx:TrkExtension xmlns:visugpx="https://www.visugpx.com/editgpx/">
            <visugpx:node>93</visugpx:node>
            </visugpx:TrkExtension>
        </extensions>
      </trkpt>
    </trkseg>
  </trk>
</gpx>